Darstellungsparameter: Aktuell verwendete Einstellungen:
Skalierung der Graphiken ... ?
xyx+y,   Skalierungsfaktor:      Skalierung: Modus: x, Faktor: 1
Darstellungszeitraum ... ?
Vom - - bis: - -   Zeitraum: 02.04.2014 - 22.04.2014
Min/Max/Avg-Anzeige ... ?
Zeige MMA aktuell
Zeige MMA Monat
Zeige MMA alles
Zeige --A aktuell
Zeige --A Monat
Zeige --A alles
Keine MMA-Anzeige
MMA:
Average (ber die Originaldaten)
MMA-Basis: 02.04.2014 - 22.04.2014
Quicknavigation für Darstellung... ?
Tage:      1T, 2T, 3T, 5T -1T -2T -3T -5T +1T +2T +3T +5T
Wochen: 1W, 2W, 3W -1W -2W -3W +1W +2W +3W
Monate: 1M, 3M, 6M -1M -3M -6M +1M +3M +6M
Jahre:    1J, 3J, 5J, 10J -1J -3J -5J -10J +1J +3J +5J +10J
Nutze für die Darstellung ... ?
Originaldaten oder Mittelwerte auf ...
Stundenbasis Tagesbasis Wochenbasis
Monatsbasis Jahresbasis      Datenbasis: Original-Daten
Darstellen als:
Statistik (Auto) Statistik J:M      Darstellung:
Zur Graphik,    zurück zur Übersicht aller Sensoren.
 
Tabellarische Datenbersicht: ?
 
Sensor: Nr:Datum:Temp:Abs-Feuchte:Windchill:Wind:
Aussen-T/F 1 02-04-2014 00:00:00 12 C 7.67 g/m*3 12 C 0 km/h
2 02-04-2014 00:05:00 11.9 C 7.73 g/m*3 11.9 C 0 km/h
3 02-04-2014 00:10:00 11.8 C 7.58 g/m*3 11.8 C 0 km/h
4 02-04-2014 00:15:00 11.7 C 7.53 g/m*3 11.7 C 0 km/h
5 02-04-2014 00:20:00 11.6 C 7.59 g/m*3 11.6 C 0 km/h
6 02-04-2014 00:25:00 11.5 C 7.54 g/m*3 11.5 C 0 km/h
7 02-04-2014 00:30:00 11.4 C 7.49 g/m*3 11.4 C 0 km/h
8 02-04-2014 00:35:00 11.4 C 7.49 g/m*3 11.4 C 0 km/h
9 02-04-2014 00:40:00 11.3 C 7.55 g/m*3 11.3 C 0 km/h
10 02-04-2014 00:45:00 11.3 C 7.65 g/m*3 11.3 C 0 km/h
11 02-04-2014 00:50:00 11.2 C 7.6 g/m*3 11.2 C 0 km/h
12 02-04-2014 00:55:00 11.1 C 7.66 g/m*3 11.1 C 0 km/h
13 02-04-2014 01:00:00 10.9 C 7.46 g/m*3 10.9 C 0 km/h
14 02-04-2014 01:05:00 10.9 C 7.46 g/m*3 10.9 C 0 km/h
15 02-04-2014 01:10:00 10.9 C 7.46 g/m*3 10.9 C 1.6 km/h
16 02-04-2014 01:15:00 10.9 C 7.56 g/m*3 10.9 C 1.6 km/h
17 02-04-2014 01:20:00 10.9 C 7.56 g/m*3 10.9 C 3.2 km/h
18 02-04-2014 01:25:00 10.9 C 7.56 g/m*3 10.9 C 1.6 km/h
19 02-04-2014 01:30:00 10.9 C 7.56 g/m*3 10.9 C 1.6 km/h
20 02-04-2014 01:35:00 10.8 C 7.51 g/m*3 10.8 C 0 km/h
21 02-04-2014 01:40:00 10.5 C 7.57 g/m*3 10.5 C 0 km/h
22 02-04-2014 01:45:00 10.2 C 7.52 g/m*3 10.2 C 3.2 km/h
23 02-04-2014 01:50:00 10 C 7.33 g/m*3 10 C 0 km/h
24 02-04-2014 01:55:00 9.8 C 7.24 g/m*3 9.8 C 0 km/h
25 02-04-2014 02:00:00 9.8 C 7.42 g/m*3 9.8 C 0 km/h
Sensor: Nr:Datum:Temp:Abs-Feuchte:Windchill:Wind:
Aussen-T/F 26 02-04-2014 02:05:00 9.7 C 7.38 g/m*3 9.7 C 0 km/h
27 02-04-2014 02:10:00 9.6 C 7.33 g/m*3 9.6 C 0 km/h
28 02-04-2014 02:15:00 9.4 C 7.24 g/m*3 9.4 C 0 km/h
29 02-04-2014 02:20:00 9.4 C 7.33 g/m*3 9.4 C 0 km/h
30 02-04-2014 02:25:00 9.3 C 7.28 g/m*3 9.3 C 0 km/h
31 02-04-2014 02:30:00 9.4 C 7.33 g/m*3 9.4 C 0 km/h
32 02-04-2014 02:35:00 9.3 C 7.28 g/m*3 9.3 C 1.6 km/h
33 02-04-2014 02:40:00 9.3 C 7.28 g/m*3 9.3 C 0 km/h
34 02-04-2014 02:45:00 9.3 C 7.28 g/m*3 9.3 C 0 km/h
35 02-04-2014 02:50:00 9.3 C 7.28 g/m*3 9.3 C 0 km/h
36 02-04-2014 02:55:00 9.2 C 7.23 g/m*3 9.2 C 0 km/h
37 02-04-2014 03:00:00 9.1 C 7.19 g/m*3 9.1 C 0 km/h
38 02-04-2014 03:05:00 9.1 C 7.19 g/m*3 9.1 C 0 km/h
39 02-04-2014 03:10:00 9 C 7.14 g/m*3 9 C 0 km/h
40 02-04-2014 03:15:00 8.9 C 7.18 g/m*3 8.9 C 0 km/h
41 02-04-2014 03:20:00 8.9 C 7.18 g/m*3 8.9 C 0 km/h
42 02-04-2014 03:25:00 8.9 C 7.27 g/m*3 8.9 C 0 km/h
43 02-04-2014 03:30:00 8.8 C 7.22 g/m*3 8.8 C 0 km/h
44 02-04-2014 03:35:00 8.7 C 7.18 g/m*3 8.7 C 0 km/h
45 02-04-2014 03:40:00 8.6 C 7.13 g/m*3 8.6 C 0 km/h
46 02-04-2014 03:45:00 8.4 C 7.04 g/m*3 8.4 C 0 km/h
47 02-04-2014 03:50:00 8.4 C 7.13 g/m*3 8.4 C 1.6 km/h
48 02-04-2014 03:55:00 8.3 C 7.08 g/m*3 8.3 C 1.6 km/h
49 02-04-2014 04:00:00 8.2 C 7.12 g/m*3 8.2 C 0 km/h
50 02-04-2014 04:05:00 8.2 C 7.12 g/m*3 8.2 C 0 km/h
Sensor: Nr:Datum:Temp:Abs-Feuchte:Windchill:Wind:
Aussen-T/F 51 02-04-2014 04:10:00 8.1 C 7.07 g/m*3 8.1 C 0 km/h
52 02-04-2014 04:15:00 8 C 7.03 g/m*3 8 C 1.6 km/h
53 02-04-2014 04:20:00 8 C 7.11 g/m*3 8 C 0 km/h
54 02-04-2014 04:25:00 8 C 7.03 g/m*3 8 C 0 km/h
55 02-04-2014 04:30:00 7.9 C 6.98 g/m*3 7.9 C 0 km/h
56 02-04-2014 04:35:00 7.9 C 7.06 g/m*3 7.9 C 1.6 km/h
57 02-04-2014 04:40:00 7.9 C 7.06 g/m*3 7.9 C 0 km/h
58 02-04-2014 04:45:00 7.9 C 7.06 g/m*3 7.9 C 0 km/h
59 02-04-2014 04:50:00 7.8 C 7.02 g/m*3 7.8 C 0 km/h
60 02-04-2014 04:55:00 7.7 C 6.97 g/m*3 7.7 C 0 km/h
61 02-04-2014 05:00:00 7.7 C 6.97 g/m*3 7.7 C 0 km/h
62 02-04-2014 05:05:00 7.6 C 6.93 g/m*3 7.6 C 0 km/h
63 02-04-2014 05:10:00 7.5 C 6.96 g/m*3 7.5 C 0 km/h
64 02-04-2014 05:15:00 7.4 C 6.92 g/m*3 7.4 C 0 km/h
65 02-04-2014 05:20:00 7.4 C 6.92 g/m*3 7.4 C 0 km/h
66 02-04-2014 05:25:00 7.4 C 6.92 g/m*3 7.4 C 0 km/h
67 02-04-2014 05:30:00 7.3 C 6.87 g/m*3 7.3 C 1.6 km/h
68 02-04-2014 05:35:00 7.2 C 6.91 g/m*3 7.2 C 1.6 km/h
69 02-04-2014 05:40:00 7.1 C 6.86 g/m*3 7.1 C 0 km/h
70 02-04-2014 05:45:00 7.1 C 6.86 g/m*3 7.1 C 0 km/h
71 02-04-2014 05:50:00 6.9 C 6.77 g/m*3 6.9 C 0 km/h
72 02-04-2014 05:55:00 6.8 C 6.81 g/m*3 6.8 C 0 km/h
73 02-04-2014 06:00:00 6.8 C 6.81 g/m*3 6.8 C 0 km/h
74 02-04-2014 06:05:00 6.7 C 6.76 g/m*3 6.7 C 1.6 km/h
75 02-04-2014 06:10:00 6.7 C 6.76 g/m*3 6.7 C 0 km/h
Sensor: Nr:Datum:Temp:Abs-Feuchte:Windchill:Wind:
Aussen-T/F 76 02-04-2014 06:15:00 6.6 C 6.79 g/m*3 6.6 C 0 km/h
77 02-04-2014 06:20:00 6.6 C 6.72 g/m*3 6.6 C 0 km/h
78 02-04-2014 06:25:00 6.5 C 6.67 g/m*3 6.5 C 0 km/h
79 02-04-2014 06:30:00 6.4 C 6.71 g/m*3 6.4 C 0 km/h
80 02-04-2014 06:35:00 6.4 C 6.71 g/m*3 6.4 C 0 km/h
81 02-04-2014 06:40:00 6.5 C 6.75 g/m*3 6.5 C 0 km/h
82 02-04-2014 06:45:00 6.6 C 6.87 g/m*3 6.6 C 0 km/h
83 02-04-2014 06:50:00 6.7 C 6.91 g/m*3 6.7 C 1.6 km/h
84 02-04-2014 06:55:00 6.8 C 6.88 g/m*3 6.8 C 0 km/h
85 02-04-2014 07:00:00 6.8 C 6.88 g/m*3 6.8 C 0 km/h
86 02-04-2014 07:05:00 6.8 C 6.88 g/m*3 6.8 C 0 km/h
87 02-04-2014 07:10:00 6.8 C 6.88 g/m*3 6.8 C 0 km/h
88 02-04-2014 07:15:00 6.8 C 6.88 g/m*3 6.8 C 0 km/h
89 02-04-2014 07:20:00 6.8 C 6.88 g/m*3 6.8 C 0 km/h
90 02-04-2014 07:25:00 6.8 C 6.88 g/m*3 6.8 C 0 km/h
91 02-04-2014 07:30:00 6.8 C 6.88 g/m*3 6.8 C 1.6 km/h
92 02-04-2014 07:35:00 6.8 C 6.88 g/m*3 6.8 C 0 km/h
93 02-04-2014 07:40:00 6.8 C 6.88 g/m*3 6.8 C 0 km/h
94 02-04-2014 07:45:00 6.8 C 6.88 g/m*3 6.8 C 0 km/h
95 02-04-2014 07:50:00 6.7 C 6.84 g/m*3 6.7 C 0 km/h
96 02-04-2014 07:55:00 6.7 C 6.84 g/m*3 6.7 C 0 km/h
97 02-04-2014 08:00:00 6.7 C 6.91 g/m*3 6.7 C 0 km/h
98 02-04-2014 08:05:00 6.7 C 6.91 g/m*3 6.7 C 1.6 km/h
99 02-04-2014 08:10:00 6.7 C 6.91 g/m*3 6.7 C 3.2 km/h
100 02-04-2014 08:15:00 6.8 C 6.96 g/m*3 6.8 C 1.6 km/h
Sensor: Nr:Datum:Temp:Abs-Feuchte:Windchill:Wind:
Aussen-T/F 101 02-04-2014 08:20:00 6.9 C 7.01 g/m*3 6.9 C 1.6 km/h
102 02-04-2014 08:25:00 6.9 C 6.93 g/m*3 6.9 C 3.2 km/h
103 02-04-2014 08:30:00 7.1 C 7.02 g/m*3 7.1 C 1.6 km/h
104 02-04-2014 08:35:00 7.2 C 7.06 g/m*3 7.2 C 0 km/h
105 02-04-2014 08:40:00 7.2 C 7.06 g/m*3 7.2 C 0 km/h
106 02-04-2014 08:45:00 7.3 C 7.03 g/m*3 7.3 C 0 km/h
107 02-04-2014 08:50:00 7.3 C 7.11 g/m*3 7.3 C 0 km/h
108 02-04-2014 08:55:00 7.3 C 7.11 g/m*3 7.3 C 0 km/h
109 02-04-2014 09:00:00 7.4 C 7.08 g/m*3 7.4 C 0 km/h
110 02-04-2014 09:05:00 7.5 C 7.2 g/m*3 7.5 C 0 km/h
111 02-04-2014 09:10:00 7.6 C 7.25 g/m*3 7.6 C 0 km/h
112 02-04-2014 09:15:00 7.7 C 7.3 g/m*3 7.7 C 1.6 km/h
113 02-04-2014 09:20:00 7.8 C 7.35 g/m*3 7.8 C 0 km/h
114 02-04-2014 09:25:00 7.9 C 7.39 g/m*3 7.9 C 0 km/h
115 02-04-2014 09:30:00 8.1 C 7.41 g/m*3 8.1 C 0 km/h
116 02-04-2014 09:35:00 8.2 C 7.45 g/m*3 8.2 C 0 km/h
117 02-04-2014 09:40:00 8.3 C 7.42 g/m*3 8.3 C 0 km/h
118 02-04-2014 09:45:00 8.5 C 7.43 g/m*3 8.5 C 0 km/h
119 02-04-2014 09:50:00 8.7 C 7.52 g/m*3 8.7 C 0 km/h
120 02-04-2014 09:55:00 8.8 C 7.57 g/m*3 8.8 C 0 km/h
121 02-04-2014 10:00:00 9.1 C 7.72 g/m*3 9.1 C 0 km/h
122 02-04-2014 10:05:00 9.3 C 7.73 g/m*3 9.3 C 0 km/h
123 02-04-2014 10:10:00 9.5 C 7.74 g/m*3 9.5 C 0 km/h
124 02-04-2014 10:15:00 9.8 C 7.79 g/m*3 9.8 C 0 km/h
125 02-04-2014 10:20:00 10.1 C 7.94 g/m*3 10.1 C 0 km/h
Sensor: Nr:Datum:Temp:Abs-Feuchte:Windchill:Wind:
Aussen-T/F 126 02-04-2014 10:25:00 10.3 C 7.95 g/m*3 10.3 C 1.6 km/h
127 02-04-2014 10:30:00 10.4 C 8 g/m*3 10.4 C 0 km/h
128 02-04-2014 10:35:00 10.7 C 8.15 g/m*3 10.7 C 1.6 km/h
129 02-04-2014 10:40:00 10.9 C 8.16 g/m*3 10.9 C 0 km/h
130 02-04-2014 10:45:00 11.2 C 8.21 g/m*3 11.2 C 0 km/h
131 02-04-2014 10:50:00 11.4 C 8.21 g/m*3 11.4 C 0 km/h
132 02-04-2014 10:55:00 11.8 C 8.21 g/m*3 11.8 C 0 km/h
133 02-04-2014 11:00:00 12.1 C 8.47 g/m*3 12.1 C 0 km/h
134 02-04-2014 11:05:00 12.3 C 8.47 g/m*3 12.3 C 0 km/h
135 02-04-2014 11:10:00 12.4 C 8.52 g/m*3 12.4 C 0 km/h
136 02-04-2014 11:15:00 12.6 C 8.52 g/m*3 12.6 C 0 km/h
137 02-04-2014 11:20:00 12.9 C 8.45 g/m*3 12.9 C 0 km/h
138 02-04-2014 11:25:00 13.2 C 8.61 g/m*3 13.2 C 0 km/h
139 02-04-2014 11:30:00 13.6 C 8.83 g/m*3 13.6 C 0 km/h
140 02-04-2014 11:35:00 13.9 C 8.87 g/m*3 13.9 C 1.6 km/h
141 02-04-2014 11:40:00 13.9 C 8.87 g/m*3 13.9 C 3.2 km/h
142 02-04-2014 11:45:00 14.6 C 9.26 g/m*3 14.6 C 3.2 km/h
143 02-04-2014 11:50:00 14.6 C 9.26 g/m*3 14.6 C 1.6 km/h
144 02-04-2014 11:55:00 15.4 C 8.93 g/m*3 15.4 C 1.6 km/h
145 02-04-2014 12:00:00 15.8 C 8.75 g/m*3 15.8 C 0 km/h
146 02-04-2014 12:05:00 16.1 C 8.77 g/m*3 16.1 C 1.6 km/h
147 02-04-2014 12:10:00 16.4 C 9.21 g/m*3 16.4 C 3.2 km/h
148 02-04-2014 12:15:00 16.7 C 8.95 g/m*3 16.7 C 1.6 km/h
149 02-04-2014 12:20:00 17 C 8.97 g/m*3 17 C 4.8 km/h
150 02-04-2014 12:25:00 17 C 8.97 g/m*3 17 C 4.8 km/h
Sensor: Nr:Datum:Temp:Abs-Feuchte:Windchill:Wind:
Aussen-T/F 151 02-04-2014 12:30:00 17 C 8.97 g/m*3 17 C 4.8 km/h
152 02-04-2014 12:35:00 17 C 8.97 g/m*3 17 C 8.1 km/h
153 02-04-2014 12:40:00 17 C 8.97 g/m*3 17 C 6.4 km/h
154 02-04-2014 12:45:00 18.7 C 8.97 g/m*3 18.7 C 6.4 km/h
155 02-04-2014 12:50:00 18.7 C 8.97 g/m*3 18.7 C 8.1 km/h
156 02-04-2014 13:15:00 20.4 C 9.2 g/m*3 20.4 C 6.4 km/h
157 02-04-2014 13:20:00 20.7 C 9 g/m*3 20.7 C 8.1 km/h
158 02-04-2014 13:25:00 20.7 C 9 g/m*3 20.7 C 9.7 km/h
159 02-04-2014 13:30:00 20.8 C 9.05 g/m*3 20.8 C 4.8 km/h
160 02-04-2014 13:35:00 20.8 C 9.05 g/m*3 20.8 C 4.8 km/h
161 02-04-2014 13:40:00 21.1 C 9.21 g/m*3 21.1 C 4.8 km/h
162 02-04-2014 13:45:00 21.3 C 8.2 g/m*3 21.3 C 12.9 km/h
163 02-04-2014 13:50:00 21.5 C 8.11 g/m*3 21.5 C 11.3 km/h
164 02-04-2014 13:55:00 21.6 C 7.78 g/m*3 21.6 C 12.9 km/h
165 02-04-2014 14:00:00 21.9 C 7.91 g/m*3 21.9 C 14.5 km/h
166 02-04-2014 14:05:00 22.1 C 8.2 g/m*3 22.1 C 14.5 km/h
167 02-04-2014 14:10:00 22.3 C 7.7 g/m*3 22.3 C 9.7 km/h
168 02-04-2014 14:15:00 22.4 C 7.75 g/m*3 22.4 C 17.7 km/h
169 02-04-2014 14:20:00 22.3 C 7.7 g/m*3 22.3 C 17.7 km/h
170 02-04-2014 14:25:00 22.3 C 7.7 g/m*3 22.3 C 3.2 km/h
171 02-04-2014 14:30:00 22.7 C 8.49 g/m*3 22.7 C 9.7 km/h
172 02-04-2014 14:35:00 22.6 C 8.24 g/m*3 22.6 C 12.9 km/h
173 02-04-2014 14:40:00 22.6 C 7.63 g/m*3 22.6 C 14.5 km/h
174 02-04-2014 14:45:00 22.5 C 8.19 g/m*3 22.5 C 11.3 km/h
175 02-04-2014 14:50:00 22.5 C 7.79 g/m*3 22.5 C 11.3 km/h
Sensor: Nr:Datum:Temp:Abs-Feuchte:Windchill:Wind:
Aussen-T/F 176 02-04-2014 14:55:00 22.7 C 7.88 g/m*3 22.7 C 12.9 km/h
177 02-04-2014 15:00:00 22.4 C 7.75 g/m*3 22.4 C 17.7 km/h
178 02-04-2014 15:05:00 22.4 C 8.14 g/m*3 22.4 C 9.7 km/h
179 02-04-2014 15:10:00 22.6 C 7.63 g/m*3 22.6 C 16.1 km/h
180 02-04-2014 15:15:00 22.4 C 7.75 g/m*3 22.4 C 12.9 km/h
181 02-04-2014 15:20:00 22.3 C 8.29 g/m*3 22.3 C 8.1 km/h
182 02-04-2014 15:25:00 22.6 C 8.04 g/m*3 22.6 C 9.7 km/h
183 02-04-2014 15:30:00 22.7 C 7.88 g/m*3 22.7 C 9.7 km/h
184 02-04-2014 15:35:00 22.9 C 7.77 g/m*3 22.9 C 9.7 km/h
185 02-04-2014 15:40:00 22.9 C 7.56 g/m*3 22.9 C 14.5 km/h
186 02-04-2014 15:45:00 23 C 7.81 g/m*3 23 C 9.7 km/h
187 02-04-2014 15:50:00 22.9 C 7.97 g/m*3 22.9 C 14.5 km/h
188 02-04-2014 15:55:00 22.9 C 7.77 g/m*3 22.9 C 12.9 km/h
189 02-04-2014 16:00:00 23.1 C 7.86 g/m*3 23.1 C 12.9 km/h
190 02-04-2014 16:05:00 23.2 C 7.69 g/m*3 23.2 C 20.9 km/h
191 02-04-2014 16:10:00 23.2 C 8.32 g/m*3 23.2 C 8.1 km/h
192 02-04-2014 16:15:00 23.2 C 7.48 g/m*3 23.2 C 16.1 km/h
193 02-04-2014 16:20:00 23.2 C 7.9 g/m*3 23.2 C 4.8 km/h
194 02-04-2014 16:25:00 23.2 C 7.69 g/m*3 23.2 C 9.7 km/h
195 02-04-2014 16:30:00 23.1 C 7.23 g/m*3 23.1 C 12.9 km/h
196 02-04-2014 16:35:00 23 C 7.81 g/m*3 23 C 6.4 km/h
197 02-04-2014 16:40:00 23.1 C 7.86 g/m*3 23.1 C 9.7 km/h
198 02-04-2014 16:45:00 23.2 C 7.48 g/m*3 23.2 C 4.8 km/h
199 02-04-2014 16:50:00 23.2 C 7.48 g/m*3 23.2 C 3.2 km/h
200 02-04-2014 16:55:00 23.7 C 8.56 g/m*3 23.7 C 4.8 km/h
Sensor: Nr:Datum:Temp:Abs-Feuchte:Windchill:Wind:
Aussen-T/F 201 02-04-2014 17:00:00 23.9 C 7.79 g/m*3 23.9 C 6.4 km/h
202 02-04-2014 17:05:00 24 C 7.61 g/m*3 24 C 6.4 km/h
203 02-04-2014 17:10:00 23.8 C 7.31 g/m*3 23.8 C 12.9 km/h
204 02-04-2014 17:15:00 23.6 C 7.66 g/m*3 23.6 C 4.8 km/h
205 02-04-2014 17:20:00 23.7 C 7.7 g/m*3 23.7 C 8.1 km/h
206 02-04-2014 17:25:00 23.7 C 7.49 g/m*3 23.7 C 8.1 km/h
207 02-04-2014 17:30:00 23.5 C 7.4 g/m*3 23.5 C 11.3 km/h
208 02-04-2014 17:35:00 23.2 C 7.28 g/m*3 23.2 C 8.1 km/h
209 02-04-2014 17:40:00 22.9 C 7.97 g/m*3 22.9 C 4.8 km/h
210 02-04-2014 17:45:00 22.8 C 7.52 g/m*3 22.8 C 14.5 km/h
211 02-04-2014 17:50:00 22.6 C 8.04 g/m*3 22.6 C 9.7 km/h
212 02-04-2014 17:55:00 22.7 C 7.68 g/m*3 22.7 C 11.3 km/h
213 02-04-2014 18:00:00 22.9 C 7.56 g/m*3 22.9 C 8.1 km/h
214 02-04-2014 18:05:00 23.1 C 7.65 g/m*3 23.1 C 11.3 km/h
215 02-04-2014 18:10:00 23.1 C 7.65 g/m*3 23.1 C 11.3 km/h
216 02-04-2014 18:15:00 23.1 C 7.86 g/m*3 23.1 C 6.4 km/h
217 02-04-2014 18:20:00 22.9 C 7.77 g/m*3 22.9 C 6.4 km/h
218 02-04-2014 18:25:00 22.8 C 7.72 g/m*3 22.8 C 4.8 km/h
219 02-04-2014 18:30:00 22.7 C 8.28 g/m*3 22.7 C 6.4 km/h
220 02-04-2014 18:35:00 22.4 C 7.75 g/m*3 22.4 C 14.5 km/h
221 02-04-2014 18:40:00 22.2 C 8.25 g/m*3 22.2 C 6.4 km/h
222 02-04-2014 18:45:00 22.1 C 8.2 g/m*3 22.1 C 3.2 km/h
223 02-04-2014 18:50:00 21.9 C 8.88 g/m*3 21.9 C 1.6 km/h
224 02-04-2014 18:55:00 21.3 C 9.13 g/m*3 21.3 C 3.2 km/h
225 02-04-2014 19:00:00 20.6 C 9.13 g/m*3 20.6 C 1.6 km/h
Sensor: Nr:Datum:Temp:Abs-Feuchte:Windchill:Wind:
Aussen-T/F 226 02-04-2014 19:05:00 20 C 9.16 g/m*3 20 C 1.6 km/h
227 02-04-2014 19:10:00 19.6 C 9.12 g/m*3 19.6 C 1.6 km/h
228 02-04-2014 19:15:00 19.2 C 9.07 g/m*3 19.2 C 0 km/h
229 02-04-2014 19:20:00 19 C 9.29 g/m*3 19 C 1.6 km/h
230 02-04-2014 19:25:00 18.7 C 9.29 g/m*3 18.7 C 3.2 km/h
231 02-04-2014 19:30:00 18.3 C 9.07 g/m*3 18.3 C 1.6 km/h
232 02-04-2014 19:35:00 17.9 C 9.01 g/m*3 17.9 C 4.8 km/h
233 02-04-2014 19:40:00 17.7 C 9.05 g/m*3 17.7 C 4.8 km/h
234 02-04-2014 19:45:00 17.4 C 9.04 g/m*3 17.4 C 4.8 km/h
235 02-04-2014 19:50:00 17.1 C 8.88 g/m*3 17.1 C 4.8 km/h
236 02-04-2014 19:55:00 16.9 C 8.92 g/m*3 16.9 C 3.2 km/h
237 02-04-2014 20:00:00 16.8 C 9.01 g/m*3 16.8 C 3.2 km/h
238 02-04-2014 20:05:00 16.8 C 9.01 g/m*3 16.8 C 4.8 km/h
239 02-04-2014 20:10:00 16.3 C 8.88 g/m*3 16.3 C 4.8 km/h
240 02-04-2014 20:15:00 16.1 C 8.91 g/m*3 16.1 C 3.2 km/h
241 02-04-2014 20:20:00 15.9 C 8.8 g/m*3 15.9 C 4.8 km/h
242 02-04-2014 20:25:00 15.8 C 8.88 g/m*3 15.8 C 4.8 km/h
243 02-04-2014 20:30:00 15.7 C 8.83 g/m*3 15.7 C 4.8 km/h
244 02-04-2014 20:35:00 15.7 C 8.96 g/m*3 15.7 C 3.2 km/h
245 02-04-2014 20:40:00 15.6 C 8.91 g/m*3 15.6 C 3.2 km/h
246 02-04-2014 20:45:00 15.5 C 8.86 g/m*3 15.5 C 3.2 km/h
247 02-04-2014 20:50:00 15.4 C 8.8 g/m*3 15.4 C 3.2 km/h
248 02-04-2014 20:55:00 15.3 C 8.88 g/m*3 15.3 C 3.2 km/h
249 02-04-2014 21:00:00 15.3 C 8.88 g/m*3 15.3 C 1.6 km/h
250 02-04-2014 21:05:00 15.2 C 8.83 g/m*3 15.2 C 4.8 km/h
Sensor: Nr:Datum:Temp:Abs-Feuchte:Windchill:Wind:
Aussen-T/F 251 02-04-2014 21:10:00 15.2 C 8.83 g/m*3 15.2 C 4.8 km/h
252 02-04-2014 21:15:00 15.2 C 8.96 g/m*3 15.2 C 1.6 km/h
253 02-04-2014 21:20:00 15.1 C 8.77 g/m*3 15.1 C 3.2 km/h
254 02-04-2014 21:25:00 15 C 8.85 g/m*3 15 C 4.8 km/h
255 02-04-2014 21:30:00 15 C 8.85 g/m*3 15 C 4.8 km/h
256 02-04-2014 21:35:00 14.9 C 8.92 g/m*3 14.9 C 4.8 km/h
257 02-04-2014 21:40:00 14.7 C 8.81 g/m*3 14.7 C 3.2 km/h
258 02-04-2014 21:45:00 14.6 C 9.01 g/m*3 14.6 C 0 km/h
259 02-04-2014 21:50:00 14.4 C 8.9 g/m*3 14.4 C 0 km/h
260 02-04-2014 21:55:00 14.3 C 8.97 g/m*3 14.3 C 0 km/h
261 02-04-2014 22:00:00 14.2 C 8.91 g/m*3 14.2 C 0 km/h
262 02-04-2014 22:05:00 14.1 C 8.86 g/m*3 14.1 C 0 km/h
263 02-04-2014 22:10:00 13.9 C 8.87 g/m*3 13.9 C 0 km/h
264 02-04-2014 22:15:00 13.8 C 8.94 g/m*3 13.8 C 0 km/h
265 02-04-2014 22:20:00 13.7 C 8.88 g/m*3 13.7 C 0 km/h
266 02-04-2014 22:25:00 13.7 C 8.76 g/m*3 13.7 C 0 km/h
267 02-04-2014 22:30:00 13.6 C 8.71 g/m*3 13.6 C 0 km/h
268 02-04-2014 22:35:00 13.4 C 8.72 g/m*3 13.4 C 0 km/h
269 02-04-2014 22:40:00 13.4 C 8.72 g/m*3 13.4 C 0 km/h
270 02-04-2014 22:45:00 13.3 C 8.78 g/m*3 13.3 C 1.6 km/h
271 02-04-2014 22:50:00 13.3 C 8.66 g/m*3 13.3 C 4.8 km/h
272 02-04-2014 22:55:00 13.3 C 8.66 g/m*3 13.3 C 3.2 km/h
273 02-04-2014 23:00:00 13.2 C 8.73 g/m*3 13.2 C 0 km/h
274 02-04-2014 23:05:00 13.1 C 8.67 g/m*3 13.1 C 0 km/h
275 02-04-2014 23:10:00 13.1 C 8.56 g/m*3 13.1 C 0 km/h
Sensor: Nr:Datum:Temp:Abs-Feuchte:Windchill:Wind:
Aussen-T/F 276 02-04-2014 23:15:00 13.1 C 8.56 g/m*3 13.1 C 0 km/h
277 02-04-2014 23:20:00 12.9 C 8.57 g/m*3 12.9 C 0 km/h
278 02-04-2014 23:25:00 12.7 C 8.46 g/m*3 12.7 C 0 km/h
279 02-04-2014 23:30:00 12.6 C 8.52 g/m*3 12.6 C 1.6 km/h
280 02-04-2014 23:35:00 12.6 C 8.52 g/m*3 12.6 C 3.2 km/h
281 02-04-2014 23:40:00 12.4 C 8.52 g/m*3 12.4 C 0 km/h
282 02-04-2014 23:45:00 12.3 C 8.47 g/m*3 12.3 C 0 km/h
283 02-04-2014 23:50:00 12.2 C 8.42 g/m*3 12.2 C 0 km/h
284 02-04-2014 23:55:00 12.1 C 8.47 g/m*3 12.1 C 0 km/h
285 03-04-2014 00:00:00 11.9 C 8.37 g/m*3 11.9 C 0 km/h
286 03-04-2014 00:05:00 11.7 C 8.37 g/m*3 11.7 C 0 km/h
287 03-04-2014 00:10:00 11.7 C 8.37 g/m*3 11.7 C 0 km/h
288 03-04-2014 00:15:00 11.6 C 8.32 g/m*3 11.6 C 0 km/h
289 03-04-2014 00:20:00 11.6 C 8.32 g/m*3 11.6 C 0 km/h
290 03-04-2014 00:25:00 11.4 C 8.21 g/m*3 11.4 C 0 km/h
291 03-04-2014 00:30:00 11.3 C 8.16 g/m*3 11.3 C 0 km/h
292 03-04-2014 00:35:00 11.3 C 8.26 g/m*3 11.3 C 0 km/h
293 03-04-2014 00:40:00 11.3 C 8.36 g/m*3 11.3 C 0 km/h
294 03-04-2014 00:45:00 11.4 C 8.42 g/m*3 11.4 C 0 km/h
295 03-04-2014 00:50:00 11.4 C 8.42 g/m*3 11.4 C 0 km/h
296 03-04-2014 00:55:00 11.4 C 8.42 g/m*3 11.4 C 0 km/h
297 03-04-2014 01:00:00 11.4 C 8.42 g/m*3 11.4 C 0 km/h
298 03-04-2014 01:05:00 11.4 C 8.42 g/m*3 11.4 C 0 km/h
299 03-04-2014 01:10:00 11.4 C 8.31 g/m*3 11.4 C 0 km/h
300 03-04-2014 01:15:00 11.4 C 8.31 g/m*3 11.4 C 0 km/h
Sensor: Nr:Datum:Temp:Abs-Feuchte:Windchill:Wind:
Aussen-T/F 301 03-04-2014 01:20:00 11.4 C 8.31 g/m*3 11.4 C 0 km/h
302 03-04-2014 01:25:00 11.4 C 8.31 g/m*3 11.4 C 0 km/h
303 03-04-2014 01:30:00 11.4 C 8.42 g/m*3 11.4 C 0 km/h
304 03-04-2014 01:35:00 11.4 C 8.42 g/m*3 11.4 C 1.6 km/h
305 03-04-2014 01:40:00 11.3 C 8.36 g/m*3 11.3 C 4.8 km/h
306 03-04-2014 01:45:00 11.3 C 8.36 g/m*3 11.3 C 1.6 km/h
307 03-04-2014 01:50:00 11.4 C 8.42 g/m*3 11.4 C 3.2 km/h
308 03-04-2014 01:55:00 11.5 C 8.47 g/m*3 11.5 C 4.8 km/h
309 03-04-2014 02:00:00 11.5 C 8.47 g/m*3 11.5 C 0 km/h
310 03-04-2014 02:05:00 11.3 C 8.36 g/m*3 11.3 C 0 km/h
311 03-04-2014 02:10:00 11.2 C 8.31 g/m*3 11.2 C 1.6 km/h
312 03-04-2014 02:15:00 11.1 C 8.36 g/m*3 11.1 C 0 km/h
313 03-04-2014 02:20:00 10.9 C 8.26 g/m*3 10.9 C 1.6 km/h
314 03-04-2014 02:25:00 10.8 C 8.2 g/m*3 10.8 C 0 km/h
315 03-04-2014 02:30:00 10.7 C 8.15 g/m*3 10.7 C 0 km/h
316 03-04-2014 02:35:00 10.7 C 8.25 g/m*3 10.7 C 0 km/h
317 03-04-2014 02:40:00 10.7 C 8.25 g/m*3 10.7 C 0 km/h
318 03-04-2014 02:45:00 10.7 C 8.25 g/m*3 10.7 C 0 km/h
319 03-04-2014 02:50:00 10.7 C 8.25 g/m*3 10.7 C 1.6 km/h
320 03-04-2014 02:55:00 10.7 C 8.25 g/m*3 10.7 C 0 km/h
321 03-04-2014 03:00:00 10.7 C 8.25 g/m*3 10.7 C 0 km/h
322 03-04-2014 03:05:00 10.7 C 8.35 g/m*3 10.7 C 0 km/h
323 03-04-2014 03:10:00 10.7 C 8.35 g/m*3 10.7 C 0 km/h
324 03-04-2014 03:15:00 10.7 C 8.35 g/m*3 10.7 C 0 km/h
325 03-04-2014 03:20:00 10.6 C 8.3 g/m*3 10.6 C 0 km/h
Sensor: Nr:Datum:Temp:Abs-Feuchte:Windchill:Wind:
Aussen-T/F 326 03-04-2014 03:25:00 10.6 C 8.3 g/m*3 10.6 C 0 km/h
327 03-04-2014 03:30:00 10.4 C 8.19 g/m*3 10.4 C 0 km/h
328 03-04-2014 03:35:00 10.4 C 8.29 g/m*3 10.4 C 0 km/h
329 03-04-2014 03:40:00 10.3 C 8.14 g/m*3 10.3 C 0 km/h
330 03-04-2014 03:45:00 10.2 C 8.09 g/m*3 10.2 C 0 km/h
331 03-04-2014 03:50:00 10.2 C 8.09 g/m*3 10.2 C 0 km/h
332 03-04-2014 03:55:00 10.1 C 8.04 g/m*3 10.1 C 0 km/h
333 03-04-2014 04:00:00 9.9 C 7.94 g/m*3 9.9 C 0 km/h
334 03-04-2014 04:05:00 9.8 C 7.98 g/m*3 9.8 C 0 km/h
335 03-04-2014 04:10:00 9.7 C 7.93 g/m*3 9.7 C 0 km/h
336 03-04-2014 04:15:00 9.7 C 7.93 g/m*3 9.7 C 0 km/h
337 03-04-2014 04:20:00 9.7 C 7.93 g/m*3 9.7 C 0 km/h
338 03-04-2014 04:25:00 9.7 C 7.93 g/m*3 9.7 C 0 km/h
339 03-04-2014 04:30:00 9.6 C 7.88 g/m*3 9.6 C 0 km/h
340 03-04-2014 04:35:00 9.4 C 7.87 g/m*3 9.4 C 0 km/h
341 03-04-2014 04:40:00 9.3 C 7.82 g/m*3 9.3 C 0 km/h
342 03-04-2014 04:45:00 9.2 C 7.77 g/m*3 9.2 C 0 km/h
343 03-04-2014 04:50:00 9.1 C 7.72 g/m*3 9.1 C 0 km/h
344 03-04-2014 04:55:00 9.1 C 7.72 g/m*3 9.1 C 0 km/h
345 03-04-2014 05:00:00 9 C 7.76 g/m*3 9 C 0 km/h
346 03-04-2014 05:05:00 8.9 C 7.71 g/m*3 8.9 C 0 km/h
347 03-04-2014 05:10:00 8.8 C 7.75 g/m*3 8.8 C 1.6 km/h
348 03-04-2014 05:15:00 8.7 C 7.61 g/m*3 8.7 C 1.6 km/h
349 03-04-2014 05:20:00 8.6 C 7.65 g/m*3 8.6 C 0 km/h
350 03-04-2014 05:25:00 8.6 C 7.73 g/m*3 8.6 C 0 km/h
Sensor: Nr:Datum:Temp:Abs-Feuchte:Windchill:Wind:
Aussen-T/F 351 03-04-2014 05:30:00 8.6 C 7.65 g/m*3 8.6 C 0 km/h
352 03-04-2014 05:35:00 8.4 C 7.63 g/m*3 8.4 C 0 km/h
353 03-04-2014 05:40:00 8.3 C 7.59 g/m*3 8.3 C 0 km/h
354 03-04-2014 05:45:00 8.3 C 7.59 g/m*3 8.3 C 0 km/h
355 03-04-2014 05:50:00 8.3 C 7.59 g/m*3 8.3 C 0 km/h
356 03-04-2014 05:55:00 8.4 C 7.63 g/m*3 8.4 C 0 km/h
357 03-04-2014 06:00:00 8.4 C 7.63 g/m*3 8.4 C 0 km/h
358 03-04-2014 06:05:00 8.4 C 7.63 g/m*3 8.4 C 0 km/h
359 03-04-2014 06:10:00 8.3 C 7.59 g/m*3 8.3 C 0 km/h
360 03-04-2014 06:15:00 8.3 C 7.59 g/m*3 8.3 C 0 km/h
361 03-04-2014 06:20:00 8.2 C 7.54 g/m*3 8.2 C 0 km/h
362 03-04-2014 06:25:00 8.2 C 7.54 g/m*3 8.2 C 0 km/h
363 03-04-2014 06:30:00 8.2 C 7.62 g/m*3 8.2 C 3.2 km/h
364 03-04-2014 06:35:00 8.2 C 7.62 g/m*3 8.2 C 1.6 km/h
365 03-04-2014 06:40:00 8.2 C 7.62 g/m*3 8.2 C 0 km/h
366 03-04-2014 06:45:00 8.1 C 7.57 g/m*3 8.1 C 0 km/h
367 03-04-2014 06:50:00 8.1 C 7.57 g/m*3 8.1 C 0 km/h
368 03-04-2014 06:55:00 8 C 7.52 g/m*3 8 C 0 km/h
369 03-04-2014 07:00:00 7.9 C 7.47 g/m*3 7.9 C 0 km/h
370 03-04-2014 07:05:00 7.9 C 7.47 g/m*3 7.9 C 0 km/h
371 03-04-2014 07:10:00 7.8 C 7.43 g/m*3 7.8 C 0 km/h
372 03-04-2014 07:15:00 7.9 C 7.56 g/m*3 7.9 C 1.6 km/h
373 03-04-2014 07:20:00 7.9 C 7.56 g/m*3 7.9 C 0 km/h
374 03-04-2014 07:25:00 8 C 7.61 g/m*3 8 C 0 km/h
375 03-04-2014 07:30:00 8.1 C 7.66 g/m*3 8.1 C 0 km/h
Sensor: Nr:Datum:Temp:Abs-Feuchte:Windchill:Wind:
Aussen-T/F 376 03-04-2014 07:35:00 8.2 C 7.7 g/m*3 8.2 C 0 km/h
377 03-04-2014 07:40:00 8.3 C 7.75 g/m*3 8.3 C 1.6 km/h
378 03-04-2014 07:45:00 8.3 C 7.75 g/m*3 8.3 C 0 km/h
379 03-04-2014 07:50:00 8.4 C 7.8 g/m*3 8.4 C 0 km/h
380 03-04-2014 07:55:00 8.4 C 7.8 g/m*3 8.4 C 0 km/h
381 03-04-2014 08:00:00 8.5 C 7.85 g/m*3 8.5 C 0 km/h
382 03-04-2014 08:05:00 8.6 C 7.91 g/m*3 8.6 C 0 km/h
383 03-04-2014 08:10:00 8.7 C 7.96 g/m*3 8.7 C 0 km/h
384 03-04-2014 08:15:00 8.8 C 8.01 g/m*3 8.8 C 0 km/h
385 03-04-2014 08:20:00 8.8 C 7.92 g/m*3 8.8 C 0 km/h
386 03-04-2014 08:25:00 9 C 8.02 g/m*3 9 C 1.6 km/h
387 03-04-2014 08:30:00 9.1 C 8.07 g/m*3 9.1 C 0 km/h
388 03-04-2014 08:35:00 9.2 C 8.13 g/m*3 9.2 C 0 km/h
389 03-04-2014 08:40:00 9.3 C 8.09 g/m*3 9.3 C 0 km/h
390 03-04-2014 08:45:00 9.4 C 8.14 g/m*3 9.4 C 1.6 km/h
391 03-04-2014 08:50:00 9.4 C 8.05 g/m*3 9.4 C 0 km/h
392 03-04-2014 08:55:00 9.6 C 8.15 g/m*3 9.6 C 0 km/h
393 03-04-2014 09:00:00 9.7 C 8.2 g/m*3 9.7 C 0 km/h
394 03-04-2014 09:05:00 9.7 C 8.2 g/m*3 9.7 C 0 km/h
395 03-04-2014 09:10:00 9.8 C 8.26 g/m*3 9.8 C 0 km/h
396 03-04-2014 09:15:00 9.9 C 8.22 g/m*3 9.9 C 0 km/h
397 03-04-2014 09:20:00 10.1 C 8.23 g/m*3 10.1 C 0 km/h
398 03-04-2014 09:25:00 10.2 C 8.28 g/m*3 10.2 C 0 km/h
399 03-04-2014 09:30:00 10.3 C 8.33 g/m*3 10.3 C 0 km/h
400 03-04-2014 09:35:00 10.4 C 8.38 g/m*3 10.4 C 0 km/h
Sensor: Nr:Datum:Temp:Abs-Feuchte:Windchill:Wind:
Aussen-T/F 401 03-04-2014 09:40:00 10.4 C 8.29 g/m*3 10.4 C 0 km/h
402 03-04-2014 09:45:00 10.5 C 8.34 g/m*3 10.5 C 1.6 km/h
403 03-04-2014 09:50:00 10.6 C 8.39 g/m*3 10.6 C 0 km/h
404 03-04-2014 09:55:00 10.6 C 8.39 g/m*3 10.6 C 0 km/h
405 03-04-2014 10:00:00 10.7 C 8.45 g/m*3 10.7 C 0 km/h
406 03-04-2014 10:05:00 10.8 C 8.5 g/m*3 10.8 C 1.6 km/h
407 03-04-2014 10:10:00 10.9 C 8.55 g/m*3 10.9 C 1.6 km/h
408 03-04-2014 10:15:00 11.1 C 8.56 g/m*3 11.1 C 3.2 km/h
409 03-04-2014 10:20:00 11.2 C 8.51 g/m*3 11.2 C 1.6 km/h
410 03-04-2014 10:25:00 11.4 C 8.72 g/m*3 11.4 C 0 km/h
411 03-04-2014 10:30:00 11.7 C 8.68 g/m*3 11.7 C 1.6 km/h
412 03-04-2014 10:35:00 11.9 C 8.79 g/m*3 11.9 C 1.6 km/h
413 03-04-2014 10:40:00 12.1 C 8.69 g/m*3 12.1 C 0 km/h
414 03-04-2014 10:45:00 12.2 C 8.74 g/m*3 12.2 C 1.6 km/h
415 03-04-2014 10:50:00 12.3 C 8.58 g/m*3 12.3 C 1.6 km/h
416 03-04-2014 10:55:00 12.4 C 8.74 g/m*3 12.4 C 1.6 km/h
417 03-04-2014 11:00:00 12.6 C 8.74 g/m*3 12.6 C 0 km/h
418 03-04-2014 11:05:00 12.8 C 8.85 g/m*3 12.8 C 0 km/h
419 03-04-2014 11:10:00 13 C 8.96 g/m*3 13 C 0 km/h
420 03-04-2014 11:15:00 13.3 C 9.13 g/m*3 13.3 C 0 km/h
421 03-04-2014 11:20:00 13.5 C 8.89 g/m*3 13.5 C 1.6 km/h
422 03-04-2014 11:25:00 13.7 C 9.12 g/m*3 13.7 C 1.6 km/h
423 03-04-2014 11:30:00 13.8 C 9.06 g/m*3 13.8 C 1.6 km/h
424 03-04-2014 11:35:00 13.9 C 8.99 g/m*3 13.9 C 1.6 km/h
425 03-04-2014 11:40:00 14.1 C 9.1 g/m*3 14.1 C 3.2 km/h
Sensor: Nr:Datum:Temp:Abs-Feuchte:Windchill:Wind:
Aussen-T/F 426 03-04-2014 11:45:00 14.3 C 9.21 g/m*3 14.3 C 3.2 km/h
427 03-04-2014 11:50:00 14.4 C 9.27 g/m*3 14.4 C 3.2 km/h
428 03-04-2014 11:55:00 14.7 C 9.57 g/m*3 14.7 C 1.6 km/h
429 03-04-2014 12:00:00 14.9 C 9.56 g/m*3 14.9 C 4.8 km/h
430 03-04-2014 12:05:00 15.3 C 9.79 g/m*3 15.3 C 3.2 km/h
431 03-04-2014 12:10:00 15.6 C 9.71 g/m*3 15.6 C 1.6 km/h
432 03-04-2014 12:15:00 16 C 10.08 g/m*3 16 C 3.2 km/h
433 03-04-2014 12:20:00 16.4 C 10.05 g/m*3 16.4 C 4.8 km/h
434 03-04-2014 12:25:00 16.9 C 9.92 g/m*3 16.9 C 4.8 km/h
435 03-04-2014 12:30:00 17.3 C 9.87 g/m*3 17.3 C 3.2 km/h
436 03-04-2014 12:35:00 17.7 C 9.96 g/m*3 17.7 C 6.4 km/h
437 03-04-2014 12:40:00 18.2 C 10.1 g/m*3 18.2 C 6.4 km/h
438 03-04-2014 12:45:00 18.6 C 9.87 g/m*3 18.6 C 1.6 km/h
439 03-04-2014 12:50:00 18.8 C 9.5 g/m*3 18.8 C 3.2 km/h
440 03-04-2014 12:55:00 19.3 C 9.79 g/m*3 19.3 C 1.6 km/h
441 03-04-2014 13:00:00 19.6 C 9.45 g/m*3 19.6 C 4.8 km/h
442 03-04-2014 13:05:00 19.9 C 9.45 g/m*3 19.9 C 4.8 km/h
443 03-04-2014 13:10:00 20.2 C 8.74 g/m*3 20.2 C 8.1 km/h
444 03-04-2014 13:15:00 20.4 C 8.67 g/m*3 20.4 C 8.1 km/h
445 03-04-2014 13:20:00 20.6 C 8.23 g/m*3 20.6 C 4.8 km/h
446 03-04-2014 13:25:00 20.7 C 8.1 g/m*3 20.7 C 12.9 km/h
447 03-04-2014 13:30:00 20.7 C 8.1 g/m*3 20.7 C 14.5 km/h
448 03-04-2014 13:35:00 20.7 C 7.92 g/m*3 20.7 C 8.1 km/h
449 03-04-2014 13:40:00 20.7 C 8.1 g/m*3 20.7 C 8.1 km/h
450 03-04-2014 13:45:00 20.8 C 7.97 g/m*3 20.8 C 11.3 km/h
Sensor: Nr:Datum:Temp:Abs-Feuchte:Windchill:Wind:
Aussen-T/F 451 03-04-2014 13:50:00 20.8 C 8.33 g/m*3 20.8 C 9.7 km/h
452 03-04-2014 13:55:00 21 C 8.06 g/m*3 21 C 9.7 km/h
453 03-04-2014 14:00:00 21.2 C 8.34 g/m*3 21.2 C 11.3 km/h
454 03-04-2014 14:05:00 21.3 C 8.2 g/m*3 21.3 C 9.7 km/h
455 03-04-2014 14:10:00 21.4 C 8.25 g/m*3 21.4 C 6.4 km/h
456 03-04-2014 14:15:00 21.4 C 8.25 g/m*3 21.4 C 6.4 km/h
457 03-04-2014 14:20:00 21.4 C 8.25 g/m*3 21.4 C 4.8 km/h
458 03-04-2014 14:25:00 21.4 C 8.25 g/m*3 21.4 C 6.4 km/h
459 03-04-2014 18:55:00 20.4 C 9.02 g/m*3 20.4 C 1.6 km/h
460 03-04-2014 19:00:00 19.9 C 9.11 g/m*3 19.9 C 3.2 km/h
461 03-04-2014 19:05:00 19.6 C 9.12 g/m*3 19.6 C 4.8 km/h
462 03-04-2014 19:10:00 19.4 C 9.18 g/m*3 19.4 C 3.2 km/h
463 03-04-2014 19:15:00 19.4 C 9.18 g/m*3 19.4 C 3.2 km/h
464 03-04-2014 20:25:00 16.4 C 13.96 g/m*3 16.4 C 1.6 km/h
465 03-04-2014 20:30:00 16.3 C 8.46 g/m*3 16.3 C 1.6 km/h
466 03-04-2014 20:35:00 16.2 C 8.41 g/m*3 16.2 C 6.4 km/h
467 03-04-2014 20:40:00 16.2 C 8.27 g/m*3 16.2 C 8.1 km/h
468 03-04-2014 20:45:00 16.2 C 8.83 g/m*3 16.2 C 6.4 km/h
469 03-04-2014 20:50:00 15.9 C 8.53 g/m*3 15.9 C 6.4 km/h
470 03-04-2014 20:55:00 15.8 C 8.35 g/m*3 15.8 C 4.8 km/h
471 03-04-2014 21:00:00 15.8 C 8.35 g/m*3 15.8 C 4.8 km/h
472 03-04-2014 21:05:00 15.7 C 8.43 g/m*3 15.7 C 4.8 km/h
473 03-04-2014 21:10:00 15.6 C 8.51 g/m*3 15.6 C 1.6 km/h
474 03-04-2014 21:15:00 15.5 C 8.33 g/m*3 15.5 C 1.6 km/h
475 03-04-2014 21:20:00 15.4 C 8.54 g/m*3 15.4 C 1.6 km/h
Sensor: Nr:Datum:Temp:Abs-Feuchte:Windchill:Wind:
Aussen-T/F 476 03-04-2014 21:25:00 15.3 C 8.62 g/m*3 15.3 C 1.6 km/h
477 03-04-2014 21:30:00 15.2 C 8.83 g/m*3 15.2 C 0 km/h
478 03-04-2014 21:35:00 15.2 C 8.83 g/m*3 15.2 C 3.2 km/h
479 03-04-2014 21:40:00 15.2 C 8.96 g/m*3 15.2 C 0 km/h
480 03-04-2014 21:45:00 15.2 C 8.31 g/m*3 15.2 C 4.8 km/h
481 03-04-2014 21:50:00 15.3 C 8.62 g/m*3 15.3 C 4.8 km/h
482 03-04-2014 21:55:00 15.4 C 8.67 g/m*3 15.4 C 3.2 km/h
483 03-04-2014 22:00:00 15.3 C 8.75 g/m*3 15.3 C 0 km/h
484 03-04-2014 22:05:00 15.1 C 8.51 g/m*3 15.1 C 0 km/h
485 03-04-2014 22:10:00 14.9 C 8.67 g/m*3 14.9 C 0 km/h
486 03-04-2014 22:15:00 14.7 C 8.69 g/m*3 14.7 C 3.2 km/h
487 03-04-2014 22:20:00 14.6 C 8.88 g/m*3 14.6 C 0 km/h
488 03-04-2014 22:25:00 14.4 C 8.78 g/m*3 14.4 C 3.2 km/h
489 03-04-2014 22:30:00 14.3 C 8.97 g/m*3 14.3 C 0 km/h
490 03-04-2014 22:35:00 14.1 C 8.62 g/m*3 14.1 C 1.6 km/h
491 03-04-2014 22:40:00 14.1 C 8.62 g/m*3 14.1 C 1.6 km/h
492 03-04-2014 22:45:00 14 C 8.44 g/m*3 14 C 0 km/h
493 03-04-2014 22:50:00 13.9 C 8.51 g/m*3 13.9 C 0 km/h
494 03-04-2014 22:55:00 13.9 C 8.51 g/m*3 13.9 C 1.6 km/h
495 03-04-2014 23:00:00 13.7 C 8.64 g/m*3 13.7 C 0 km/h
496 03-04-2014 23:05:00 13.6 C 8.59 g/m*3 13.6 C 0 km/h
497 03-04-2014 23:10:00 13.5 C 8.42 g/m*3 13.5 C 0 km/h
498 03-04-2014 23:15:00 13.4 C 8.49 g/m*3 13.4 C 0 km/h
499 03-04-2014 23:20:00 13.3 C 8.66 g/m*3 13.3 C 0 km/h
500 03-04-2014 23:25:00 13.2 C 8.61 g/m*3 13.2 C 0 km/h
Sensor: Nr:Datum:Temp:Abs-Feuchte:Windchill:Wind:
Aussen-T/F 501 03-04-2014 23:30:00 13.1 C 8.56 g/m*3 13.1 C 0 km/h
502 03-04-2014 23:35:00 13.1 C 8.56 g/m*3 13.1 C 0 km/h
503 03-04-2014 23:40:00 12.9 C 8.57 g/m*3 12.9 C 0 km/h
504 03-04-2014 23:45:00 12.8 C 8.51 g/m*3 12.8 C 0 km/h
505 03-04-2014 23:50:00 12.8 C 8.4 g/m*3 12.8 C 0 km/h
506 03-04-2014 23:55:00 12.7 C 8.46 g/m*3 12.7 C 0 km/h
507 04-04-2014 00:00:00 12.7 C 8.57 g/m*3 12.7 C 0 km/h
508 04-04-2014 00:05:00 12.6 C 8.52 g/m*3 12.6 C 0 km/h
509 04-04-2014 00:10:00 12.5 C 8.47 g/m*3 12.5 C 0 km/h
510 04-04-2014 00:15:00 12.4 C 8.3 g/m*3 12.4 C 0 km/h
511 04-04-2014 00:20:00 12.3 C 8.25 g/m*3 12.3 C 0 km/h
512 04-04-2014 00:25:00 12.2 C 8.31 g/m*3 12.2 C 0 km/h
513 04-04-2014 00:30:00 12.2 C 8.42 g/m*3 12.2 C 0 km/h
514 04-04-2014 00:35:00 12.2 C 8.42 g/m*3 12.2 C 0 km/h
515 04-04-2014 00:40:00 12.2 C 8.42 g/m*3 12.2 C 0 km/h
516 04-04-2014 00:45:00 12.2 C 8.42 g/m*3 12.2 C 0 km/h
517 04-04-2014 00:50:00 12.3 C 8.58 g/m*3 12.3 C 1.6 km/h
518 04-04-2014 00:55:00 12.3 C 8.69 g/m*3 12.3 C 0 km/h
519 04-04-2014 01:00:00 12.3 C 8.69 g/m*3 12.3 C 0 km/h
520 04-04-2014 01:05:00 12.4 C 8.63 g/m*3 12.4 C 0 km/h
521 04-04-2014 01:10:00 12.5 C 8.58 g/m*3 12.5 C 1.6 km/h
522 04-04-2014 01:15:00 12.7 C 8.57 g/m*3 12.7 C 3.2 km/h
523 04-04-2014 01:20:00 12.8 C 8.74 g/m*3 12.8 C 0 km/h
524 04-04-2014 01:25:00 12.8 C 8.62 g/m*3 12.8 C 3.2 km/h
525 04-04-2014 01:30:00 12.9 C 8.57 g/m*3 12.9 C 6.4 km/h
Sensor: Nr:Datum:Temp:Abs-Feuchte:Windchill:Wind:
Aussen-T/F 526 04-04-2014 01:35:00 13.1 C 8.67 g/m*3 13.1 C 1.6 km/h
527 04-04-2014 01:40:00 13.1 C 8.79 g/m*3 13.1 C 3.2 km/h
528 04-04-2014 01:45:00 13.1 C 8.79 g/m*3 13.1 C 0 km/h
529 04-04-2014 01:50:00 12.9 C 8.68 g/m*3 12.9 C 0 km/h
530 04-04-2014 01:55:00 12.9 C 8.68 g/m*3 12.9 C 0 km/h
531 04-04-2014 02:00:00 12.8 C 8.74 g/m*3 12.8 C 0 km/h
532 04-04-2014 02:05:00 12.8 C 8.74 g/m*3 12.8 C 0 km/h
533 04-04-2014 02:10:00 12.8 C 8.74 g/m*3 12.8 C 0 km/h
534 04-04-2014 02:15:00 12.8 C 8.74 g/m*3 12.8 C 0 km/h
535 04-04-2014 02:20:00 12.8 C 8.62 g/m*3 12.8 C 1.6 km/h
536 04-04-2014 02:25:00 12.8 C 8.74 g/m*3 12.8 C 0 km/h
537 04-04-2014 02:30:00 12.8 C 8.74 g/m*3 12.8 C 0 km/h
538 04-04-2014 02:35:00 12.8 C 8.74 g/m*3 12.8 C 0 km/h
539 04-04-2014 02:40:00 12.8 C 8.74 g/m*3 12.8 C 0 km/h
540 04-04-2014 02:45:00 12.7 C 8.68 g/m*3 12.7 C 0 km/h
541 04-04-2014 02:50:00 12.7 C 8.79 g/m*3 12.7 C 0 km/h
542 04-04-2014 02:55:00 12.6 C 8.74 g/m*3 12.6 C 0 km/h
543 04-04-2014 03:00:00 12.6 C 8.74 g/m*3 12.6 C 0 km/h
544 04-04-2014 03:05:00 12.5 C 8.69 g/m*3 12.5 C 0 km/h
545 04-04-2014 03:10:00 12.4 C 8.74 g/m*3 12.4 C 0 km/h
546 04-04-2014 03:15:00 12.4 C 8.74 g/m*3 12.4 C 0 km/h
547 04-04-2014 03:20:00 12.3 C 8.8 g/m*3 12.3 C 0 km/h
548 04-04-2014 03:25:00 12.3 C 8.8 g/m*3 12.3 C 0 km/h
549 04-04-2014 03:30:00 12.3 C 8.8 g/m*3 12.3 C 0 km/h
550 04-04-2014 03:35:00 12.2 C 8.85 g/m*3 12.2 C 0 km/h
Sensor: Nr:Datum:Temp:Abs-Feuchte:Windchill:Wind:
Aussen-T/F 551 04-04-2014 03:40:00 12.2 C 8.74 g/m*3 12.2 C 1.6 km/h
552 04-04-2014 03:45:00 12.2 C 8.85 g/m*3 12.2 C 0 km/h
553 04-04-2014 03:50:00 12.2 C 8.85 g/m*3 12.2 C 0 km/h
554 04-04-2014 03:55:00 12.2 C 8.85 g/m*3 12.2 C 0 km/h
555 04-04-2014 04:00:00 12.2 C 8.74 g/m*3 12.2 C 0 km/h
556 04-04-2014 04:05:00 12.2 C 8.85 g/m*3 12.2 C 0 km/h
557 04-04-2014 04:10:00 12.2 C 8.85 g/m*3 12.2 C 0 km/h
558 04-04-2014 04:15:00 12.2 C 8.85 g/m*3 12.2 C 0 km/h
559 04-04-2014 04:20:00 12.2 C 8.85 g/m*3 12.2 C 0 km/h
560 04-04-2014 04:25:00 12.2 C 8.85 g/m*3 12.2 C 0 km/h
561 04-04-2014 04:30:00 12.2 C 8.85 g/m*3 12.2 C 1.6 km/h
562 04-04-2014 04:35:00 12.1 C 8.9 g/m*3 12.1 C 0 km/h
563 04-04-2014 04:40:00 12.1 C 8.9 g/m*3 12.1 C 0 km/h
564 04-04-2014 04:45:00 11.9 C 8.79 g/m*3 11.9 C 0 km/h
565 04-04-2014 04:50:00 11.9 C 8.79 g/m*3 11.9 C 0 km/h
566 04-04-2014 04:55:00 11.8 C 8.74 g/m*3 11.8 C 1.6 km/h
567 04-04-2014 05:00:00 11.8 C 8.74 g/m*3 11.8 C 0 km/h
568 04-04-2014 05:05:00 11.8 C 8.84 g/m*3 11.8 C 0 km/h
569 04-04-2014 05:10:00 11.7 C 8.79 g/m*3 11.7 C 0 km/h
570 04-04-2014 05:15:00 11.7 C 8.79 g/m*3 11.7 C 3.2 km/h
571 04-04-2014 05:20:00 11.6 C 8.73 g/m*3 11.6 C 0 km/h
572 04-04-2014 05:25:00 11.6 C 8.73 g/m*3 11.6 C 0 km/h
573 04-04-2014 05:30:00 11.5 C 8.68 g/m*3 11.5 C 0 km/h
574 04-04-2014 05:35:00 11.4 C 8.62 g/m*3 11.4 C 0 km/h
575 04-04-2014 05:40:00 11.3 C 8.57 g/m*3 11.3 C 1.6 km/h
Sensor: Nr:Datum:Temp:Abs-Feuchte:Windchill:Wind:
Aussen-T/F 576 04-04-2014 05:45:00 11.3 C 8.57 g/m*3 11.3 C 1.6 km/h
577 04-04-2014 05:50:00 11.3 C 8.67 g/m*3 11.3 C 1.6 km/h
578 04-04-2014 05:55:00 11.3 C 8.67 g/m*3 11.3 C 0 km/h
579 04-04-2014 06:00:00 11.3 C 8.67 g/m*3 11.3 C 0 km/h
580 04-04-2014 06:05:00 11.3 C 8.67 g/m*3 11.3 C 0 km/h
581 04-04-2014 06:10:00 11.3 C 8.77 g/m*3 11.3 C 0 km/h
582 04-04-2014 06:15:00 11.3 C 8.67 g/m*3 11.3 C 0 km/h
583 04-04-2014 06:20:00 11.3 C 8.67 g/m*3 11.3 C 0 km/h
584 04-04-2014 06:25:00 11.3 C 8.67 g/m*3 11.3 C 3.2 km/h
585 04-04-2014 06:30:00 11.3 C 8.67 g/m*3 11.3 C 0 km/h
586 04-04-2014 06:35:00 11.3 C 8.77 g/m*3 11.3 C 0 km/h
587 04-04-2014 06:40:00 11.3 C 8.77 g/m*3 11.3 C 0 km/h
588 04-04-2014 06:45:00 11.2 C 8.72 g/m*3 11.2 C 0 km/h
589 04-04-2014 06:50:00 11.3 C 8.77 g/m*3 11.3 C 1.6 km/h
590 04-04-2014 06:55:00 11.4 C 8.83 g/m*3 11.4 C 0 km/h
591 04-04-2014 07:00:00 11.4 C 8.72 g/m*3 11.4 C 0 km/h
592 04-04-2014 07:05:00 11.4 C 8.72 g/m*3 11.4 C 0 km/h
593 04-04-2014 07:10:00 11.4 C 8.72 g/m*3 11.4 C 3.2 km/h
594 04-04-2014 07:15:00 11.4 C 8.72 g/m*3 11.4 C 0 km/h
595 04-04-2014 07:20:00 11.3 C 8.67 g/m*3 11.3 C 0 km/h
596 04-04-2014 07:25:00 11.2 C 8.72 g/m*3 11.2 C 0 km/h
597 04-04-2014 07:30:00 11.2 C 8.72 g/m*3 11.2 C 0 km/h
598 04-04-2014 07:35:00 11.1 C 8.66 g/m*3 11.1 C 1.6 km/h
599 04-04-2014 07:40:00 11.1 C 8.76 g/m*3 11.1 C 3.2 km/h
600 04-04-2014 07:45:00 11.1 C 8.76 g/m*3 11.1 C 0 km/h
Sensor: Nr:Datum:Temp:Abs-Feuchte:Windchill:Wind:
Aussen-T/F 601 04-04-2014 07:50:00 11.1 C 8.76 g/m*3 11.1 C 0 km/h
602 04-04-2014 07:55:00 11 C 8.71 g/m*3 11 C 0 km/h
603 04-04-2014 08:00:00 11 C 8.71 g/m*3 11 C 0 km/h
604 04-04-2014 08:05:00 10.9 C 8.65 g/m*3 10.9 C 0 km/h
605 04-04-2014 08:10:00 10.9 C 8.75 g/m*3 10.9 C 0 km/h
606 04-04-2014 08:15:00 10.9 C 8.75 g/m*3 10.9 C 0 km/h
607 04-04-2014 08:20:00 10.9 C 8.75 g/m*3 10.9 C 0 km/h
608 04-04-2014 08:25:00 11 C 8.81 g/m*3 11 C 0 km/h
609 04-04-2014 08:30:00 11 C 8.81 g/m*3 11 C 0 km/h
610 04-04-2014 08:35:00 11.1 C 8.86 g/m*3 11.1 C 0 km/h
611 04-04-2014 08:40:00 11.1 C 8.76 g/m*3 11.1 C 0 km/h
612 04-04-2014 08:45:00 11.2 C 8.92 g/m*3 11.2 C 0 km/h
613 04-04-2014 08:50:00 11.3 C 8.87 g/m*3 11.3 C 0 km/h
614 04-04-2014 08:55:00 11.3 C 8.87 g/m*3 11.3 C 0 km/h
615 04-04-2014 09:00:00 11.4 C 8.93 g/m*3 11.4 C 0 km/h
616 04-04-2014 09:05:00 11.4 C 8.93 g/m*3 11.4 C 0 km/h
617 04-04-2014 09:10:00 11.6 C 9.04 g/m*3 11.6 C 0 km/h
618 04-04-2014 09:15:00 11.7 C 9.1 g/m*3 11.7 C 1.6 km/h
619 04-04-2014 09:20:00 11.7 C 8.99 g/m*3 11.7 C 1.6 km/h
620 04-04-2014 09:25:00 11.8 C 9.05 g/m*3 11.8 C 0 km/h
621 04-04-2014 09:30:00 11.9 C 9 g/m*3 11.9 C 0 km/h
622 04-04-2014 09:35:00 12 C 9.06 g/m*3 12 C 0 km/h
623 04-04-2014 09:40:00 12.1 C 9.22 g/m*3 12.1 C 0 km/h
624 04-04-2014 09:45:00 12.2 C 9.17 g/m*3 12.2 C 0 km/h
625 04-04-2014 09:50:00 12.3 C 9.12 g/m*3 12.3 C 0 km/h
Sensor: Nr:Datum:Temp:Abs-Feuchte:Windchill:Wind:
Aussen-T/F 626 04-04-2014 09:55:00 12.5 C 9.24 g/m*3 12.5 C 0 km/h
627 04-04-2014 10:00:00 12.6 C 9.29 g/m*3 12.6 C 0 km/h
628 04-04-2014 10:05:00 12.8 C 9.3 g/m*3 12.8 C 0 km/h
629 04-04-2014 10:10:00 12.8 C 9.18 g/m*3 12.8 C 1.6 km/h
630 04-04-2014 10:15:00 12.9 C 9.24 g/m*3 12.9 C 0 km/h
631 04-04-2014 10:20:00 13 C 9.3 g/m*3 13 C 1.6 km/h
632 04-04-2014 10:25:00 13.1 C 9.24 g/m*3 13.1 C 0 km/h
633 04-04-2014 10:30:00 13.2 C 9.42 g/m*3 13.2 C 0 km/h
634 04-04-2014 10:35:00 13.3 C 9.36 g/m*3 13.3 C 0 km/h
635 04-04-2014 10:40:00 13.5 C 9.47 g/m*3 13.5 C 1.6 km/h
636 04-04-2014 10:45:00 13.7 C 9.47 g/m*3 13.7 C 0 km/h
637 04-04-2014 10:50:00 13.8 C 9.53 g/m*3 13.8 C 1.6 km/h
638 04-04-2014 10:55:00 13.9 C 9.59 g/m*3 13.9 C 1.6 km/h
639 04-04-2014 11:00:00 14.1 C 9.71 g/m*3 14.1 C 0 km/h
640 04-04-2014 11:05:00 14.2 C 9.77 g/m*3 14.2 C 0 km/h
641 04-04-2014 11:10:00 14.4 C 9.77 g/m*3 14.4 C 1.6 km/h
642 04-04-2014 11:15:00 14.6 C 9.64 g/m*3 14.6 C 1.6 km/h
643 04-04-2014 11:20:00 14.7 C 9.82 g/m*3 14.7 C 3.2 km/h
644 04-04-2014 11:25:00 14.9 C 9.94 g/m*3 14.9 C 1.6 km/h
645 04-04-2014 11:30:00 15.1 C 9.8 g/m*3 15.1 C 3.2 km/h
646 04-04-2014 11:35:00 15.3 C 9.92 g/m*3 15.3 C 3.2 km/h
647 04-04-2014 11:40:00 15.4 C 9.72 g/m*3 15.4 C 3.2 km/h
648 04-04-2014 11:45:00 15.6 C 9.97 g/m*3 15.6 C 3.2 km/h
649 04-04-2014 11:50:00 15.7 C 10.17 g/m*3 15.7 C 3.2 km/h
650 04-04-2014 11:55:00 15.9 C 10.16 g/m*3 15.9 C 4.8 km/h
Sensor: Nr:Datum:Temp:Abs-Feuchte:Windchill:Wind:
Aussen-T/F 651 04-04-2014 12:00:00 16.1 C 10.42 g/m*3 16.1 C 1.6 km/h
652 04-04-2014 12:05:00 16.2 C 10.34 g/m*3 16.2 C 1.6 km/h
653 04-04-2014 12:10:00 16.4 C 10.05 g/m*3 16.4 C 0 km/h
654 04-04-2014 12:15:00 16.6 C 9.89 g/m*3 16.6 C 3.2 km/h
655 04-04-2014 12:20:00 16.7 C 9.95 g/m*3 16.7 C 3.2 km/h
656 04-04-2014 12:25:00 16.9 C 10.21 g/m*3 16.9 C 1.6 km/h
657 04-04-2014 12:30:00 17.1 C 9.9 g/m*3 17.1 C 1.6 km/h
658 04-04-2014 12:35:00 17.3 C 10.31 g/m*3 17.3 C 3.2 km/h
659 04-04-2014 12:40:00 17.5 C 10.29 g/m*3 17.5 C 1.6 km/h
660 04-04-2014 12:45:00 17.6 C 10.05 g/m*3 17.6 C 4.8 km/h
661 04-04-2014 12:50:00 17.7 C 10.11 g/m*3 17.7 C 1.6 km/h
662 04-04-2014 12:55:00 17.8 C 10.17 g/m*3 17.8 C 3.2 km/h
663 04-04-2014 13:00:00 18 C 10.44 g/m*3 18 C 1.6 km/h
664 04-04-2014 13:05:00 18.2 C 10.1 g/m*3 18.2 C 1.6 km/h
665 04-04-2014 13:10:00 18.3 C 10.63 g/m*3 18.3 C 1.6 km/h
666 04-04-2014 13:15:00 18.4 C 10.22 g/m*3 18.4 C 3.2 km/h
667 04-04-2014 13:20:00 18.6 C 10.03 g/m*3 18.6 C 3.2 km/h
668 04-04-2014 13:25:00 18.8 C 10.47 g/m*3 18.8 C 1.6 km/h
669 04-04-2014 13:30:00 19.1 C 10.82 g/m*3 19.1 C 1.6 km/h
670 04-04-2014 13:35:00 19.3 C 10.12 g/m*3 19.3 C 0 km/h
671 04-04-2014 13:40:00 19.6 C 10.13 g/m*3 19.6 C 4.8 km/h
672 04-04-2014 13:45:00 19.7 C 9.85 g/m*3 19.7 C 4.8 km/h
673 04-04-2014 13:50:00 19.8 C 10.25 g/m*3 19.8 C 6.4 km/h
674 04-04-2014 13:55:00 19.9 C 10.31 g/m*3 19.9 C 8.1 km/h
675 04-04-2014 14:00:00 19.9 C 9.97 g/m*3 19.9 C 6.4 km/h
Sensor: Nr:Datum:Temp:Abs-Feuchte:Windchill:Wind:
Aussen-T/F 676 04-04-2014 14:05:00 20 C 9.68 g/m*3 20 C 6.4 km/h
677 04-04-2014 14:10:00 20.1 C 9.91 g/m*3 20.1 C 6.4 km/h
678 04-04-2014 14:15:00 20.2 C 9.79 g/m*3 20.2 C 4.8 km/h
679 04-04-2014 14:20:00 20.2 C 9.79 g/m*3 20.2 C 8.1 km/h
680 04-04-2014 14:25:00 20.2 C 9.79 g/m*3 20.2 C 3.2 km/h
681 04-04-2014 14:30:00 20.2 C 9.97 g/m*3 20.2 C 6.4 km/h
682 04-04-2014 14:35:00 20.3 C 10.02 g/m*3 20.3 C 8.1 km/h
683 04-04-2014 14:40:00 20.3 C 10.02 g/m*3 20.3 C 6.4 km/h
684 04-04-2014 14:45:00 20.4 C 10.08 g/m*3 20.4 C 4.8 km/h
685 04-04-2014 14:50:00 20.4 C 9.91 g/m*3 20.4 C 9.7 km/h
686 04-04-2014 14:55:00 20.4 C 9.91 g/m*3 20.4 C 6.4 km/h
687 04-04-2014 15:00:00 20.4 C 9.91 g/m*3 20.4 C 4.8 km/h
688 04-04-2014 15:05:00 20.5 C 9.96 g/m*3 20.5 C 11.3 km/h
689 04-04-2014 15:10:00 20.5 C 10.32 g/m*3 20.5 C 11.3 km/h
690 04-04-2014 15:15:00 20.5 C 10.32 g/m*3 20.5 C 6.4 km/h
691 04-04-2014 15:20:00 20.5 C 9.79 g/m*3 20.5 C 6.4 km/h
692 04-04-2014 15:25:00 20.5 C 9.79 g/m*3 20.5 C 11.3 km/h
693 04-04-2014 15:30:00 20.6 C 9.84 g/m*3 20.6 C 6.4 km/h
694 04-04-2014 15:35:00 20.7 C 9.9 g/m*3 20.7 C 8.1 km/h
695 04-04-2014 15:40:00 20.7 C 9.9 g/m*3 20.7 C 11.3 km/h
696 04-04-2014 15:45:00 20.7 C 10.26 g/m*3 20.7 C 9.7 km/h
697 04-04-2014 15:50:00 20.7 C 10.08 g/m*3 20.7 C 8.1 km/h
698 04-04-2014 15:55:00 20.7 C 10.26 g/m*3 20.7 C 11.3 km/h
699 04-04-2014 16:00:00 20.7 C 10.26 g/m*3 20.7 C 8.1 km/h
700 04-04-2014 16:05:00 20.7 C 10.08 g/m*3 20.7 C 14.5 km/h
Sensor: Nr:Datum:Temp:Abs-Feuchte:Windchill:Wind:
Aussen-T/F 701 04-04-2014 16:10:00 20.6 C 10.02 g/m*3 20.6 C 6.4 km/h
702 04-04-2014 16:15:00 20.5 C 10.14 g/m*3 20.5 C 11.3 km/h
703 04-04-2014 16:20:00 20.5 C 10.14 g/m*3 20.5 C 6.4 km/h
704 04-04-2014 16:25:00 20.3 C 10.02 g/m*3 20.3 C 11.3 km/h
705 04-04-2014 16:30:00 20.2 C 9.97 g/m*3 20.2 C 8.1 km/h
706 04-04-2014 16:35:00 20.2 C 9.97 g/m*3 20.2 C 6.4 km/h
707 04-04-2014 16:40:00 20.3 C 10.38 g/m*3 20.3 C 6.4 km/h
708 04-04-2014 16:45:00 20.3 C 10.2 g/m*3 20.3 C 3.2 km/h
709 04-04-2014 16:50:00 20.2 C 10.32 g/m*3 20.2 C 11.3 km/h
710 04-04-2014 16:55:00 20.2 C 10.49 g/m*3 20.2 C 9.7 km/h
711 04-04-2014 17:00:00 20.1 C 10.43 g/m*3 20.1 C 9.7 km/h
712 04-04-2014 17:05:00 20.1 C 10.43 g/m*3 20.1 C 9.7 km/h
713 04-04-2014 17:10:00 20.2 C 10.67 g/m*3 20.2 C 9.7 km/h
714 04-04-2014 17:15:00 20.3 C 10.55 g/m*3 20.3 C 8.1 km/h
715 04-04-2014 17:20:00 20.3 C 10.55 g/m*3 20.3 C 6.4 km/h
716 04-04-2014 17:25:00 20.3 C 10.55 g/m*3 20.3 C 8.1 km/h
717 04-04-2014 17:30:00 20.3 C 10.55 g/m*3 20.3 C 3.2 km/h
718 04-04-2014 18:25:00 19.4 C 16.68 g/m*3 19.4 C 9.7 km/h
719 04-04-2014 18:30:00 19.4 C 16.68 g/m*3 19.4 C 9.7 km/h
720 04-04-2014 18:35:00 19.3 C 9.95 g/m*3 19.3 C 3.2 km/h
721 04-04-2014 18:40:00 19.2 C 10.06 g/m*3 19.2 C 3.2 km/h
722 04-04-2014 18:45:00 19.2 C 10.06 g/m*3 19.2 C 9.7 km/h
723 04-04-2014 18:50:00 19.2 C 10.06 g/m*3 19.2 C 11.3 km/h
724 04-04-2014 18:55:00 19.2 C 10.06 g/m*3 19.2 C 6.4 km/h
725 04-04-2014 19:00:00 18.8 C 9.82 g/m*3 18.8 C 8.1 km/h
Sensor: Nr:Datum:Temp:Abs-Feuchte:Windchill:Wind:
Aussen-T/F 726 04-04-2014 19:05:00 18.8 C 9.82 g/m*3 18.8 C 8.1 km/h
727 04-04-2014 19:10:00 18.4 C 9.75 g/m*3 18.4 C 16.1 km/h
728 04-04-2014 19:15:00 18.3 C 9.69 g/m*3 18.3 C 11.3 km/h
729 04-04-2014 19:20:00 18.1 C 9.58 g/m*3 18.1 C 12.9 km/h
730 04-04-2014 19:25:00 17.9 C 9.47 g/m*3 17.9 C 12.9 km/h
731 04-04-2014 19:30:00 17.8 C 9.56 g/m*3 17.8 C 8.1 km/h
732 04-04-2014 19:35:00 17.7 C 9.51 g/m*3 17.7 C 12.9 km/h
733 04-04-2014 19:40:00 17.6 C 9.6 g/m*3 17.6 C 8.1 km/h
734 04-04-2014 19:45:00 17.5 C 9.69 g/m*3 17.5 C 6.4 km/h
735 04-04-2014 19:50:00 17.4 C 9.63 g/m*3 17.4 C 9.7 km/h
736 04-04-2014 19:55:00 17.3 C 9.72 g/m*3 17.3 C 6.4 km/h
737 04-04-2014 20:00:00 17.2 C 9.67 g/m*3 17.2 C 4.8 km/h
738 04-04-2014 20:05:00 17.2 C 9.81 g/m*3 17.2 C 9.7 km/h
739 04-04-2014 20:10:00 17.1 C 9.75 g/m*3 17.1 C 9.7 km/h
740 04-04-2014 20:15:00 17.1 C 9.75 g/m*3 17.1 C 11.3 km/h
741 04-04-2014 20:20:00 17 C 9.84 g/m*3 17 C 4.8 km/h
742 04-04-2014 20:25:00 16.8 C 9.72 g/m*3 16.8 C 8.1 km/h
743 04-04-2014 20:30:00 16.8 C 9.87 g/m*3 16.8 C 4.8 km/h
744 04-04-2014 20:35:00 16.6 C 9.89 g/m*3 16.6 C 6.4 km/h
745 04-04-2014 20:40:00 16.3 C 9.85 g/m*3 16.3 C 3.2 km/h
746 04-04-2014 20:45:00 16.2 C 9.93 g/m*3 16.2 C 6.4 km/h
747 04-04-2014 20:50:00 16.1 C 9.87 g/m*3 16.1 C 6.4 km/h
748 04-04-2014 20:55:00 16.1 C 10.01 g/m*3 16.1 C 4.8 km/h
749 04-04-2014 21:00:00 15.9 C 10.02 g/m*3 15.9 C 4.8 km/h
750 04-04-2014 21:05:00 15.7 C 10.03 g/m*3 15.7 C 6.4 km/h
Sensor: Nr:Datum:Temp:Abs-Feuchte:Windchill:Wind:
Aussen-T/F 751 04-04-2014 21:10:00 15.5 C 10.05 g/m*3 15.5 C 6.4 km/h
752 04-04-2014 21:15:00 15.5 C 10.05 g/m*3 15.5 C 6.4 km/h
753 04-04-2014 21:20:00 15.6 C 10.11 g/m*3 15.6 C 3.2 km/h
754 04-04-2014 21:25:00 15.4 C 9.99 g/m*3 15.4 C 9.7 km/h
755 04-04-2014 21:30:00 15.3 C 10.06 g/m*3 15.3 C 3.2 km/h
756 04-04-2014 21:35:00 15.1 C 10.06 g/m*3 15.1 C 4.8 km/h
757 04-04-2014 21:40:00 14.9 C 9.94 g/m*3 14.9 C 6.4 km/h
758 04-04-2014 21:45:00 14.8 C 10.01 g/m*3 14.8 C 6.4 km/h
759 04-04-2014 21:50:00 14.8 C 10.01 g/m*3 14.8 C 3.2 km/h
760 04-04-2014 21:55:00 14.9 C 10.07 g/m*3 14.9 C 4.8 km/h
761 04-04-2014 22:00:00 14.9 C 10.07 g/m*3 14.9 C 3.2 km/h
762 04-04-2014 22:05:00 15 C 10 g/m*3 15 C 6.4 km/h
763 04-04-2014 22:10:00 15.1 C 10.06 g/m*3 15.1 C 8.1 km/h
764 04-04-2014 22:15:00 15.1 C 10.06 g/m*3 15.1 C 4.8 km/h
765 04-04-2014 22:20:00 15.2 C 10.12 g/m*3 15.2 C 3.2 km/h
766 04-04-2014 22:25:00 15.1 C 10.06 g/m*3 15.1 C 4.8 km/h
767 04-04-2014 22:30:00 15.1 C 10.06 g/m*3 15.1 C 1.6 km/h
768 04-04-2014 22:35:00 15.1 C 10.19 g/m*3 15.1 C 0 km/h
769 04-04-2014 22:40:00 14.9 C 10.2 g/m*3 14.9 C 1.6 km/h
770 04-04-2014 22:45:00 14.6 C 10.14 g/m*3 14.6 C 6.4 km/h
771 04-04-2014 22:50:00 14.4 C 10.01 g/m*3 14.4 C 1.6 km/h
772 04-04-2014 22:55:00 14.3 C 10.07 g/m*3 14.3 C 0 km/h
773 04-04-2014 23:00:00 14.1 C 9.95 g/m*3 14.1 C 1.6 km/h
774 04-04-2014 23:05:00 14 C 10.01 g/m*3 14 C 1.6 km/h
775 04-04-2014 23:10:00 13.9 C 9.95 g/m*3 13.9 C 1.6 km/h
Sensor: Nr:Datum:Temp:Abs-Feuchte:Windchill:Wind:
Aussen-T/F 776 04-04-2014 23:15:00 13.9 C 9.95 g/m*3 13.9 C 3.2 km/h
777 04-04-2014 23:20:00 13.9 C 9.95 g/m*3 13.9 C 3.2 km/h
778 04-04-2014 23:25:00 14.1 C 10.07 g/m*3 14.1 C 3.2 km/h
779 04-04-2014 23:30:00 14.1 C 10.07 g/m*3 14.1 C 1.6 km/h
780 04-04-2014 23:35:00 14.1 C 10.07 g/m*3 14.1 C 1.6 km/h
781 04-04-2014 23:40:00 14.1 C 10.07 g/m*3 14.1 C 0 km/h
782 04-04-2014 23:45:00 14 C 10.01 g/m*3 14 C 0 km/h
783 04-04-2014 23:50:00 13.9 C 10.07 g/m*3 13.9 C 1.6 km/h
784 04-04-2014 23:55:00 13.9 C 10.07 g/m*3 13.9 C 4.8 km/h
785 05-04-2014 00:00:00 14.1 C 10.19 g/m*3 14.1 C 8.1 km/h
786 05-04-2014 00:05:00 14.1 C 10.19 g/m*3 14.1 C 6.4 km/h
787 05-04-2014 00:10:00 14.1 C 10.19 g/m*3 14.1 C 6.4 km/h
788 05-04-2014 00:15:00 14.1 C 10.19 g/m*3 14.1 C 11.3 km/h
789 05-04-2014 00:20:00 14.1 C 10.19 g/m*3 14.1 C 16.1 km/h
790 05-04-2014 00:25:00 14.1 C 10.32 g/m*3 14.1 C 14.5 km/h
791 05-04-2014 00:30:00 14 C 10.25 g/m*3 14 C 9.7 km/h
792 05-04-2014 00:35:00 13.9 C 10.19 g/m*3 13.9 C 11.3 km/h
793 05-04-2014 00:40:00 13.8 C 10.25 g/m*3 13.8 C 4.8 km/h
794 05-04-2014 00:45:00 13.8 C 10.25 g/m*3 13.8 C 4.8 km/h
795 05-04-2014 00:50:00 13.7 C 10.18 g/m*3 13.7 C 4.8 km/h
796 05-04-2014 00:55:00 13.7 C 10.18 g/m*3 13.7 C 4.8 km/h
797 05-04-2014 01:00:00 13.6 C 10.24 g/m*3 13.6 C 6.4 km/h
798 05-04-2014 01:05:00 13.6 C 10.24 g/m*3 13.6 C 4.8 km/h
799 05-04-2014 01:10:00 13.6 C 10.24 g/m*3 13.6 C 6.4 km/h
800 05-04-2014 01:15:00 13.5 C 10.18 g/m*3 13.5 C 3.2 km/h
Sensor: Nr:Datum:Temp:Abs-Feuchte:Windchill:Wind:
Aussen-T/F 801 05-04-2014 01:20:00 13.4 C 10.11 g/m*3 13.4 C 6.4 km/h
802 05-04-2014 01:25:00 13.4 C 10.11 g/m*3 13.4 C 6.4 km/h
803 05-04-2014 01:30:00 13.4 C 10.11 g/m*3 13.4 C 11.3 km/h
804 05-04-2014 01:35:00 13.4 C 10.11 g/m*3 13.4 C 3.2 km/h
805 05-04-2014 01:40:00 13.4 C 10.11 g/m*3 13.4 C 6.4 km/h
806 05-04-2014 01:45:00 13.3 C 10.05 g/m*3 13.3 C 6.4 km/h
807 05-04-2014 01:50:00 13.3 C 10.05 g/m*3 13.3 C 12.9 km/h
808 05-04-2014 01:55:00 13.3 C 10.05 g/m*3 13.3 C 11.3 km/h
809 05-04-2014 02:00:00 13.3 C 10.05 g/m*3 13.3 C 4.8 km/h
810 05-04-2014 02:05:00 13.3 C 10.05 g/m*3 13.3 C 8.1 km/h
811 05-04-2014 02:10:00 13.2 C 9.99 g/m*3 13.2 C 6.4 km/h
812 05-04-2014 02:15:00 13.2 C 9.99 g/m*3 13.2 C 11.3 km/h
813 05-04-2014 02:20:00 13.2 C 9.99 g/m*3 13.2 C 4.8 km/h
814 05-04-2014 02:25:00 13.2 C 9.99 g/m*3 13.2 C 3.2 km/h
815 05-04-2014 02:30:00 13.2 C 9.99 g/m*3 13.2 C 8.1 km/h
816 05-04-2014 02:35:00 13.2 C 9.99 g/m*3 13.2 C 9.7 km/h
817 05-04-2014 02:40:00 13.2 C 9.99 g/m*3 13.2 C 6.4 km/h
818 05-04-2014 02:45:00 13.2 C 9.99 g/m*3 13.2 C 3.2 km/h
819 05-04-2014 02:50:00 13.1 C 9.93 g/m*3 13.1 C 9.7 km/h
820 05-04-2014 02:55:00 13.1 C 9.93 g/m*3 13.1 C 1.6 km/h
821 05-04-2014 03:00:00 13.1 C 9.93 g/m*3 13.1 C 4.8 km/h
822 05-04-2014 03:05:00 13 C 9.87 g/m*3 13 C 8.1 km/h
823 05-04-2014 03:10:00 13 C 9.87 g/m*3 13 C 3.2 km/h
824 05-04-2014 03:15:00 13 C 9.98 g/m*3 13 C 4.8 km/h
825 05-04-2014 03:20:00 12.9 C 9.92 g/m*3 12.9 C 6.4 km/h
Sensor: Nr:Datum:Temp:Abs-Feuchte:Windchill:Wind:
Aussen-T/F 826 05-04-2014 03:25:00 12.9 C 9.92 g/m*3 12.9 C 4.8 km/h
827 05-04-2014 03:30:00 12.9 C 9.92 g/m*3 12.9 C 4.8 km/h
828 05-04-2014 03:35:00 12.9 C 9.92 g/m*3 12.9 C 6.4 km/h
829 05-04-2014 03:40:00 12.9 C 9.92 g/m*3 12.9 C 6.4 km/h
830 05-04-2014 03:45:00 12.8 C 9.86 g/m*3 12.8 C 6.4 km/h
831 05-04-2014 03:50:00 12.8 C 9.74 g/m*3 12.8 C 3.2 km/h
832 05-04-2014 03:55:00 12.8 C 9.74 g/m*3 12.8 C 4.8 km/h
833 05-04-2014 04:00:00 12.8 C 9.74 g/m*3 12.8 C 8.1 km/h
834 05-04-2014 04:05:00 12.8 C 9.74 g/m*3 12.8 C 8.1 km/h
835 05-04-2014 04:10:00 12.8 C 9.74 g/m*3 12.8 C 11.3 km/h
836 05-04-2014 04:15:00 12.8 C 9.74 g/m*3 12.8 C 11.3 km/h
837 05-04-2014 04:20:00 12.8 C 9.74 g/m*3 12.8 C 9.7 km/h
838 05-04-2014 04:25:00 12.7 C 9.68 g/m*3 12.7 C 4.8 km/h
839 05-04-2014 04:30:00 12.7 C 9.68 g/m*3 12.7 C 6.4 km/h
840 05-04-2014 04:35:00 12.7 C 9.68 g/m*3 12.7 C 4.8 km/h
841 05-04-2014 04:40:00 12.7 C 9.68 g/m*3 12.7 C 12.9 km/h
842 05-04-2014 04:45:00 12.7 C 9.68 g/m*3 12.7 C 6.4 km/h
843 05-04-2014 04:50:00 12.7 C 9.68 g/m*3 12.7 C 6.4 km/h
844 05-04-2014 04:55:00 12.7 C 9.68 g/m*3 12.7 C 6.4 km/h
845 05-04-2014 05:00:00 12.7 C 9.68 g/m*3 12.7 C 8.1 km/h
846 05-04-2014 05:05:00 12.7 C 9.68 g/m*3 12.7 C 6.4 km/h
847 05-04-2014 05:10:00 12.7 C 9.68 g/m*3 12.7 C 6.4 km/h
848 05-04-2014 05:15:00 12.6 C 9.62 g/m*3 12.6 C 9.7 km/h
849 05-04-2014 05:20:00 12.6 C 9.62 g/m*3 12.6 C 8.1 km/h
850 05-04-2014 05:25:00 12.6 C 9.62 g/m*3 12.6 C 12.9 km/h
Sensor: Nr:Datum:Temp:Abs-Feuchte:Windchill:Wind:
Aussen-T/F 851 05-04-2014 05:30:00 12.6 C 9.62 g/m*3 12.6 C 9.7 km/h
852 05-04-2014 05:35:00 12.5 C 9.68 g/m*3 12.5 C 12.9 km/h
853 05-04-2014 05:40:00 12.4 C 9.62 g/m*3 12.4 C 8.1 km/h
854 05-04-2014 05:45:00 12.4 C 9.62 g/m*3 12.4 C 4.8 km/h
855 05-04-2014 05:50:00 12.3 C 9.66 g/m*3 12.3 C 6.4 km/h
856 05-04-2014 05:55:00 12.3 C 9.66 g/m*3 12.3 C 6.4 km/h
857 05-04-2014 06:00:00 12.2 C 9.71 g/m*3 12.2 C 4.8 km/h
858 05-04-2014 06:05:00 12.2 C 9.71 g/m*3 12.2 C 4.8 km/h
859 05-04-2014 06:10:00 12.2 C 9.82 g/m*3 12.2 C 4.8 km/h
860 05-04-2014 06:15:00 12.1 C 9.65 g/m*3 12.1 C 0 km/h
861 05-04-2014 06:20:00 12.1 C 9.65 g/m*3 12.1 C 6.4 km/h
862 05-04-2014 06:25:00 12.1 C 9.65 g/m*3 12.1 C 6.4 km/h
863 05-04-2014 06:30:00 12.1 C 9.65 g/m*3 12.1 C 4.8 km/h
864 05-04-2014 06:35:00 12.1 C 9.65 g/m*3 12.1 C 6.4 km/h
865 05-04-2014 06:40:00 12.1 C 9.65 g/m*3 12.1 C 3.2 km/h
866 05-04-2014 06:45:00 12.1 C 9.65 g/m*3 12.1 C 1.6 km/h
867 05-04-2014 06:50:00 12.1 C 9.65 g/m*3 12.1 C 0 km/h
868 05-04-2014 06:55:00 12.1 C 9.65 g/m*3 12.1 C 3.2 km/h
869 05-04-2014 07:00:00 12.1 C 9.65 g/m*3 12.1 C 4.8 km/h
870 05-04-2014 07:05:00 12 C 9.59 g/m*3 12 C 8.1 km/h
871 05-04-2014 07:10:00 12 C 9.59 g/m*3 12 C 6.4 km/h
872 05-04-2014 07:15:00 12 C 9.59 g/m*3 12 C 4.8 km/h
873 05-04-2014 07:20:00 12 C 9.59 g/m*3 12 C 9.7 km/h
874 05-04-2014 07:25:00 12 C 9.59 g/m*3 12 C 4.8 km/h
875 05-04-2014 07:30:00 12 C 9.59 g/m*3 12 C 4.8 km/h
Sensor: Nr:Datum:Temp:Abs-Feuchte:Windchill:Wind:
Aussen-T/F 876 05-04-2014 07:35:00 12 C 9.59 g/m*3 12 C 4.8 km/h
877 05-04-2014 07:40:00 12 C 9.59 g/m*3 12 C 0 km/h
878 05-04-2014 07:45:00 12 C 9.59 g/m*3 12 C 0 km/h
879 05-04-2014 07:50:00 12 C 9.59 g/m*3 12 C 3.2 km/h
880 05-04-2014 07:55:00 12 C 9.59 g/m*3 12 C 8.1 km/h
881 05-04-2014 08:00:00 12 C 9.59 g/m*3 12 C 6.4 km/h
882 05-04-2014 08:05:00 12 C 9.59 g/m*3 12 C 9.7 km/h
883 05-04-2014 08:10:00 12 C 9.59 g/m*3 12 C 11.3 km/h
884 05-04-2014 08:15:00 11.9 C 9.53 g/m*3 11.9 C 6.4 km/h
885 05-04-2014 08:20:00 12 C 9.59 g/m*3 12 C 3.2 km/h
886 05-04-2014 08:25:00 12 C 9.59 g/m*3 12 C 4.8 km/h
887 05-04-2014 08:30:00 12 C 9.59 g/m*3 12 C 4.8 km/h
888 05-04-2014 08:35:00 12.1 C 9.65 g/m*3 12.1 C 4.8 km/h
889 05-04-2014 08:40:00 12.1 C 9.65 g/m*3 12.1 C 4.8 km/h
890 05-04-2014 08:45:00 12.1 C 9.65 g/m*3 12.1 C 4.8 km/h
891 05-04-2014 08:50:00 12.1 C 9.65 g/m*3 12.1 C 3.2 km/h
892 05-04-2014 08:55:00 12.2 C 9.71 g/m*3 12.2 C 0 km/h
893 05-04-2014 09:00:00 12.2 C 9.71 g/m*3 12.2 C 1.6 km/h
894 05-04-2014 09:05:00 12.2 C 9.71 g/m*3 12.2 C 4.8 km/h
895 05-04-2014 09:10:00 12.2 C 9.6 g/m*3 12.2 C 6.4 km/h
896 05-04-2014 09:15:00 12.2 C 9.71 g/m*3 12.2 C 3.2 km/h
897 05-04-2014 09:20:00 12.2 C 9.6 g/m*3 12.2 C 1.6 km/h
898 05-04-2014 09:25:00 12.2 C 9.6 g/m*3 12.2 C 6.4 km/h
899 05-04-2014 09:30:00 12.2 C 9.6 g/m*3 12.2 C 6.4 km/h
900 05-04-2014 09:35:00 12.2 C 9.71 g/m*3 12.2 C 4.8 km/h
Sensor: Nr:Datum:Temp:Abs-Feuchte:Windchill:Wind:
Aussen-T/F 901 05-04-2014 09:40:00 12.2 C 9.6 g/m*3 12.2 C 11.3 km/h
902 05-04-2014 09:45:00 12.2 C 9.6 g/m*3 12.2 C 9.7 km/h
903 05-04-2014 09:50:00 12.2 C 9.71 g/m*3 12.2 C 8.1 km/h
904 05-04-2014 09:55:00 12.2 C 9.71 g/m*3 12.2 C 9.7 km/h
905 05-04-2014 10:00:00 12.2 C 9.6 g/m*3 12.2 C 11.3 km/h
906 05-04-2014 10:05:00 12.1 C 9.54 g/m*3 12.1 C 8.1 km/h
907 05-04-2014 10:10:00 12.1 C 9.65 g/m*3 12.1 C 6.4 km/h
908 05-04-2014 10:15:00 12.1 C 9.65 g/m*3 12.1 C 12.9 km/h
909 05-04-2014 10:20:00 12.1 C 9.65 g/m*3 12.1 C 9.7 km/h
910 05-04-2014 10:25:00 12.1 C 9.65 g/m*3 12.1 C 9.7 km/h
911 05-04-2014 10:30:00 12.1 C 9.65 g/m*3 12.1 C 6.4 km/h
912 05-04-2014 10:35:00 12.1 C 9.65 g/m*3 12.1 C 8.1 km/h
913 05-04-2014 10:40:00 12.1 C 9.54 g/m*3 12.1 C 9.7 km/h
914 05-04-2014 10:45:00 12.2 C 9.6 g/m*3 12.2 C 6.4 km/h
915 05-04-2014 10:50:00 12.2 C 9.6 g/m*3 12.2 C 8.1 km/h
916 05-04-2014 10:55:00 12.2 C 9.6 g/m*3 12.2 C 8.1 km/h
917 05-04-2014 11:00:00 12.2 C 9.6 g/m*3 12.2 C 8.1 km/h
918 05-04-2014 11:05:00 12.2 C 9.6 g/m*3 12.2 C 9.7 km/h
919 05-04-2014 11:10:00 12.3 C 9.56 g/m*3 12.3 C 4.8 km/h
920 05-04-2014 11:15:00 12.3 C 9.56 g/m*3 12.3 C 4.8 km/h
921 05-04-2014 11:20:00 12.3 C 9.56 g/m*3 12.3 C 8.1 km/h
922 05-04-2014 11:25:00 12.3 C 9.56 g/m*3 12.3 C 4.8 km/h
923 05-04-2014 11:30:00 12.3 C 9.56 g/m*3 12.3 C 6.4 km/h
924 05-04-2014 11:35:00 12.4 C 9.62 g/m*3 12.4 C 4.8 km/h
925 05-04-2014 11:40:00 12.4 C 9.62 g/m*3 12.4 C 4.8 km/h
Sensor: Nr:Datum:Temp:Abs-Feuchte:Windchill:Wind:
Aussen-T/F 926 05-04-2014 11:45:00 12.4 C 9.62 g/m*3 12.4 C 4.8 km/h
927 05-04-2014 11:50:00 12.6 C 9.62 g/m*3 12.6 C 3.2 km/h
928 05-04-2014 11:55:00 12.7 C 9.8 g/m*3 12.7 C 4.8 km/h
929 05-04-2014 12:00:00 12.7 C 9.68 g/m*3 12.7 C 8.1 km/h
930 05-04-2014 12:05:00 12.8 C 9.74 g/m*3 12.8 C 3.2 km/h
931 05-04-2014 12:10:00 12.8 C 9.74 g/m*3 12.8 C 4.8 km/h
932 05-04-2014 12:15:00 12.8 C 9.74 g/m*3 12.8 C 3.2 km/h
933 05-04-2014 12:20:00 13 C 9.87 g/m*3 13 C 3.2 km/h
934 05-04-2014 12:25:00 13.1 C 9.93 g/m*3 13.1 C 4.8 km/h
935 05-04-2014 12:30:00 13.2 C 9.99 g/m*3 13.2 C 4.8 km/h
936 05-04-2014 12:35:00 13.1 C 9.81 g/m*3 13.1 C 1.6 km/h
937 05-04-2014 12:40:00 13.3 C 9.94 g/m*3 13.3 C 4.8 km/h
938 05-04-2014 12:45:00 13.3 C 10.05 g/m*3 13.3 C 8.1 km/h
939 05-04-2014 12:50:00 13.4 C 10.11 g/m*3 13.4 C 9.7 km/h
940 05-04-2014 12:55:00 13.4 C 10.11 g/m*3 13.4 C 8.1 km/h
941 05-04-2014 13:00:00 13.9 C 10.43 g/m*3 13.9 C 6.4 km/h
942 05-04-2014 13:05:00 13.9 C 10.43 g/m*3 13.9 C 4.8 km/h
943 05-04-2014 13:10:00 13.9 C 10.43 g/m*3 13.9 C 6.4 km/h
944 05-04-2014 15:45:00 15.5 C 10.18 g/m*3 15.5 C 6.4 km/h
945 05-04-2014 15:50:00 15.5 C 10.18 g/m*3 15.5 C 6.4 km/h
946 05-04-2014 15:55:00 15.3 C 9.92 g/m*3 15.3 C 4.8 km/h
947 05-04-2014 16:00:00 15.3 C 9.92 g/m*3 15.3 C 4.8 km/h
948 05-04-2014 16:05:00 15.3 C 9.92 g/m*3 15.3 C 6.4 km/h
949 05-04-2014 16:10:00 15.2 C 9.99 g/m*3 15.2 C 9.7 km/h
950 05-04-2014 16:15:00 15.2 C 9.86 g/m*3 15.2 C 8.1 km/h
Sensor: Nr:Datum:Temp:Abs-Feuchte:Windchill:Wind:
Aussen-T/F 951 05-04-2014 16:20:00 15.2 C 9.86 g/m*3 15.2 C 9.7 km/h
952 05-04-2014 16:25:00 15.2 C 9.86 g/m*3 15.2 C 9.7 km/h
953 05-04-2014 16:30:00 15.1 C 9.8 g/m*3 15.1 C 6.4 km/h
954 05-04-2014 16:35:00 15.1 C 9.8 g/m*3 15.1 C 3.2 km/h
955 05-04-2014 16:40:00 15.1 C 9.8 g/m*3 15.1 C 8.1 km/h
956 05-04-2014 16:45:00 15 C 9.75 g/m*3 15 C 8.1 km/h
957 05-04-2014 16:50:00 14.9 C 9.81 g/m*3 14.9 C 6.4 km/h
958 05-04-2014 16:55:00 14.9 C 9.81 g/m*3 14.9 C 6.4 km/h
959 05-04-2014 17:00:00 14.9 C 9.81 g/m*3 14.9 C 6.4 km/h
960 05-04-2014 17:05:00 14.9 C 9.81 g/m*3 14.9 C 9.7 km/h
961 05-04-2014 17:10:00 14.9 C 9.81 g/m*3 14.9 C 8.1 km/h
962 05-04-2014 17:15:00 14.9 C 9.69 g/m*3 14.9 C 6.4 km/h
963 05-04-2014 17:20:00 14.9 C 9.69 g/m*3 14.9 C 4.8 km/h
964 05-04-2014 17:25:00 14.9 C 9.69 g/m*3 14.9 C 4.8 km/h
965 05-04-2014 17:30:00 14.9 C 9.69 g/m*3 14.9 C 6.4 km/h
966 05-04-2014 17:35:00 14.9 C 9.69 g/m*3 14.9 C 6.4 km/h
967 05-04-2014 17:55:00 14.8 C 12.67 g/m*3 14.8 C 4.8 km/h
968 05-04-2014 18:00:00 14.7 C 9.82 g/m*3 14.7 C 6.4 km/h
969 05-04-2014 18:05:00 14.7 C 9.82 g/m*3 14.7 C 6.4 km/h
970 05-04-2014 19:00:00 14.7 C 12.59 g/m*3 14.7 C 3.2 km/h
971 05-04-2014 19:05:00 14.7 C 9.82 g/m*3 14.7 C 1.6 km/h
972 05-04-2014 19:10:00 14.6 C 9.89 g/m*3 14.6 C 0 km/h
973 05-04-2014 19:15:00 14.6 C 9.76 g/m*3 14.6 C 0 km/h
974 05-04-2014 19:20:00 14.4 C 9.77 g/m*3 14.4 C 0 km/h
975 05-04-2014 19:25:00 14.4 C 9.89 g/m*3 14.4 C 0 km/h
Sensor: Nr:Datum:Temp:Abs-Feuchte:Windchill:Wind:
Aussen-T/F 976 05-04-2014 19:30:00 14.3 C 9.95 g/m*3 14.3 C 0 km/h
977 05-04-2014 19:35:00 14.2 C 9.89 g/m*3 14.2 C 0 km/h
978 05-04-2014 19:40:00 14.1 C 9.95 g/m*3 14.1 C 0 km/h
979 05-04-2014 19:45:00 13.9 C 9.83 g/m*3 13.9 C 0 km/h
980 05-04-2014 19:50:00 13.8 C 9.89 g/m*3 13.8 C 3.2 km/h
981 05-04-2014 19:55:00 13.8 C 9.89 g/m*3 13.8 C 3.2 km/h
982 05-04-2014 20:00:00 13.7 C 9.83 g/m*3 13.7 C 1.6 km/h
983 05-04-2014 20:05:00 13.6 C 9.77 g/m*3 13.6 C 3.2 km/h
984 05-04-2014 20:10:00 13.6 C 9.77 g/m*3 13.6 C 3.2 km/h
985 05-04-2014 20:15:00 13.5 C 9.71 g/m*3 13.5 C 3.2 km/h
986 05-04-2014 20:20:00 13.4 C 9.76 g/m*3 13.4 C 3.2 km/h
987 05-04-2014 20:25:00 13.4 C 9.76 g/m*3 13.4 C 3.2 km/h
988 05-04-2014 20:30:00 13.3 C 9.7 g/m*3 13.3 C 3.2 km/h
989 05-04-2014 20:35:00 13.3 C 9.7 g/m*3 13.3 C 3.2 km/h
990 05-04-2014 20:40:00 13.2 C 9.64 g/m*3 13.2 C 3.2 km/h
991 05-04-2014 20:45:00 13.2 C 9.76 g/m*3 13.2 C 3.2 km/h
992 05-04-2014 20:50:00 13.2 C 9.76 g/m*3 13.2 C 3.2 km/h
993 05-04-2014 20:55:00 13.2 C 9.76 g/m*3 13.2 C 3.2 km/h
994 05-04-2014 21:00:00 13.2 C 9.76 g/m*3 13.2 C 1.6 km/h
995 05-04-2014 21:05:00 13.1 C 9.7 g/m*3 13.1 C 3.2 km/h
996 05-04-2014 21:10:00 13.1 C 9.7 g/m*3 13.1 C 1.6 km/h
997 05-04-2014 21:15:00 13.1 C 9.7 g/m*3 13.1 C 3.2 km/h
998 05-04-2014 21:20:00 13.1 C 9.7 g/m*3 13.1 C 3.2 km/h
999 05-04-2014 21:25:00 13.1 C 9.7 g/m*3 13.1 C 3.2 km/h
1000 05-04-2014 21:30:00 13.1 C 9.81 g/m*3 13.1 C 1.6 km/h
Sensor: Nr:Datum:Temp:Abs-Feuchte:Windchill:Wind:
Aussen-T/F 1001 05-04-2014 21:35:00 13.1 C 9.81 g/m*3 13.1 C 0 km/h
1002 05-04-2014 21:40:00 13 C 9.75 g/m*3 13 C 3.2 km/h
1003 05-04-2014 21:45:00 13 C 9.75 g/m*3 13 C 1.6 km/h
1004 05-04-2014 21:50:00 13 C 9.75 g/m*3 13 C 1.6 km/h
1005 05-04-2014 21:55:00 12.9 C 9.69 g/m*3 12.9 C 3.2 km/h
1006 05-04-2014 22:00:00 12.9 C 9.69 g/m*3 12.9 C 3.2 km/h
1007 05-04-2014 22:05:00 12.9 C 9.81 g/m*3 12.9 C 0 km/h
1008 05-04-2014 22:10:00 12.9 C 9.81 g/m*3 12.9 C 0 km/h
1009 05-04-2014 22:15:00 12.9 C 9.81 g/m*3 12.9 C 0 km/h
1010 05-04-2014 22:20:00 12.8 C 9.74 g/m*3 12.8 C 0 km/h
1011 05-04-2014 22:25:00 12.8 C 9.63 g/m*3 12.8 C 0 km/h
1012 05-04-2014 22:30:00 12.7 C 9.68 g/m*3 12.7 C 0 km/h
1013 05-04-2014 22:35:00 12.7 C 9.68 g/m*3 12.7 C 0 km/h
1014 05-04-2014 22:40:00 12.7 C 9.68 g/m*3 12.7 C 0 km/h
1015 05-04-2014 22:45:00 12.6 C 9.62 g/m*3 12.6 C 3.2 km/h
1016 05-04-2014 22:50:00 12.4 C 9.4 g/m*3 12.4 C 1.6 km/h
1017 05-04-2014 22:55:00 12.2 C 9.39 g/m*3 12.2 C 1.6 km/h
1018 05-04-2014 23:00:00 12 C 9.27 g/m*3 12 C 3.2 km/h
1019 05-04-2014 23:05:00 11.8 C 9.16 g/m*3 11.8 C 4.8 km/h
1020 05-04-2014 23:10:00 11.7 C 9.2 g/m*3 11.7 C 4.8 km/h
1021 05-04-2014 23:15:00 11.5 C 8.99 g/m*3 11.5 C 4.8 km/h
1022 05-04-2014 23:20:00 11.3 C 8.98 g/m*3 11.3 C 3.2 km/h
1023 05-04-2014 23:25:00 11.2 C 8.92 g/m*3 11.2 C 3.2 km/h
1024 05-04-2014 23:30:00 11.2 C 9.02 g/m*3 11.2 C 4.8 km/h
1025 05-04-2014 23:35:00 11.1 C 8.96 g/m*3 11.1 C 3.2 km/h
Sensor: Nr:Datum:Temp:Abs-Feuchte:Windchill:Wind:
Aussen-T/F 1026 05-04-2014 23:40:00 11 C 9.01 g/m*3 11 C 0 km/h
1027 05-04-2014 23:45:00 10.9 C 8.85 g/m*3 10.9 C 0 km/h
1028 05-04-2014 23:50:00 10.8 C 8.8 g/m*3 10.8 C 1.6 km/h
1029 05-04-2014 23:55:00 10.7 C 8.74 g/m*3 10.7 C 1.6 km/h
1030 06-04-2014 00:00:00 10.6 C 8.78 g/m*3 10.6 C 0 km/h
1031 06-04-2014 00:05:00 10.4 C 8.77 g/m*3 10.4 C 3.2 km/h
1032 06-04-2014 00:10:00 10.4 C 8.77 g/m*3 10.4 C 0 km/h
1033 06-04-2014 00:15:00 10.3 C 8.71 g/m*3 10.3 C 0 km/h
1034 06-04-2014 00:20:00 10.2 C 8.66 g/m*3 10.2 C 3.2 km/h
1035 06-04-2014 00:25:00 10.1 C 8.61 g/m*3 10.1 C 0 km/h
1036 06-04-2014 00:30:00 10 C 8.55 g/m*3 10 C 0 km/h
1037 06-04-2014 00:35:00 9.9 C 8.5 g/m*3 9.9 C 0 km/h
1038 06-04-2014 00:40:00 9.8 C 8.54 g/m*3 9.8 C 1.6 km/h
1039 06-04-2014 00:45:00 9.8 C 8.63 g/m*3 9.8 C 3.2 km/h
1040 06-04-2014 00:50:00 9.8 C 8.54 g/m*3 9.8 C 0 km/h
1041 06-04-2014 00:55:00 9.7 C 8.48 g/m*3 9.7 C 0 km/h
1042 06-04-2014 01:00:00 9.6 C 8.43 g/m*3 9.6 C 0 km/h
1043 06-04-2014 01:05:00 9.5 C 8.37 g/m*3 9.5 C 0 km/h
1044 06-04-2014 01:10:00 9.4 C 8.41 g/m*3 9.4 C 1.6 km/h
1045 06-04-2014 01:15:00 9.4 C 8.41 g/m*3 9.4 C 0 km/h
1046 06-04-2014 01:20:00 9.3 C 8.36 g/m*3 9.3 C 0 km/h
1047 06-04-2014 01:25:00 9.3 C 8.36 g/m*3 9.3 C 0 km/h
1048 06-04-2014 01:30:00 9.2 C 8.3 g/m*3 9.2 C 0 km/h
1049 06-04-2014 01:35:00 9.2 C 8.3 g/m*3 9.2 C 0 km/h
1050 06-04-2014 01:40:00 9.1 C 8.25 g/m*3 9.1 C 0 km/h
Sensor: Nr:Datum:Temp:Abs-Feuchte:Windchill:Wind:
Aussen-T/F 1051 06-04-2014 01:45:00 8.9 C 8.15 g/m*3 8.9 C 0 km/h
1052 06-04-2014 01:50:00 8.8 C 8.09 g/m*3 8.8 C 0 km/h
1053 06-04-2014 01:55:00 8.7 C 8.13 g/m*3 8.7 C 0 km/h
1054 06-04-2014 02:00:00 8.7 C 8.13 g/m*3 8.7 C 0 km/h
1055 06-04-2014 02:05:00 8.7 C 8.13 g/m*3 8.7 C 0 km/h
1056 06-04-2014 02:10:00 8.7 C 8.13 g/m*3 8.7 C 0 km/h
1057 06-04-2014 02:15:00 8.6 C 8.08 g/m*3 8.6 C 0 km/h
1058 06-04-2014 02:20:00 8.5 C 8.03 g/m*3 8.5 C 0 km/h
1059 06-04-2014 02:25:00 8.4 C 7.97 g/m*3 8.4 C 0 km/h
1060 06-04-2014 02:30:00 8.3 C 7.92 g/m*3 8.3 C 0 km/h
1061 06-04-2014 02:35:00 8.3 C 8.01 g/m*3 8.3 C 0 km/h
1062 06-04-2014 02:40:00 8.3 C 8.01 g/m*3 8.3 C 0 km/h
1063 06-04-2014 02:45:00 8.3 C 8.01 g/m*3 8.3 C 1.6 km/h
1064 06-04-2014 02:50:00 8.3 C 8.01 g/m*3 8.3 C 0 km/h
1065 06-04-2014 02:55:00 8.3 C 8.01 g/m*3 8.3 C 0 km/h
1066 06-04-2014 03:00:00 8.2 C 7.96 g/m*3 8.2 C 0 km/h
1067 06-04-2014 03:05:00 8.2 C 7.96 g/m*3 8.2 C 0 km/h
1068 06-04-2014 03:10:00 8.1 C 7.9 g/m*3 8.1 C 0 km/h
1069 06-04-2014 03:15:00 8 C 7.85 g/m*3 8 C 0 km/h
1070 06-04-2014 03:20:00 7.9 C 7.8 g/m*3 7.9 C 3.2 km/h
1071 06-04-2014 03:25:00 7.8 C 7.75 g/m*3 7.8 C 0 km/h
1072 06-04-2014 03:30:00 7.9 C 7.8 g/m*3 7.9 C 0 km/h
1073 06-04-2014 03:35:00 7.9 C 7.8 g/m*3 7.9 C 0 km/h
1074 06-04-2014 03:40:00 7.8 C 7.75 g/m*3 7.8 C 0 km/h
1075 06-04-2014 03:45:00 7.7 C 7.7 g/m*3 7.7 C 0 km/h
Sensor: Nr:Datum:Temp:Abs-Feuchte:Windchill:Wind:
Aussen-T/F 1076 06-04-2014 03:50:00 7.7 C 7.7 g/m*3 7.7 C 0 km/h
1077 06-04-2014 03:55:00 7.6 C 7.65 g/m*3 7.6 C 0 km/h
1078 06-04-2014 04:00:00 7.5 C 7.6 g/m*3 7.5 C 0 km/h
1079 06-04-2014 04:05:00 7.4 C 7.55 g/m*3 7.4 C 0 km/h
1080 06-04-2014 04:10:00 7.3 C 7.51 g/m*3 7.3 C 0 km/h
1081 06-04-2014 04:15:00 7.3 C 7.51 g/m*3 7.3 C 0 km/h
1082 06-04-2014 04:20:00 7.2 C 7.46 g/m*3 7.2 C 0 km/h
1083 06-04-2014 04:25:00 7.2 C 7.46 g/m*3 7.2 C 0 km/h
1084 06-04-2014 04:30:00 7.1 C 7.49 g/m*3 7.1 C 0 km/h
1085 06-04-2014 04:35:00 7.1 C 7.41 g/m*3 7.1 C 0 km/h
1086 06-04-2014 04:40:00 7.1 C 7.49 g/m*3 7.1 C 0 km/h
1087 06-04-2014 04:45:00 7.1 C 7.49 g/m*3 7.1 C 0 km/h
1088 06-04-2014 04:50:00 7 C 7.44 g/m*3 7 C 0 km/h
1089 06-04-2014 04:55:00 7 C 7.44 g/m*3 7 C 0 km/h
1090 06-04-2014 05:00:00 6.9 C 7.39 g/m*3 6.9 C 0 km/h
1091 06-04-2014 05:05:00 7 C 7.44 g/m*3 7 C 0 km/h
1092 06-04-2014 05:10:00 7 C 7.44 g/m*3 7 C 0 km/h
1093 06-04-2014 05:15:00 6.9 C 7.39 g/m*3 6.9 C 0 km/h
1094 06-04-2014 05:20:00 6.8 C 7.34 g/m*3 6.8 C 0 km/h
1095 06-04-2014 05:25:00 6.9 C 7.39 g/m*3 6.9 C 0 km/h
1096 06-04-2014 05:30:00 6.9 C 7.39 g/m*3 6.9 C 0 km/h
1097 06-04-2014 05:35:00 6.9 C 7.39 g/m*3 6.9 C 0 km/h
1098 06-04-2014 05:40:00 7.1 C 7.57 g/m*3 7.1 C 0 km/h
1099 06-04-2014 05:45:00 7.2 C 7.54 g/m*3 7.2 C 0 km/h
1100 06-04-2014 05:50:00 7.2 C 7.54 g/m*3 7.2 C 0 km/h
Sensor: Nr:Datum:Temp:Abs-Feuchte:Windchill:Wind:
Aussen-T/F 1101 06-04-2014 05:55:00 7.3 C 7.66 g/m*3 7.3 C 0 km/h
1102 06-04-2014 06:00:00 7.3 C 7.66 g/m*3 7.3 C 0 km/h
1103 06-04-2014 06:05:00 7.3 C 7.58 g/m*3 7.3 C 1.6 km/h
1104 06-04-2014 06:10:00 7.3 C 7.58 g/m*3 7.3 C 3.2 km/h
1105 06-04-2014 06:15:00 7.3 C 7.58 g/m*3 7.3 C 0 km/h
1106 06-04-2014 06:20:00 7.3 C 7.66 g/m*3 7.3 C 1.6 km/h
1107 06-04-2014 06:25:00 7.2 C 7.54 g/m*3 7.2 C 0 km/h
1108 06-04-2014 06:30:00 7.2 C 7.61 g/m*3 7.2 C 3.2 km/h
1109 06-04-2014 06:35:00 7.1 C 7.57 g/m*3 7.1 C 4.8 km/h
1110 06-04-2014 06:40:00 7.1 C 7.57 g/m*3 7.1 C 0 km/h
1111 06-04-2014 06:45:00 7.1 C 7.57 g/m*3 7.1 C 0 km/h
1112 06-04-2014 06:50:00 7.1 C 7.57 g/m*3 7.1 C 0 km/h
1113 06-04-2014 06:55:00 7.1 C 7.57 g/m*3 7.1 C 0 km/h
1114 06-04-2014 07:00:00 7.1 C 7.57 g/m*3 7.1 C 1.6 km/h
1115 06-04-2014 07:05:00 7.1 C 7.57 g/m*3 7.1 C 0 km/h
1116 06-04-2014 07:10:00 7.1 C 7.57 g/m*3 7.1 C 1.6 km/h
1117 06-04-2014 07:15:00 7.1 C 7.57 g/m*3 7.1 C 1.6 km/h
1118 06-04-2014 07:20:00 7.2 C 7.61 g/m*3 7.2 C 0 km/h
1119 06-04-2014 07:25:00 7.2 C 7.61 g/m*3 7.2 C 0 km/h
1120 06-04-2014 07:30:00 7.3 C 7.66 g/m*3 7.3 C 3.2 km/h
1121 06-04-2014 07:35:00 7.3 C 7.66 g/m*3 7.3 C 0 km/h
1122 06-04-2014 07:40:00 7.3 C 7.66 g/m*3 7.3 C 0 km/h
1123 06-04-2014 07:45:00 7.3 C 7.66 g/m*3 7.3 C 0 km/h
1124 06-04-2014 07:50:00 7.3 C 7.66 g/m*3 7.3 C 0 km/h
1125 06-04-2014 07:55:00 7.3 C 7.66 g/m*3 7.3 C 0 km/h
Sensor: Nr:Datum:Temp:Abs-Feuchte:Windchill:Wind:
Aussen-T/F 1126 06-04-2014 08:00:00 7.4 C 7.71 g/m*3 7.4 C 0 km/h
1127 06-04-2014 08:05:00 7.4 C 7.71 g/m*3 7.4 C 0 km/h
1128 06-04-2014 08:10:00 7.4 C 7.71 g/m*3 7.4 C 0 km/h
1129 06-04-2014 08:15:00 7.5 C 7.76 g/m*3 7.5 C 0 km/h
1130 06-04-2014 08:20:00 7.6 C 7.81 g/m*3 7.6 C 0 km/h
1131 06-04-2014 08:25:00 7.8 C 7.92 g/m*3 7.8 C 0 km/h
1132 06-04-2014 08:30:00 7.9 C 7.97 g/m*3 7.9 C 0 km/h
1133 06-04-2014 08:35:00 8 C 8.02 g/m*3 8 C 0 km/h
1134 06-04-2014 08:40:00 7.9 C 7.97 g/m*3 7.9 C 0 km/h
1135 06-04-2014 08:45:00 7.9 C 7.97 g/m*3 7.9 C 0 km/h
1136 06-04-2014 08:50:00 7.9 C 7.97 g/m*3 7.9 C 0 km/h
1137 06-04-2014 08:55:00 7.9 C 7.97 g/m*3 7.9 C 0 km/h
1138 06-04-2014 09:00:00 7.9 C 7.97 g/m*3 7.9 C 0 km/h
1139 06-04-2014 09:05:00 7.9 C 7.97 g/m*3 7.9 C 1.6 km/h
1140 06-04-2014 09:10:00 7.9 C 7.97 g/m*3 7.9 C 1.6 km/h
1141 06-04-2014 09:15:00 8 C 8.02 g/m*3 8 C 0 km/h
1142 06-04-2014 09:20:00 8.1 C 8.07 g/m*3 8.1 C 0 km/h
1143 06-04-2014 09:25:00 8.1 C 8.07 g/m*3 8.1 C 0 km/h
1144 06-04-2014 09:30:00 8.2 C 8.12 g/m*3 8.2 C 0 km/h
1145 06-04-2014 09:35:00 8.2 C 8.12 g/m*3 8.2 C 0 km/h
1146 06-04-2014 09:40:00 8.3 C 8.18 g/m*3 8.3 C 0 km/h
1147 06-04-2014 09:45:00 8.4 C 8.23 g/m*3 8.4 C 1.6 km/h
1148 06-04-2014 09:50:00 8.6 C 8.34 g/m*3 8.6 C 0 km/h
1149 06-04-2014 09:55:00 8.7 C 8.39 g/m*3 8.7 C 3.2 km/h
1150 06-04-2014 10:00:00 8.8 C 8.44 g/m*3 8.8 C 1.6 km/h
Sensor: Nr:Datum:Temp:Abs-Feuchte:Windchill:Wind:
Aussen-T/F 1151 06-04-2014 10:05:00 9 C 8.55 g/m*3 9 C 0 km/h
1152 06-04-2014 10:10:00 9.2 C 8.66 g/m*3 9.2 C 0 km/h
1153 06-04-2014 10:15:00 9.4 C 8.77 g/m*3 9.4 C 1.6 km/h
1154 06-04-2014 10:20:00 9.6 C 8.89 g/m*3 9.6 C 3.2 km/h
1155 06-04-2014 10:25:00 9.9 C 9.06 g/m*3 9.9 C 4.8 km/h
1156 06-04-2014 10:30:00 10.2 C 9.14 g/m*3 10.2 C 3.2 km/h
1157 06-04-2014 10:35:00 10.6 C 9.17 g/m*3 10.6 C 3.2 km/h
1158 06-04-2014 10:40:00 11 C 9.21 g/m*3 11 C 3.2 km/h
1159 06-04-2014 10:45:00 11.3 C 9.28 g/m*3 11.3 C 3.2 km/h
1160 06-04-2014 10:50:00 11.7 C 9.2 g/m*3 11.7 C 6.4 km/h
1161 06-04-2014 10:55:00 12.1 C 9.12 g/m*3 12.1 C 4.8 km/h
1162 06-04-2014 11:00:00 12.6 C 9.18 g/m*3 12.6 C 6.4 km/h
1163 06-04-2014 11:05:00 12.9 C 9.13 g/m*3 12.9 C 4.8 km/h
1164 06-04-2014 11:10:00 13.3 C 9.13 g/m*3 13.3 C 8.1 km/h
1165 06-04-2014 11:15:00 13.7 C 9.24 g/m*3 13.7 C 11.3 km/h
1166 06-04-2014 11:20:00 14 C 9.05 g/m*3 14 C 11.3 km/h
1167 06-04-2014 11:25:00 14.2 C 9.04 g/m*3 14.2 C 9.7 km/h
1168 06-04-2014 11:30:00 14.3 C 9.09 g/m*3 14.3 C 9.7 km/h
1169 06-04-2014 11:35:00 14.3 C 9.09 g/m*3 14.3 C 11.3 km/h
1170 06-04-2014 11:55:00 15.6 C 8.91 g/m*3 15.6 C 16.1 km/h
1171 06-04-2014 12:00:00 15.9 C 8.94 g/m*3 15.9 C 14.5 km/h
1172 06-04-2014 12:05:00 16.1 C 8.77 g/m*3 16.1 C 14.5 km/h
1173 06-04-2014 12:10:00 16.2 C 8.83 g/m*3 16.2 C 14.5 km/h
1174 06-04-2014 12:15:00 16.2 C 8.83 g/m*3 16.2 C 8.1 km/h
1175 06-04-2014 12:20:00 16.2 C 8.69 g/m*3 16.2 C 12.9 km/h
Sensor: Nr:Datum:Temp:Abs-Feuchte:Windchill:Wind:
Aussen-T/F 1176 06-04-2014 12:25:00 16.3 C 8.74 g/m*3 16.3 C 14.5 km/h
1177 06-04-2014 12:30:00 16.4 C 8.65 g/m*3 16.4 C 11.3 km/h
1178 06-04-2014 12:35:00 16.7 C 8.53 g/m*3 16.7 C 14.5 km/h
1179 06-04-2014 12:40:00 16.8 C 8.58 g/m*3 16.8 C 12.9 km/h
1180 06-04-2014 12:45:00 16.9 C 8.77 g/m*3 16.9 C 19.3 km/h
1181 06-04-2014 12:50:00 17.1 C 8.73 g/m*3 17.1 C 19.3 km/h
1182 06-04-2014 12:55:00 17.3 C 8.84 g/m*3 17.3 C 11.3 km/h
1183 06-04-2014 13:00:00 17.6 C 8.85 g/m*3 17.6 C 12.9 km/h
1184 06-04-2014 13:05:00 17.7 C 9.2 g/m*3 17.7 C 12.9 km/h
1185 06-04-2014 13:10:00 17.7 C 9.2 g/m*3 17.7 C 14.5 km/h
1186 06-04-2014 13:30:00 18.7 C 8.97 g/m*3 18.7 C 12.9 km/h
1187 06-04-2014 13:35:00 18.7 C 8.65 g/m*3 18.7 C 9.7 km/h
1188 06-04-2014 13:40:00 18.9 C 9.07 g/m*3 18.9 C 12.9 km/h
1189 06-04-2014 13:45:00 19 C 9.13 g/m*3 19 C 12.9 km/h
1190 06-04-2014 13:50:00 19.2 C 9.23 g/m*3 19.2 C 8.1 km/h
1191 06-04-2014 13:55:00 19.3 C 9.45 g/m*3 19.3 C 4.8 km/h
1192 06-04-2014 14:00:00 19.7 C 9 g/m*3 19.7 C 11.3 km/h
1193 06-04-2014 14:05:00 19.6 C 8.78 g/m*3 19.6 C 8.1 km/h
1194 06-04-2014 14:10:00 19.4 C 9.01 g/m*3 19.4 C 14.5 km/h
1195 06-04-2014 14:15:00 19.3 C 8.96 g/m*3 19.3 C 12.9 km/h
1196 06-04-2014 14:20:00 19.1 C 9.02 g/m*3 19.1 C 9.7 km/h
1197 06-04-2014 14:25:00 19.3 C 8.96 g/m*3 19.3 C 20.9 km/h
1198 06-04-2014 14:30:00 19.5 C 9.06 g/m*3 19.5 C 12.9 km/h
1199 06-04-2014 14:35:00 19.5 C 9.06 g/m*3 19.5 C 11.3 km/h
1200 06-04-2014 14:40:00 19.5 C 9.06 g/m*3 19.5 C 11.3 km/h
Sensor: Nr:Datum:Temp:Abs-Feuchte:Windchill:Wind:
Aussen-T/F 1201 06-04-2014 14:45:00 19.5 C 9.06 g/m*3 19.5 C 17.7 km/h
1202 06-04-2014 15:25:00 19.3 C 9.12 g/m*3 19.3 C 11.3 km/h
1203 06-04-2014 15:30:00 19.3 C 9.12 g/m*3 19.3 C 11.3 km/h
1204 06-04-2014 15:35:00 19.2 C 8.9 g/m*3 19.2 C 11.3 km/h
1205 06-04-2014 15:40:00 19.1 C 9.02 g/m*3 19.1 C 11.3 km/h
1206 06-04-2014 15:45:00 18.9 C 9.07 g/m*3 18.9 C 11.3 km/h
1207 06-04-2014 15:50:00 18.9 C 9.07 g/m*3 18.9 C 9.7 km/h
1208 06-04-2014 15:55:00 18.9 C 9.07 g/m*3 18.9 C 12.9 km/h
1209 06-04-2014 16:00:00 18.9 C 9.07 g/m*3 18.9 C 14.5 km/h
1210 06-04-2014 17:20:00 18.3 C 9.07 g/m*3 18.3 C 12.9 km/h
1211 06-04-2014 17:25:00 18.3 C 9.07 g/m*3 18.3 C 9.7 km/h
1212 06-04-2014 17:30:00 18.3 C 9.07 g/m*3 18.3 C 6.4 km/h
1213 06-04-2014 17:35:00 18.3 C 9.07 g/m*3 18.3 C 8.1 km/h
1214 06-04-2014 17:40:00 18.3 C 9.07 g/m*3 18.3 C 14.5 km/h
1215 06-04-2014 19:30:00 16.6 C 9.46 g/m*3 16.6 C 8.1 km/h
1216 06-04-2014 19:35:00 16.6 C 9.46 g/m*3 16.6 C 1.6 km/h
1217 06-04-2014 19:40:00 16.6 C 9.46 g/m*3 16.6 C 3.2 km/h
1218 06-04-2014 19:45:00 16.4 C 9.63 g/m*3 16.4 C 3.2 km/h
1219 06-04-2014 19:50:00 16.4 C 9.63 g/m*3 16.4 C 1.6 km/h
1220 06-04-2014 19:55:00 16.1 C 9.18 g/m*3 16.1 C 3.2 km/h
1221 06-04-2014 20:00:00 16 C 9.54 g/m*3 16 C 4.8 km/h
1222 06-04-2014 20:05:00 15.7 C 9.37 g/m*3 15.7 C 3.2 km/h
1223 06-04-2014 20:10:00 15.3 C 9.27 g/m*3 15.3 C 3.2 km/h
1224 06-04-2014 20:15:00 15.1 C 9.29 g/m*3 15.1 C 3.2 km/h
1225 06-04-2014 20:20:00 14.9 C 9.18 g/m*3 14.9 C 3.2 km/h
Sensor: Nr:Datum:Temp:Abs-Feuchte:Windchill:Wind:
Aussen-T/F 1226 06-04-2014 20:25:00 14.8 C 9.25 g/m*3 14.8 C 3.2 km/h
1227 06-04-2014 20:30:00 14.7 C 9.32 g/m*3 14.7 C 4.8 km/h
1228 06-04-2014 20:35:00 14.6 C 9.26 g/m*3 14.6 C 3.2 km/h
1229 06-04-2014 20:40:00 14.6 C 9.26 g/m*3 14.6 C 3.2 km/h
1230 06-04-2014 20:45:00 14.5 C 9.2 g/m*3 14.5 C 3.2 km/h
1231 06-04-2014 20:50:00 14.4 C 9.15 g/m*3 14.4 C 1.6 km/h
1232 06-04-2014 20:55:00 14.2 C 9.28 g/m*3 14.2 C 4.8 km/h
1233 06-04-2014 21:00:00 14.1 C 9.1 g/m*3 14.1 C 3.2 km/h
1234 06-04-2014 21:05:00 14 C 9.17 g/m*3 14 C 3.2 km/h
1235 06-04-2014 21:10:00 13.8 C 9.17 g/m*3 13.8 C 4.8 km/h
1236 06-04-2014 21:15:00 13.7 C 9.12 g/m*3 13.7 C 3.2 km/h
1237 06-04-2014 21:20:00 13.6 C 9.18 g/m*3 13.6 C 3.2 km/h
1238 06-04-2014 21:25:00 13.7 C 9.24 g/m*3 13.7 C 3.2 km/h
1239 06-04-2014 21:30:00 13.7 C 9.24 g/m*3 13.7 C 3.2 km/h
1240 06-04-2014 21:35:00 13.8 C 9.29 g/m*3 13.8 C 1.6 km/h
1241 06-04-2014 21:40:00 13.8 C 9.41 g/m*3 13.8 C 0 km/h
1242 06-04-2014 21:45:00 13.9 C 9.35 g/m*3 13.9 C 0 km/h
1243 06-04-2014 21:50:00 13.9 C 9.35 g/m*3 13.9 C 0 km/h
1244 06-04-2014 21:55:00 13.9 C 9.35 g/m*3 13.9 C 1.6 km/h
1245 06-04-2014 22:00:00 13.9 C 9.35 g/m*3 13.9 C 1.6 km/h
1246 06-04-2014 22:05:00 13.8 C 9.41 g/m*3 13.8 C 1.6 km/h
1247 06-04-2014 22:10:00 13.7 C 9.24 g/m*3 13.7 C 1.6 km/h
1248 06-04-2014 22:15:00 13.7 C 9.35 g/m*3 13.7 C 1.6 km/h
1249 06-04-2014 22:20:00 13.7 C 9.35 g/m*3 13.7 C 3.2 km/h
1250 06-04-2014 22:25:00 13.7 C 9.35 g/m*3 13.7 C 1.6 km/h
Sensor: Nr:Datum:Temp:Abs-Feuchte:Windchill:Wind:
Aussen-T/F 1251 06-04-2014 22:30:00 13.8 C 9.29 g/m*3 13.8 C 3.2 km/h
1252 06-04-2014 22:35:00 13.8 C 9.41 g/m*3 13.8 C 3.2 km/h
1253 06-04-2014 22:40:00 14 C 9.41 g/m*3 14 C 3.2 km/h
1254 06-04-2014 22:45:00 14.2 C 9.4 g/m*3 14.2 C 3.2 km/h
1255 06-04-2014 22:50:00 14.2 C 9.4 g/m*3 14.2 C 4.8 km/h
1256 06-04-2014 22:55:00 14.3 C 9.46 g/m*3 14.3 C 3.2 km/h
1257 06-04-2014 23:00:00 14.3 C 9.34 g/m*3 14.3 C 4.8 km/h
1258 06-04-2014 23:05:00 14.2 C 9.28 g/m*3 14.2 C 1.6 km/h
1259 06-04-2014 23:10:00 14.1 C 9.34 g/m*3 14.1 C 1.6 km/h
1260 06-04-2014 23:15:00 13.9 C 9.23 g/m*3 13.9 C 3.2 km/h
1261 06-04-2014 23:20:00 13.9 C 9.35 g/m*3 13.9 C 3.2 km/h
1262 06-04-2014 23:25:00 13.8 C 9.29 g/m*3 13.8 C 3.2 km/h
1263 06-04-2014 23:30:00 13.7 C 9.35 g/m*3 13.7 C 1.6 km/h
1264 06-04-2014 23:35:00 13.7 C 9.24 g/m*3 13.7 C 1.6 km/h
1265 06-04-2014 23:40:00 13.8 C 9.17 g/m*3 13.8 C 3.2 km/h
1266 06-04-2014 23:45:00 14.1 C 9.34 g/m*3 14.1 C 1.6 km/h
1267 06-04-2014 23:50:00 14.2 C 9.52 g/m*3 14.2 C 1.6 km/h
1268 06-04-2014 23:55:00 14.2 C 9.4 g/m*3 14.2 C 1.6 km/h
1269 07-04-2014 00:00:00 14.2 C 9.28 g/m*3 14.2 C 0 km/h
1270 07-04-2014 00:05:00 14.2 C 9.52 g/m*3 14.2 C 1.6 km/h
1271 07-04-2014 00:10:00 14.2 C 9.52 g/m*3 14.2 C 0 km/h
1272 07-04-2014 00:15:00 14.1 C 9.47 g/m*3 14.1 C 3.2 km/h
1273 07-04-2014 00:20:00 14 C 9.29 g/m*3 14 C 6.4 km/h
1274 07-04-2014 00:25:00 13.9 C 9.23 g/m*3 13.9 C 6.4 km/h
1275 07-04-2014 00:30:00 13.9 C 9.23 g/m*3 13.9 C 3.2 km/h
Sensor: Nr:Datum:Temp:Abs-Feuchte:Windchill:Wind:
Aussen-T/F 1276 07-04-2014 00:35:00 13.9 C 9.23 g/m*3 13.9 C 1.6 km/h
1277 07-04-2014 00:40:00 13.8 C 9.29 g/m*3 13.8 C 0 km/h
1278 07-04-2014 00:45:00 13.6 C 9.18 g/m*3 13.6 C 0 km/h
1279 07-04-2014 00:50:00 13.4 C 9.3 g/m*3 13.4 C 0 km/h
1280 07-04-2014 00:55:00 13.3 C 9.24 g/m*3 13.3 C 0 km/h
1281 07-04-2014 01:00:00 13.3 C 9.36 g/m*3 13.3 C 0 km/h
1282 07-04-2014 01:05:00 13.3 C 9.36 g/m*3 13.3 C 0 km/h
1283 07-04-2014 01:10:00 13.2 C 9.3 g/m*3 13.2 C 0 km/h
1284 07-04-2014 01:15:00 13.2 C 9.42 g/m*3 13.2 C 0 km/h
1285 07-04-2014 01:20:00 13.2 C 9.42 g/m*3 13.2 C 0 km/h
1286 07-04-2014 01:25:00 13.2 C 9.3 g/m*3 13.2 C 0 km/h
1287 07-04-2014 01:30:00 13.2 C 9.3 g/m*3 13.2 C 0 km/h
1288 07-04-2014 01:35:00 13.2 C 9.42 g/m*3 13.2 C 1.6 km/h
1289 07-04-2014 01:40:00 13.2 C 9.42 g/m*3 13.2 C 0 km/h
1290 07-04-2014 01:45:00 13.2 C 9.42 g/m*3 13.2 C 0 km/h
1291 07-04-2014 01:50:00 13.2 C 9.42 g/m*3 13.2 C 1.6 km/h
1292 07-04-2014 01:55:00 13.2 C 9.3 g/m*3 13.2 C 0 km/h
1293 07-04-2014 02:00:00 13.2 C 9.42 g/m*3 13.2 C 0 km/h
1294 07-04-2014 02:05:00 13.1 C 9.47 g/m*3 13.1 C 3.2 km/h
1295 07-04-2014 02:10:00 13.1 C 9.47 g/m*3 13.1 C 3.2 km/h
1296 07-04-2014 02:15:00 13.1 C 9.47 g/m*3 13.1 C 0 km/h
1297 07-04-2014 02:20:00 13.1 C 9.47 g/m*3 13.1 C 0 km/h
1298 07-04-2014 02:25:00 13.1 C 9.36 g/m*3 13.1 C 0 km/h
1299 07-04-2014 02:30:00 13.1 C 9.47 g/m*3 13.1 C 0 km/h
1300 07-04-2014 02:35:00 13 C 9.41 g/m*3 13 C 0 km/h
Sensor: Nr:Datum:Temp:Abs-Feuchte:Windchill:Wind:
Aussen-T/F 1301 07-04-2014 02:40:00 12.9 C 9.47 g/m*3 12.9 C 0 km/h
1302 07-04-2014 02:45:00 12.8 C 9.41 g/m*3 12.8 C 0 km/h
1303 07-04-2014 02:50:00 12.7 C 9.46 g/m*3 12.7 C 0 km/h
1304 07-04-2014 02:55:00 12.7 C 9.35 g/m*3 12.7 C 0 km/h
1305 07-04-2014 03:00:00 12.7 C 9.35 g/m*3 12.7 C 0 km/h
1306 07-04-2014 03:05:00 12.7 C 9.46 g/m*3 12.7 C 0 km/h
1307 07-04-2014 03:10:00 12.7 C 9.46 g/m*3 12.7 C 0 km/h
1308 07-04-2014 03:15:00 12.7 C 9.35 g/m*3 12.7 C 0 km/h
1309 07-04-2014 03:20:00 12.7 C 9.35 g/m*3 12.7 C 0 km/h
1310 07-04-2014 03:25:00 12.7 C 9.46 g/m*3 12.7 C 0 km/h
1311 07-04-2014 03:30:00 12.7 C 9.46 g/m*3 12.7 C 0 km/h
1312 07-04-2014 03:35:00 12.7 C 9.46 g/m*3 12.7 C 0 km/h
1313 07-04-2014 03:40:00 12.7 C 9.46 g/m*3 12.7 C 0 km/h
1314 07-04-2014 03:45:00 12.6 C 9.4 g/m*3 12.6 C 0 km/h
1315 07-04-2014 03:50:00 12.6 C 9.4 g/m*3 12.6 C 0 km/h
1316 07-04-2014 03:55:00 12.6 C 9.4 g/m*3 12.6 C 0 km/h
1317 07-04-2014 04:00:00 12.6 C 9.4 g/m*3 12.6 C 0 km/h
1318 07-04-2014 04:05:00 12.6 C 9.4 g/m*3 12.6 C 0 km/h
1319 07-04-2014 04:10:00 12.6 C 9.4 g/m*3 12.6 C 1.6 km/h
1320 07-04-2014 04:15:00 12.6 C 9.51 g/m*3 12.6 C 0 km/h
1321 07-04-2014 04:20:00 12.6 C 9.51 g/m*3 12.6 C 0 km/h
1322 07-04-2014 04:25:00 12.5 C 9.46 g/m*3 12.5 C 0 km/h
1323 07-04-2014 04:30:00 12.5 C 9.46 g/m*3 12.5 C 0 km/h
1324 07-04-2014 04:35:00 12.4 C 9.4 g/m*3 12.4 C 0 km/h
1325 07-04-2014 04:40:00 12.4 C 9.4 g/m*3 12.4 C 0 km/h
Sensor: Nr:Datum:Temp:Abs-Feuchte:Windchill:Wind:
Aussen-T/F 1326 07-04-2014 04:45:00 12.4 C 9.4 g/m*3 12.4 C 0 km/h
1327 07-04-2014 04:50:00 12.4 C 9.4 g/m*3 12.4 C 0 km/h
1328 07-04-2014 04:55:00 12.4 C 9.4 g/m*3 12.4 C 0 km/h
1329 07-04-2014 05:00:00 12.4 C 9.4 g/m*3 12.4 C 1.6 km/h
1330 07-04-2014 05:05:00 12.4 C 9.4 g/m*3 12.4 C 0 km/h
1331 07-04-2014 05:10:00 12.4 C 9.4 g/m*3 12.4 C 1.6 km/h
1332 07-04-2014 05:15:00 12.4 C 9.4 g/m*3 12.4 C 0 km/h
1333 07-04-2014 05:20:00 12.4 C 9.4 g/m*3 12.4 C 0 km/h
1334 07-04-2014 05:25:00 12.4 C 9.4 g/m*3 12.4 C 0 km/h
1335 07-04-2014 05:30:00 12.4 C 9.4 g/m*3 12.4 C 0 km/h
1336 07-04-2014 05:35:00 12.4 C 9.51 g/m*3 12.4 C 0 km/h
1337 07-04-2014 05:40:00 12.4 C 9.51 g/m*3 12.4 C 3.2 km/h
1338 07-04-2014 05:45:00 12.4 C 9.51 g/m*3 12.4 C 1.6 km/h
1339 07-04-2014 05:50:00 12.4 C 9.51 g/m*3 12.4 C 1.6 km/h
1340 07-04-2014 05:55:00 12.4 C 9.51 g/m*3 12.4 C 0 km/h
1341 07-04-2014 06:00:00 12.4 C 9.51 g/m*3 12.4 C 0 km/h
1342 07-04-2014 06:05:00 12.4 C 9.51 g/m*3 12.4 C 0 km/h
1343 07-04-2014 06:10:00 12.4 C 9.51 g/m*3 12.4 C 0 km/h
1344 07-04-2014 06:15:00 12.4 C 9.62 g/m*3 12.4 C 0 km/h
1345 07-04-2014 06:20:00 12.4 C 9.62 g/m*3 12.4 C 1.6 km/h
1346 07-04-2014 06:25:00 12.4 C 9.62 g/m*3 12.4 C 0 km/h
1347 07-04-2014 06:30:00 12.4 C 9.62 g/m*3 12.4 C 0 km/h
1348 07-04-2014 06:35:00 12.4 C 9.51 g/m*3 12.4 C 0 km/h
1349 07-04-2014 06:40:00 12.4 C 9.51 g/m*3 12.4 C 0 km/h
1350 07-04-2014 06:45:00 12.4 C 9.62 g/m*3 12.4 C 0 km/h
Sensor: Nr:Datum:Temp:Abs-Feuchte:Windchill:Wind:
Aussen-T/F 1351 07-04-2014 06:50:00 12.3 C 9.56 g/m*3 12.3 C 0 km/h
1352 07-04-2014 06:55:00 12.3 C 9.56 g/m*3 12.3 C 0 km/h
1353 07-04-2014 07:00:00 12.3 C 9.56 g/m*3 12.3 C 0 km/h
1354 07-04-2014 07:05:00 12.3 C 9.56 g/m*3 12.3 C 0 km/h
1355 07-04-2014 07:10:00 12.3 C 9.56 g/m*3 12.3 C 0 km/h
1356 07-04-2014 07:45:00 12.2 C 9.6 g/m*3 12.2 C 0 km/h
1357 07-04-2014 07:50:00 12.2 C 9.6 g/m*3 12.2 C 0 km/h
1358 07-04-2014 07:55:00 12.3 C 9.66 g/m*3 12.3 C 3.2 km/h
1359 07-04-2014 08:00:00 12.4 C 9.83 g/m*3 12.4 C 0 km/h
1360 07-04-2014 08:05:00 12.4 C 9.72 g/m*3 12.4 C 0 km/h
1361 07-04-2014 08:10:00 12.6 C 9.85 g/m*3 12.6 C 0 km/h
1362 07-04-2014 08:15:00 12.7 C 9.8 g/m*3 12.7 C 0 km/h
1363 07-04-2014 08:20:00 12.8 C 9.86 g/m*3 12.8 C 1.6 km/h
1364 07-04-2014 08:25:00 12.9 C 9.81 g/m*3 12.9 C 0 km/h
1365 07-04-2014 08:30:00 13.1 C 9.93 g/m*3 13.1 C 0 km/h
1366 07-04-2014 08:35:00 13.2 C 9.87 g/m*3 13.2 C 4.8 km/h
1367 07-04-2014 08:40:00 13.3 C 9.94 g/m*3 13.3 C 1.6 km/h
1368 07-04-2014 08:45:00 13.3 C 9.94 g/m*3 13.3 C 3.2 km/h
1369 07-04-2014 08:50:00 13.3 C 9.82 g/m*3 13.3 C 6.4 km/h
1370 07-04-2014 08:55:00 13.4 C 9.88 g/m*3 13.4 C 1.6 km/h
1371 07-04-2014 09:00:00 13.4 C 10 g/m*3 13.4 C 1.6 km/h
1372 07-04-2014 09:05:00 13.4 C 9.88 g/m*3 13.4 C 3.2 km/h
1373 07-04-2014 09:10:00 13.5 C 9.94 g/m*3 13.5 C 4.8 km/h
1374 07-04-2014 09:15:00 13.6 C 10.12 g/m*3 13.6 C 1.6 km/h
1375 07-04-2014 09:20:00 13.8 C 10.25 g/m*3 13.8 C 0 km/h
Sensor: Nr:Datum:Temp:Abs-Feuchte:Windchill:Wind:
Aussen-T/F 1376 07-04-2014 09:25:00 13.9 C 10.31 g/m*3 13.9 C 0 km/h
1377 07-04-2014 09:30:00 14.1 C 10.44 g/m*3 14.1 C 0 km/h
1378 07-04-2014 09:35:00 14.3 C 10.57 g/m*3 14.3 C 3.2 km/h
1379 07-04-2014 09:40:00 14.7 C 10.58 g/m*3 14.7 C 4.8 km/h
1380 07-04-2014 09:45:00 14.9 C 10.58 g/m*3 14.9 C 4.8 km/h
1381 07-04-2014 09:50:00 15.1 C 10.58 g/m*3 15.1 C 8.1 km/h
1382 07-04-2014 09:55:00 15.2 C 10.64 g/m*3 15.2 C 8.1 km/h
1383 07-04-2014 10:00:00 15.3 C 10.58 g/m*3 15.3 C 6.4 km/h
1384 07-04-2014 10:05:00 15.5 C 10.71 g/m*3 15.5 C 4.8 km/h
1385 07-04-2014 10:10:00 15.7 C 10.84 g/m*3 15.7 C 9.7 km/h
1386 07-04-2014 10:15:00 15.8 C 10.77 g/m*3 15.8 C 8.1 km/h
1387 07-04-2014 10:20:00 15.9 C 10.83 g/m*3 15.9 C 8.1 km/h
1388 07-04-2014 10:25:00 16.1 C 10.97 g/m*3 16.1 C 6.4 km/h
1389 07-04-2014 10:30:00 16.2 C 11.03 g/m*3 16.2 C 8.1 km/h
1390 07-04-2014 10:35:00 16.3 C 11.1 g/m*3 16.3 C 11.3 km/h
1391 07-04-2014 10:40:00 16.5 C 11.23 g/m*3 16.5 C 11.3 km/h
1392 07-04-2014 10:45:00 16.8 C 11.15 g/m*3 16.8 C 11.3 km/h
1393 07-04-2014 10:50:00 17 C 11.29 g/m*3 17 C 14.5 km/h
1394 07-04-2014 10:55:00 17.2 C 11.28 g/m*3 17.2 C 12.9 km/h
1395 07-04-2014 11:00:00 17.3 C 11.34 g/m*3 17.3 C 12.9 km/h
1396 07-04-2014 11:05:00 17.4 C 11.41 g/m*3 17.4 C 11.3 km/h
1397 07-04-2014 11:10:00 17.7 C 11.47 g/m*3 17.7 C 9.7 km/h
1398 07-04-2014 11:15:00 17.8 C 11.38 g/m*3 17.8 C 9.7 km/h
1399 07-04-2014 11:20:00 17.8 C 11.38 g/m*3 17.8 C 11.3 km/h
1400 07-04-2014 11:25:00 17.9 C 11.45 g/m*3 17.9 C 8.1 km/h
Sensor: Nr:Datum:Temp:Abs-Feuchte:Windchill:Wind:
Aussen-T/F 1401 07-04-2014 11:30:00 17.9 C 11.3 g/m*3 17.9 C 9.7 km/h
1402 07-04-2014 11:35:00 17.9 C 11.3 g/m*3 17.9 C 8.1 km/h
1403 07-04-2014 11:40:00 17.8 C 11.38 g/m*3 17.8 C 6.4 km/h
1404 07-04-2014 11:45:00 17.8 C 11.38 g/m*3 17.8 C 4.8 km/h
1405 07-04-2014 11:50:00 18 C 11.52 g/m*3 18 C 9.7 km/h
1406 07-04-2014 11:55:00 18.3 C 11.57 g/m*3 18.3 C 8.1 km/h
1407 07-04-2014 12:00:00 18.4 C 11.48 g/m*3 18.4 C 11.3 km/h
1408 07-04-2014 12:05:00 18.6 C 11.62 g/m*3 18.6 C 8.1 km/h
1409 07-04-2014 12:10:00 18.8 C 11.6 g/m*3 18.8 C 11.3 km/h
1410 07-04-2014 12:15:00 19.1 C 11.64 g/m*3 19.1 C 11.3 km/h
1411 07-04-2014 12:20:00 19.3 C 11.61 g/m*3 19.3 C 11.3 km/h
1412 07-04-2014 12:25:00 19.7 C 11.72 g/m*3 19.7 C 9.7 km/h
1413 07-04-2014 12:30:00 19.9 C 11.51 g/m*3 19.9 C 8.1 km/h
1414 07-04-2014 12:35:00 20 C 11.41 g/m*3 20 C 4.8 km/h
1415 07-04-2014 12:40:00 20 C 11.23 g/m*3 20 C 6.4 km/h
1416 07-04-2014 12:45:00 20.2 C 11.02 g/m*3 20.2 C 8.1 km/h
1417 07-04-2014 12:50:00 20.1 C 11.13 g/m*3 20.1 C 9.7 km/h
1418 07-04-2014 12:55:00 20.1 C 11.3 g/m*3 20.1 C 6.4 km/h
1419 07-04-2014 13:00:00 20.3 C 11.61 g/m*3 20.3 C 6.4 km/h
1420 07-04-2014 13:05:00 20.5 C 11.03 g/m*3 20.5 C 8.1 km/h
1421 07-04-2014 13:10:00 20.4 C 10.97 g/m*3 20.4 C 9.7 km/h
1422 07-04-2014 13:15:00 20.3 C 11.08 g/m*3 20.3 C 8.1 km/h
1423 07-04-2014 13:20:00 20.3 C 11.26 g/m*3 20.3 C 6.4 km/h
1424 07-04-2014 13:25:00 20.3 C 10.9 g/m*3 20.3 C 8.1 km/h
1425 07-04-2014 13:30:00 20.3 C 11.26 g/m*3 20.3 C 3.2 km/h
Sensor: Nr:Datum:Temp:Abs-Feuchte:Windchill:Wind:
Aussen-T/F 1426 07-04-2014 13:35:00 20.4 C 10.97 g/m*3 20.4 C 8.1 km/h
1427 07-04-2014 13:40:00 20.6 C 11.28 g/m*3 20.6 C 1.6 km/h
1428 07-04-2014 13:45:00 20.9 C 11.11 g/m*3 20.9 C 9.7 km/h
1429 07-04-2014 13:50:00 21 C 11.17 g/m*3 21 C 6.4 km/h
1430 07-04-2014 13:55:00 20.9 C 10.75 g/m*3 20.9 C 9.7 km/h
1431 07-04-2014 14:00:00 20.9 C 11.11 g/m*3 20.9 C 4.8 km/h
1432 07-04-2014 14:05:00 21.1 C 11.42 g/m*3 21.1 C 9.7 km/h
1433 07-04-2014 14:10:00 21.3 C 11.74 g/m*3 21.3 C 4.8 km/h
1434 07-04-2014 14:15:00 21.3 C 11.18 g/m*3 21.3 C 8.1 km/h
1435 07-04-2014 14:20:00 21.3 C 11.74 g/m*3 21.3 C 11.3 km/h
1436 07-04-2014 14:25:00 21.2 C 11.12 g/m*3 21.2 C 8.1 km/h
1437 07-04-2014 14:30:00 21.1 C 11.24 g/m*3 21.1 C 8.1 km/h
1438 07-04-2014 14:35:00 21.2 C 11.3 g/m*3 21.2 C 4.8 km/h
1439 07-04-2014 14:40:00 21.3 C 11.37 g/m*3 21.3 C 6.4 km/h
1440 07-04-2014 14:45:00 21.4 C 11.44 g/m*3 21.4 C 6.4 km/h
1441 07-04-2014 14:50:00 21.2 C 11.3 g/m*3 21.2 C 11.3 km/h
1442 07-04-2014 14:55:00 21.2 C 10.56 g/m*3 21.2 C 11.3 km/h
1443 07-04-2014 15:00:00 21.1 C 10.87 g/m*3 21.1 C 4.8 km/h
1444 07-04-2014 15:05:00 21.1 C 10.87 g/m*3 21.1 C 6.4 km/h
1445 07-04-2014 15:10:00 21.2 C 10.93 g/m*3 21.2 C 3.2 km/h
1446 07-04-2014 15:15:00 21.3 C 11 g/m*3 21.3 C 4.8 km/h
1447 07-04-2014 15:20:00 21.6 C 11 g/m*3 21.6 C 12.9 km/h
1448 07-04-2014 15:25:00 21.6 C 10.62 g/m*3 21.6 C 9.7 km/h
1449 07-04-2014 15:30:00 21.6 C 10.81 g/m*3 21.6 C 8.1 km/h
1450 07-04-2014 15:35:00 21.4 C 10.5 g/m*3 21.4 C 8.1 km/h
Sensor: Nr:Datum:Temp:Abs-Feuchte:Windchill:Wind:
Aussen-T/F 1451 07-04-2014 15:40:00 21.6 C 10.81 g/m*3 21.6 C 8.1 km/h
1452 07-04-2014 15:45:00 21.9 C 10.61 g/m*3 21.9 C 11.3 km/h
1453 07-04-2014 15:50:00 22 C 10.29 g/m*3 22 C 4.8 km/h
1454 07-04-2014 15:55:00 22.1 C 10.15 g/m*3 22.1 C 8.1 km/h
1455 07-04-2014 16:00:00 22.1 C 10.15 g/m*3 22.1 C 6.4 km/h
1456 07-04-2014 16:05:00 22.2 C 9.82 g/m*3 22.2 C 9.7 km/h
1457 07-04-2014 16:10:00 22.2 C 9.82 g/m*3 22.2 C 8.1 km/h
1458 07-04-2014 18:00:00 23.5 C 21.15 g/m*3 23.5 C 9.7 km/h
1459 07-04-2014 18:05:00 23.5 C 21.15 g/m*3 23.5 C 8.1 km/h
1460 07-04-2014 18:10:00 23.3 C 20.91 g/m*3 23.3 C 6.4 km/h
1461 07-04-2014 18:15:00 23.3 C 20.91 g/m*3 23.3 C 3.2 km/h
1462 07-04-2014 18:20:00 23.3 C 10.04 g/m*3 23.3 C 8.1 km/h
1463 07-04-2014 18:25:00 23.3 C 10.04 g/m*3 23.3 C 4.8 km/h
1464 07-04-2014 19:40:00 18.2 C 10.26 g/m*3 18.2 C 3.2 km/h
1465 07-04-2014 19:45:00 18 C 9.98 g/m*3 18 C 4.8 km/h
1466 07-04-2014 19:50:00 17.8 C 10.17 g/m*3 17.8 C 4.8 km/h
1467 07-04-2014 19:55:00 17.6 C 9.75 g/m*3 17.6 C 4.8 km/h
1468 07-04-2014 20:00:00 17.4 C 9.63 g/m*3 17.4 C 3.2 km/h
1469 07-04-2014 20:05:00 17.3 C 9.43 g/m*3 17.3 C 3.2 km/h
1470 07-04-2014 20:10:00 17.1 C 9.46 g/m*3 17.1 C 4.8 km/h
1471 07-04-2014 20:15:00 16.9 C 9.35 g/m*3 16.9 C 3.2 km/h
1472 07-04-2014 20:20:00 16.8 C 9.29 g/m*3 16.8 C 6.4 km/h
1473 07-04-2014 20:25:00 16.7 C 9.24 g/m*3 16.7 C 4.8 km/h
1474 07-04-2014 20:30:00 16.7 C 9.38 g/m*3 16.7 C 4.8 km/h
1475 07-04-2014 20:35:00 16.6 C 9.18 g/m*3 16.6 C 4.8 km/h
Sensor: Nr:Datum:Temp:Abs-Feuchte:Windchill:Wind:
Aussen-T/F 1476 07-04-2014 20:40:00 16.6 C 9.32 g/m*3 16.6 C 4.8 km/h
1477 07-04-2014 20:45:00 16.6 C 9.32 g/m*3 16.6 C 4.8 km/h
1478 07-04-2014 21:05:00 16.4 C 13.96 g/m*3 16.4 C 4.8 km/h
1479 07-04-2014 21:10:00 16.3 C 9.16 g/m*3 16.3 C 3.2 km/h
1480 07-04-2014 21:15:00 16.3 C 9.3 g/m*3 16.3 C 4.8 km/h
1481 07-04-2014 21:20:00 16.3 C 9.3 g/m*3 16.3 C 3.2 km/h
1482 07-04-2014 21:25:00 16.2 C 9.24 g/m*3 16.2 C 4.8 km/h
1483 07-04-2014 21:30:00 16.2 C 9.1 g/m*3 16.2 C 6.4 km/h
1484 07-04-2014 21:35:00 16.2 C 9.24 g/m*3 16.2 C 3.2 km/h
1485 07-04-2014 21:40:00 16.1 C 9.18 g/m*3 16.1 C 4.8 km/h
1486 07-04-2014 21:45:00 16.1 C 9.05 g/m*3 16.1 C 1.6 km/h
1487 07-04-2014 21:50:00 16.1 C 9.18 g/m*3 16.1 C 3.2 km/h
1488 07-04-2014 21:55:00 16.1 C 9.18 g/m*3 16.1 C 4.8 km/h
1489 07-04-2014 22:00:00 16.1 C 9.05 g/m*3 16.1 C 3.2 km/h
1490 07-04-2014 22:05:00 16.1 C 9.05 g/m*3 16.1 C 4.8 km/h
1491 07-04-2014 22:10:00 16 C 9.13 g/m*3 16 C 3.2 km/h
1492 07-04-2014 22:15:00 16 C 8.99 g/m*3 16 C 1.6 km/h
1493 07-04-2014 22:20:00 16 C 8.86 g/m*3 16 C 3.2 km/h
1494 07-04-2014 22:25:00 15.9 C 9.07 g/m*3 15.9 C 4.8 km/h
1495 07-04-2014 22:30:00 16.1 C 9.18 g/m*3 16.1 C 4.8 km/h
1496 07-04-2014 22:35:00 16 C 9.13 g/m*3 16 C 4.8 km/h
1497 07-04-2014 22:40:00 16.1 C 9.32 g/m*3 16.1 C 3.2 km/h
1498 07-04-2014 22:45:00 16.1 C 9.18 g/m*3 16.1 C 1.6 km/h
1499 07-04-2014 22:50:00 16 C 9.26 g/m*3 16 C 3.2 km/h
1500 07-04-2014 22:55:00 16 C 9.26 g/m*3 16 C 0 km/h
Sensor: Nr:Datum:Temp:Abs-Feuchte:Windchill:Wind:
Aussen-T/F 1501 07-04-2014 23:00:00 16.1 C 9.18 g/m*3 16.1 C 3.2 km/h
1502 07-04-2014 23:05:00 16.1 C 9.18 g/m*3 16.1 C 1.6 km/h
1503 07-04-2014 23:10:00 16.1 C 9.18 g/m*3 16.1 C 3.2 km/h
1504 07-04-2014 23:15:00 16.3 C 9.02 g/m*3 16.3 C 4.8 km/h
1505 07-04-2014 23:20:00 16.3 C 9.3 g/m*3 16.3 C 8.1 km/h
1506 07-04-2014 23:25:00 16.3 C 9.3 g/m*3 16.3 C 3.2 km/h
1507 07-04-2014 23:30:00 16.2 C 9.38 g/m*3 16.2 C 3.2 km/h
1508 07-04-2014 23:35:00 16.2 C 9.38 g/m*3 16.2 C 1.6 km/h
1509 07-04-2014 23:40:00 16.1 C 9.32 g/m*3 16.1 C 3.2 km/h
1510 07-04-2014 23:45:00 16.1 C 9.18 g/m*3 16.1 C 1.6 km/h
1511 07-04-2014 23:50:00 15.9 C 9.34 g/m*3 15.9 C 3.2 km/h
1512 07-04-2014 23:55:00 15.8 C 9.15 g/m*3 15.8 C 4.8 km/h
1513 08-04-2014 00:00:00 15.7 C 9.23 g/m*3 15.7 C 3.2 km/h
1514 08-04-2014 00:05:00 15.7 C 9.23 g/m*3 15.7 C 3.2 km/h
1515 08-04-2014 00:10:00 15.7 C 9.37 g/m*3 15.7 C 4.8 km/h
1516 08-04-2014 00:15:00 15.6 C 9.31 g/m*3 15.6 C 4.8 km/h
1517 08-04-2014 00:20:00 15.6 C 9.31 g/m*3 15.6 C 4.8 km/h
1518 08-04-2014 00:25:00 15.4 C 9.33 g/m*3 15.4 C 4.8 km/h
1519 08-04-2014 00:30:00 15.3 C 9.4 g/m*3 15.3 C 1.6 km/h
1520 08-04-2014 00:35:00 15.3 C 9.27 g/m*3 15.3 C 3.2 km/h
1521 08-04-2014 00:40:00 15.3 C 9.4 g/m*3 15.3 C 3.2 km/h
1522 08-04-2014 00:45:00 15.3 C 9.4 g/m*3 15.3 C 4.8 km/h
1523 08-04-2014 00:50:00 15.4 C 9.59 g/m*3 15.4 C 3.2 km/h
1524 08-04-2014 00:55:00 15.5 C 9.65 g/m*3 15.5 C 3.2 km/h
1525 08-04-2014 01:00:00 15.6 C 9.71 g/m*3 15.6 C 1.6 km/h
Sensor: Nr:Datum:Temp:Abs-Feuchte:Windchill:Wind:
Aussen-T/F 1526 08-04-2014 01:05:00 15.6 C 9.71 g/m*3 15.6 C 3.2 km/h
1527 08-04-2014 01:10:00 15.6 C 9.97 g/m*3 15.6 C 1.6 km/h
1528 08-04-2014 01:15:00 15.6 C 9.84 g/m*3 15.6 C 3.2 km/h
1529 08-04-2014 01:20:00 15.6 C 9.84 g/m*3 15.6 C 1.6 km/h
1530 08-04-2014 01:25:00 15.6 C 9.97 g/m*3 15.6 C 0 km/h
1531 08-04-2014 01:30:00 15.6 C 9.97 g/m*3 15.6 C 4.8 km/h
1532 08-04-2014 01:35:00 15.6 C 9.84 g/m*3 15.6 C 3.2 km/h
1533 08-04-2014 01:40:00 15.6 C 9.97 g/m*3 15.6 C 0 km/h
1534 08-04-2014 01:45:00 15.6 C 9.97 g/m*3 15.6 C 1.6 km/h
1535 08-04-2014 01:50:00 15.5 C 9.78 g/m*3 15.5 C 0 km/h
1536 08-04-2014 01:55:00 15.6 C 9.84 g/m*3 15.6 C 1.6 km/h
1537 08-04-2014 02:00:00 15.7 C 10.03 g/m*3 15.7 C 3.2 km/h
1538 08-04-2014 02:05:00 15.6 C 9.84 g/m*3 15.6 C 1.6 km/h
1539 08-04-2014 02:10:00 15.5 C 9.91 g/m*3 15.5 C 1.6 km/h
1540 08-04-2014 02:15:00 15.4 C 9.99 g/m*3 15.4 C 1.6 km/h
1541 08-04-2014 02:20:00 15.4 C 9.72 g/m*3 15.4 C 8.1 km/h
1542 08-04-2014 02:25:00 15.7 C 9.63 g/m*3 15.7 C 8.1 km/h
1543 08-04-2014 02:30:00 16 C 10.08 g/m*3 16 C 4.8 km/h
1544 08-04-2014 02:35:00 16.6 C 9.75 g/m*3 16.6 C 12.9 km/h
1545 08-04-2014 02:40:00 16.8 C 9.72 g/m*3 16.8 C 3.2 km/h
1546 08-04-2014 02:45:00 16.7 C 9.66 g/m*3 16.7 C 3.2 km/h
1547 08-04-2014 02:50:00 16.6 C 9.75 g/m*3 16.6 C 3.2 km/h
1548 08-04-2014 02:55:00 16.3 C 9.99 g/m*3 16.3 C 4.8 km/h
1549 08-04-2014 03:00:00 16.2 C 9.52 g/m*3 16.2 C 8.1 km/h
1550 08-04-2014 03:05:00 16.2 C 9.52 g/m*3 16.2 C 4.8 km/h
Sensor: Nr:Datum:Temp:Abs-Feuchte:Windchill:Wind:
Aussen-T/F 1551 08-04-2014 03:10:00 16.1 C 9.87 g/m*3 16.1 C 3.2 km/h
1552 08-04-2014 03:15:00 15.7 C 9.9 g/m*3 15.7 C 3.2 km/h
1553 08-04-2014 03:20:00 15.5 C 9.91 g/m*3 15.5 C 0 km/h
1554 08-04-2014 03:25:00 15.1 C 9.68 g/m*3 15.1 C 4.8 km/h
1555 08-04-2014 03:30:00 14.8 C 9.75 g/m*3 14.8 C 4.8 km/h
1556 08-04-2014 03:35:00 14.7 C 9.69 g/m*3 14.7 C 4.8 km/h
1557 08-04-2014 03:40:00 14.6 C 9.76 g/m*3 14.6 C 3.2 km/h
1558 08-04-2014 03:45:00 14.6 C 9.76 g/m*3 14.6 C 0 km/h
1559 08-04-2014 03:50:00 14.6 C 9.76 g/m*3 14.6 C 0 km/h
1560 08-04-2014 03:55:00 14.4 C 9.77 g/m*3 14.4 C 0 km/h
1561 08-04-2014 04:00:00 14.3 C 9.71 g/m*3 14.3 C 1.6 km/h
1562 08-04-2014 04:05:00 14.2 C 9.77 g/m*3 14.2 C 1.6 km/h
1563 08-04-2014 04:10:00 14.1 C 9.59 g/m*3 14.1 C 0 km/h
1564 08-04-2014 04:15:00 14.2 C 9.89 g/m*3 14.2 C 0 km/h
1565 08-04-2014 04:20:00 14.2 C 9.77 g/m*3 14.2 C 1.6 km/h
1566 08-04-2014 04:25:00 14.2 C 9.77 g/m*3 14.2 C 0 km/h
1567 08-04-2014 04:30:00 14.2 C 9.77 g/m*3 14.2 C 0 km/h
1568 08-04-2014 04:35:00 14.4 C 9.64 g/m*3 14.4 C 6.4 km/h
1569 08-04-2014 04:40:00 14.7 C 9.57 g/m*3 14.7 C 6.4 km/h
1570 08-04-2014 04:45:00 15.4 C 9.59 g/m*3 15.4 C 12.9 km/h
1571 08-04-2014 04:50:00 15.9 C 9.34 g/m*3 15.9 C 14.5 km/h
1572 08-04-2014 04:55:00 16.2 C 9.38 g/m*3 16.2 C 11.3 km/h
1573 08-04-2014 05:00:00 16.2 C 9.38 g/m*3 16.2 C 16.1 km/h
1574 08-04-2014 05:05:00 16.1 C 9.32 g/m*3 16.1 C 3.2 km/h
1575 08-04-2014 05:10:00 15.9 C 9.48 g/m*3 15.9 C 6.4 km/h
Sensor: Nr:Datum:Temp:Abs-Feuchte:Windchill:Wind:
Aussen-T/F 1576 08-04-2014 05:15:00 15.8 C 9.29 g/m*3 15.8 C 6.4 km/h
1577 08-04-2014 05:20:00 15.5 C 9.39 g/m*3 15.5 C 3.2 km/h
1578 08-04-2014 05:25:00 15.1 C 9.16 g/m*3 15.1 C 11.3 km/h
1579 08-04-2014 05:30:00 15.1 C 9.03 g/m*3 15.1 C 9.7 km/h
1580 08-04-2014 05:35:00 15.3 C 9.14 g/m*3 15.3 C 12.9 km/h
1581 08-04-2014 05:40:00 15.2 C 9.09 g/m*3 15.2 C 8.1 km/h
1582 08-04-2014 05:45:00 15.2 C 9.09 g/m*3 15.2 C 16.1 km/h
1583 08-04-2014 05:50:00 15.3 C 9.01 g/m*3 15.3 C 11.3 km/h
1584 08-04-2014 05:55:00 15.3 C 9.66 g/m*3 15.3 C 16.1 km/h
1585 08-04-2014 06:00:00 14.6 C 9.76 g/m*3 14.6 C 11.3 km/h
1586 08-04-2014 06:05:00 13.9 C 9.83 g/m*3 13.9 C 6.4 km/h
1587 08-04-2014 06:10:00 13.6 C 9.77 g/m*3 13.6 C 9.7 km/h
1588 08-04-2014 06:15:00 13.3 C 9.7 g/m*3 13.3 C 8.1 km/h
1589 08-04-2014 06:20:00 13.2 C 9.76 g/m*3 13.2 C 9.7 km/h
1590 08-04-2014 06:25:00 13 C 9.64 g/m*3 13 C 6.4 km/h
1591 08-04-2014 06:30:00 12.9 C 9.58 g/m*3 12.9 C 14.5 km/h
1592 08-04-2014 06:35:00 12.8 C 9.52 g/m*3 12.8 C 12.9 km/h
1593 08-04-2014 06:40:00 12.8 C 9.52 g/m*3 12.8 C 9.7 km/h
1594 08-04-2014 06:45:00 12.7 C 9.35 g/m*3 12.7 C 6.4 km/h
1595 08-04-2014 06:50:00 12.7 C 9.13 g/m*3 12.7 C 8.1 km/h
1596 08-04-2014 06:55:00 12.6 C 8.85 g/m*3 12.6 C 14.5 km/h
1597 08-04-2014 07:00:00 12.4 C 8.52 g/m*3 12.4 C 17.7 km/h
1598 08-04-2014 07:05:00 12.2 C 8.42 g/m*3 12.2 C 19.3 km/h
1599 08-04-2014 07:10:00 12.2 C 8.2 g/m*3 12.2 C 14.5 km/h
1600 08-04-2014 07:15:00 11.8 C 7.89 g/m*3 11.8 C 22.5 km/h
Sensor: Nr:Datum:Temp:Abs-Feuchte:Windchill:Wind:
Aussen-T/F 1601 08-04-2014 07:20:00 11.7 C 7.84 g/m*3 11.7 C 24.1 km/h
1602 08-04-2014 07:25:00 11.6 C 7.69 g/m*3 11.6 C 25.7 km/h
1603 08-04-2014 07:30:00 11.4 C 7.6 g/m*3 11.4 C 25.7 km/h
1604 08-04-2014 07:35:00 11.3 C 7.55 g/m*3 11.3 C 14.5 km/h
1605 08-04-2014 07:40:00 11.2 C 7.5 g/m*3 11.2 C 19.3 km/h
1606 08-04-2014 07:45:00 11 C 7.31 g/m*3 9.63 C 11.3 km/h
1607 08-04-2014 07:50:00 10.8 C 7.22 g/m*3 8.96 C 14.5 km/h
1608 08-04-2014 07:55:00 10.7 C 7.07 g/m*3 8.18 C 20.9 km/h
1609 08-04-2014 08:00:00 10.7 C 6.88 g/m*3 9.04 C 12.9 km/h
1610 08-04-2014 08:05:00 10.7 C 6.88 g/m*3 8.18 C 20.9 km/h
1611 08-04-2014 08:10:00 10.8 C 6.92 g/m*3 8.45 C 19.3 km/h
1612 08-04-2014 08:15:00 10.9 C 6.86 g/m*3 8.9 C 16.1 km/h
1613 08-04-2014 08:20:00 10.9 C 6.96 g/m*3 9.08 C 14.5 km/h
1614 08-04-2014 08:25:00 10.9 C 6.96 g/m*3 9.51 C 11.3 km/h
1615 08-04-2014 08:30:00 11.1 C 6.95 g/m*3 11.1 C 17.7 km/h
1616 08-04-2014 08:35:00 11.1 C 6.65 g/m*3 11.1 C 11.3 km/h
1617 08-04-2014 08:40:00 11.2 C 6.49 g/m*3 11.2 C 19.3 km/h
1618 08-04-2014 08:45:00 11.2 C 6.59 g/m*3 11.2 C 19.3 km/h
1619 08-04-2014 08:50:00 11.2 C 6.69 g/m*3 11.2 C 11.3 km/h
1620 08-04-2014 08:55:00 11.2 C 6.59 g/m*3 11.2 C 20.9 km/h
1621 08-04-2014 09:00:00 11.2 C 6.49 g/m*3 11.2 C 19.3 km/h
1622 08-04-2014 09:05:00 11.2 C 6.49 g/m*3 11.2 C 16.1 km/h
1623 08-04-2014 09:10:00 11.1 C 6.55 g/m*3 11.1 C 16.1 km/h
1624 08-04-2014 09:15:00 11.1 C 6.75 g/m*3 11.1 C 11.3 km/h
1625 08-04-2014 09:20:00 11 C 6.91 g/m*3 9.4 C 12.9 km/h
Sensor: Nr:Datum:Temp:Abs-Feuchte:Windchill:Wind:
Aussen-T/F 1626 08-04-2014 09:25:00 10.8 C 6.72 g/m*3 9.38 C 11.3 km/h
1627 08-04-2014 09:30:00 10.8 C 6.52 g/m*3 8.04 C 24.1 km/h
1628 08-04-2014 09:35:00 10.9 C 6.27 g/m*3 8.58 C 19.3 km/h
1629 08-04-2014 09:40:00 11.1 C 6.14 g/m*3 11.1 C 19.3 km/h
1630 08-04-2014 09:45:00 11.2 C 6.18 g/m*3 11.2 C 16.1 km/h
1631 08-04-2014 09:50:00 11.2 C 6.39 g/m*3 11.2 C 14.5 km/h
1632 08-04-2014 09:55:00 11.3 C 6.32 g/m*3 11.3 C 14.5 km/h
1633 08-04-2014 10:00:00 11.3 C 6.53 g/m*3 11.3 C 16.1 km/h
1634 08-04-2014 10:05:00 11.4 C 6.57 g/m*3 11.4 C 14.5 km/h
1635 08-04-2014 10:10:00 11.6 C 6.55 g/m*3 11.6 C 14.5 km/h
1636 08-04-2014 10:15:00 11.7 C 6.48 g/m*3 11.7 C 16.1 km/h
1637 08-04-2014 10:20:00 11.7 C 6.38 g/m*3 11.7 C 14.5 km/h
1638 08-04-2014 10:25:00 11.7 C 6.38 g/m*3 11.7 C 14.5 km/h
1639 08-04-2014 10:30:00 11.8 C 6.53 g/m*3 11.8 C 12.9 km/h
1640 08-04-2014 10:35:00 11.9 C 6.67 g/m*3 11.9 C 16.1 km/h
1641 08-04-2014 10:40:00 11.8 C 6.42 g/m*3 11.8 C 16.1 km/h
1642 08-04-2014 10:45:00 11.8 C 6.63 g/m*3 11.8 C 16.1 km/h
1643 08-04-2014 10:50:00 11.9 C 6.67 g/m*3 11.9 C 16.1 km/h
1644 08-04-2014 10:55:00 12.1 C 6.76 g/m*3 12.1 C 22.5 km/h
1645 08-04-2014 11:00:00 12.2 C 6.69 g/m*3 12.2 C 20.9 km/h
1646 08-04-2014 11:05:00 12.3 C 6.95 g/m*3 12.3 C 16.1 km/h
1647 08-04-2014 11:10:00 12.2 C 6.47 g/m*3 12.2 C 16.1 km/h
1648 08-04-2014 11:15:00 12.2 C 6.69 g/m*3 12.2 C 14.5 km/h
1649 08-04-2014 11:20:00 12.2 C 6.47 g/m*3 12.2 C 20.9 km/h
1650 08-04-2014 11:25:00 12.3 C 6.62 g/m*3 12.3 C 11.3 km/h
Sensor: Nr:Datum:Temp:Abs-Feuchte:Windchill:Wind:
Aussen-T/F 1651 08-04-2014 11:30:00 12.3 C 6.62 g/m*3 12.3 C 17.7 km/h
1652 08-04-2014 11:35:00 12.3 C 6.52 g/m*3 12.3 C 11.3 km/h
1653 08-04-2014 11:40:00 12.3 C 6.52 g/m*3 12.3 C 12.9 km/h
1654 08-04-2014 11:45:00 12.3 C 6.52 g/m*3 12.3 C 8.1 km/h
1655 08-04-2014 11:50:00 12.3 C 6.41 g/m*3 12.3 C 16.1 km/h
1656 08-04-2014 11:55:00 12.5 C 6.6 g/m*3 12.5 C 17.7 km/h
1657 08-04-2014 12:00:00 12.7 C 6.68 g/m*3 12.7 C 17.7 km/h
1658 08-04-2014 12:05:00 13 C 6.69 g/m*3 13 C 16.1 km/h
1659 08-04-2014 12:10:00 13.1 C 6.5 g/m*3 13.1 C 17.7 km/h
1660 08-04-2014 12:15:00 12.7 C 6.23 g/m*3 12.7 C 22.5 km/h
1661 08-04-2014 12:20:00 12.4 C 6.56 g/m*3 12.4 C 16.1 km/h
1662 08-04-2014 12:25:00 12.5 C 6.71 g/m*3 12.5 C 16.1 km/h
1663 08-04-2014 12:30:00 13 C 6.69 g/m*3 13 C 14.5 km/h
1664 08-04-2014 12:35:00 13.2 C 6.66 g/m*3 13.2 C 12.9 km/h
1665 08-04-2014 12:40:00 13.3 C 6.7 g/m*3 13.3 C 27.4 km/h
1666 08-04-2014 12:45:00 12.4 C 6.34 g/m*3 12.4 C 27.4 km/h
1667 08-04-2014 12:50:00 11.7 C 6.28 g/m*3 11.7 C 24.1 km/h
1668 08-04-2014 12:55:00 11.7 C 6.38 g/m*3 11.7 C 20.9 km/h
1669 08-04-2014 13:00:00 12.1 C 6.54 g/m*3 12.1 C 17.7 km/h
1670 08-04-2014 13:05:00 12.4 C 6.66 g/m*3 12.4 C 19.3 km/h
1671 08-04-2014 13:10:00 12.4 C 6.12 g/m*3 12.4 C 20.9 km/h
1672 08-04-2014 13:15:00 12.4 C 6.23 g/m*3 12.4 C 16.1 km/h
1673 08-04-2014 13:20:00 12.6 C 6.2 g/m*3 12.6 C 20.9 km/h
1674 08-04-2014 13:25:00 12.6 C 5.97 g/m*3 12.6 C 17.7 km/h
1675 08-04-2014 13:30:00 12.7 C 6.35 g/m*3 12.7 C 12.9 km/h
Sensor: Nr:Datum:Temp:Abs-Feuchte:Windchill:Wind:
Aussen-T/F 1676 08-04-2014 13:35:00 12.7 C 6.01 g/m*3 12.7 C 22.5 km/h
1677 08-04-2014 13:40:00 12.7 C 6.23 g/m*3 12.7 C 12.9 km/h
1678 08-04-2014 13:45:00 13 C 6.24 g/m*3 13 C 17.7 km/h
1679 08-04-2014 13:50:00 13.1 C 6.39 g/m*3 13.1 C 17.7 km/h
1680 08-04-2014 13:55:00 13 C 6.24 g/m*3 13 C 12.9 km/h
1681 08-04-2014 14:00:00 12.9 C 6.09 g/m*3 12.9 C 17.7 km/h
1682 08-04-2014 14:05:00 12.5 C 5.94 g/m*3 12.5 C 27.4 km/h
1683 08-04-2014 14:10:00 11.8 C 5.89 g/m*3 11.8 C 19.3 km/h
1684 08-04-2014 14:15:00 11.4 C 5.95 g/m*3 11.4 C 25.7 km/h
1685 08-04-2014 14:20:00 11.4 C 5.95 g/m*3 11.4 C 24.1 km/h
1686 08-04-2014 14:25:00 11.7 C 6.07 g/m*3 11.7 C 24.1 km/h
1687 08-04-2014 14:30:00 12 C 6.07 g/m*3 12 C 16.1 km/h
1688 08-04-2014 14:35:00 12.3 C 6.08 g/m*3 12.3 C 19.3 km/h
1689 08-04-2014 14:40:00 12.7 C 6.12 g/m*3 12.7 C 17.7 km/h
1690 08-04-2014 14:45:00 12.6 C 6.2 g/m*3 12.6 C 16.1 km/h
1691 08-04-2014 14:50:00 12.4 C 6.23 g/m*3 12.4 C 20.9 km/h
1692 08-04-2014 14:55:00 12.2 C 6.26 g/m*3 12.2 C 16.1 km/h
1693 08-04-2014 15:00:00 12.3 C 6.3 g/m*3 12.3 C 20.9 km/h
1694 08-04-2014 15:05:00 12.4 C 6.34 g/m*3 12.4 C 17.7 km/h
1695 08-04-2014 15:10:00 12.6 C 6.2 g/m*3 12.6 C 20.9 km/h
1696 08-04-2014 15:15:00 12.8 C 6.27 g/m*3 12.8 C 14.5 km/h
1697 08-04-2014 15:20:00 13.3 C 5.89 g/m*3 13.3 C 24.1 km/h
1698 08-04-2014 15:25:00 13.2 C 5.51 g/m*3 13.2 C 22.5 km/h
1699 08-04-2014 15:30:00 13 C 5.33 g/m*3 13 C 24.1 km/h
1700 08-04-2014 15:35:00 12.8 C 5.15 g/m*3 12.8 C 20.9 km/h
Sensor: Nr:Datum:Temp:Abs-Feuchte:Windchill:Wind:
Aussen-T/F 1701 08-04-2014 15:40:00 12.5 C 5.17 g/m*3 12.5 C 20.9 km/h
1702 08-04-2014 15:45:00 12.3 C 5.21 g/m*3 12.3 C 17.7 km/h
1703 08-04-2014 15:50:00 12.2 C 5.29 g/m*3 12.2 C 16.1 km/h
1704 08-04-2014 15:55:00 12.2 C 5.5 g/m*3 12.2 C 17.7 km/h
1705 08-04-2014 16:00:00 12.3 C 5.65 g/m*3 12.3 C 20.9 km/h
1706 08-04-2014 16:05:00 12.7 C 5.79 g/m*3 12.7 C 17.7 km/h
1707 08-04-2014 16:10:00 13.1 C 5.71 g/m*3 13.1 C 19.3 km/h
1708 08-04-2014 16:15:00 12.9 C 5.64 g/m*3 12.9 C 17.7 km/h
1709 08-04-2014 16:20:00 12.7 C 5.45 g/m*3 12.7 C 14.5 km/h
1710 08-04-2014 16:25:00 12.6 C 5.42 g/m*3 12.6 C 20.9 km/h
1711 08-04-2014 16:30:00 12.6 C 5.53 g/m*3 12.6 C 16.1 km/h
1712 08-04-2014 16:35:00 12.5 C 5.17 g/m*3 12.5 C 20.9 km/h
1713 08-04-2014 16:40:00 12.4 C 5.24 g/m*3 12.4 C 17.7 km/h
1714 08-04-2014 16:45:00 12.4 C 5.14 g/m*3 12.4 C 30.6 km/h
1715 08-04-2014 16:50:00 12.4 C 5.24 g/m*3 12.4 C 20.9 km/h
1716 08-04-2014 16:55:00 12.6 C 5.2 g/m*3 12.6 C 20.9 km/h
1717 08-04-2014 17:00:00 12.6 C 5.42 g/m*3 12.6 C 19.3 km/h
1718 08-04-2014 17:05:00 12.4 C 5.35 g/m*3 12.4 C 16.1 km/h
1719 08-04-2014 17:10:00 12.2 C 5.29 g/m*3 12.2 C 24.1 km/h
1720 08-04-2014 17:15:00 11.7 C 5.86 g/m*3 11.7 C 22.5 km/h
1721 08-04-2014 17:20:00 10.8 C 5.93 g/m*3 7.92 C 25.7 km/h
1722 08-04-2014 17:25:00 10.1 C 6.15 g/m*3 7.28 C 22.5 km/h
1723 08-04-2014 17:30:00 9.7 C 6.27 g/m*3 7.23 C 17.7 km/h
1724 08-04-2014 17:35:00 9.5 C 6.28 g/m*3 8.09 C 9.7 km/h
1725 08-04-2014 17:40:00 9.5 C 6.55 g/m*3 7.82 C 11.3 km/h
Sensor: Nr:Datum:Temp:Abs-Feuchte:Windchill:Wind:
Aussen-T/F 1726 08-04-2014 17:45:00 9.8 C 6.49 g/m*3 8.18 C 11.3 km/h
1727 08-04-2014 17:50:00 9.8 C 6.49 g/m*3 8.75 C 8.1 km/h
1728 08-04-2014 17:55:00 10.1 C 6.43 g/m*3 8.31 C 12.9 km/h
1729 08-04-2014 18:00:00 10.1 C 6.43 g/m*3 8.54 C 11.3 km/h
1730 08-04-2014 18:05:00 10.3 C 6.61 g/m*3 8.78 C 11.3 km/h
1731 08-04-2014 18:10:00 10.3 C 6.61 g/m*3 8.55 C 12.9 km/h
1732 08-04-2014 18:15:00 10.4 C 6.26 g/m*3 9.16 C 9.7 km/h
1733 08-04-2014 18:20:00 10.5 C 6.11 g/m*3 8.59 C 14.5 km/h
1734 08-04-2014 18:25:00 10.8 C 6.13 g/m*3 9.93 C 8.1 km/h
1735 08-04-2014 18:30:00 11 C 6.21 g/m*3 9.88 C 9.7 km/h
1736 08-04-2014 18:35:00 11 C 6.11 g/m*3 9.4 C 12.9 km/h
1737 08-04-2014 18:40:00 10.9 C 5.97 g/m*3 9.51 C 11.3 km/h
1738 08-04-2014 18:45:00 10.9 C 5.97 g/m*3 9.51 C 11.3 km/h
1739 08-04-2014 18:50:00 10.8 C 6.03 g/m*3 9.16 C 12.9 km/h
1740 08-04-2014 18:55:00 10.9 C 5.97 g/m*3 9.76 C 9.7 km/h
1741 08-04-2014 19:00:00 10.8 C 6.03 g/m*3 9.38 C 11.3 km/h
1742 08-04-2014 19:05:00 10.8 C 6.03 g/m*3 8.96 C 14.5 km/h
1743 08-04-2014 19:10:00 10.7 C 5.99 g/m*3 8.84 C 14.5 km/h
1744 08-04-2014 19:15:00 10.7 C 5.99 g/m*3 8.48 C 17.7 km/h
1745 08-04-2014 19:20:00 10.7 C 6.09 g/m*3 8.84 C 14.5 km/h
1746 08-04-2014 19:25:00 10.4 C 6.17 g/m*3 7.16 C 29 km/h
1747 08-04-2014 19:30:00 10.1 C 6.24 g/m*3 8.31 C 12.9 km/h
1748 08-04-2014 19:35:00 9.9 C 6.26 g/m*3 8.06 C 12.9 km/h
1749 08-04-2014 19:40:00 9.8 C 6.31 g/m*3 7.36 C 17.7 km/h
1750 08-04-2014 19:45:00 9.8 C 6.22 g/m*3 7.19 C 19.3 km/h
Sensor: Nr:Datum:Temp:Abs-Feuchte:Windchill:Wind:
Aussen-T/F 1751 08-04-2014 19:50:00 9.8 C 6.22 g/m*3 7.73 C 14.5 km/h
1752 08-04-2014 19:55:00 9.7 C 6.27 g/m*3 7.41 C 16.1 km/h
1753 08-04-2014 20:00:00 9.5 C 6.28 g/m*3 7.36 C 14.5 km/h
1754 08-04-2014 20:05:00 9.4 C 6.24 g/m*3 7.04 C 16.1 km/h
1755 08-04-2014 20:10:00 9.3 C 6.29 g/m*3 7.85 C 9.7 km/h
1756 08-04-2014 20:15:00 9.2 C 6.25 g/m*3 7.46 C 11.3 km/h
1757 08-04-2014 20:20:00 9.2 C 6.25 g/m*3 7.73 C 9.7 km/h
1758 08-04-2014 20:25:00 9.2 C 6.25 g/m*3 8.05 C 8.1 km/h
1759 08-04-2014 20:30:00 9.2 C 6.25 g/m*3 9.2 C 4.8 km/h
1760 08-04-2014 20:35:00 9.2 C 6.34 g/m*3 7.46 C 11.3 km/h
1761 08-04-2014 20:40:00 9.2 C 6.34 g/m*3 8.05 C 8.1 km/h
1762 08-04-2014 21:00:00 8.9 C 6.39 g/m*3 7.37 C 9.7 km/h
1763 08-04-2014 21:05:00 8.9 C 6.39 g/m*3 8.9 C 4.8 km/h
1764 08-04-2014 21:10:00 8.8 C 6.44 g/m*3 8.8 C 3.2 km/h
1765 08-04-2014 21:15:00 8.8 C 6.53 g/m*3 8.8 C 3.2 km/h
1766 08-04-2014 21:20:00 8.7 C 6.49 g/m*3 8.7 C 3.2 km/h
1767 08-04-2014 21:25:00 8.7 C 6.4 g/m*3 7.46 C 8.1 km/h
1768 08-04-2014 21:30:00 8.8 C 6.44 g/m*3 7.98 C 6.4 km/h
1769 08-04-2014 21:35:00 8.8 C 6.61 g/m*3 8.8 C 3.2 km/h
1770 08-04-2014 21:40:00 8.7 C 6.4 g/m*3 8.7 C 4.8 km/h
1771 08-04-2014 21:45:00 8.7 C 6.49 g/m*3 7.46 C 8.1 km/h
1772 08-04-2014 21:50:00 8.7 C 6.49 g/m*3 8.7 C 3.2 km/h
1773 08-04-2014 21:55:00 8.5 C 6.4 g/m*3 8.5 C 4.8 km/h
1774 08-04-2014 22:00:00 8.4 C 6.36 g/m*3 8.4 C 3.2 km/h
1775 08-04-2014 22:05:00 8.4 C 6.45 g/m*3 8.4 C 3.2 km/h
Sensor: Nr:Datum:Temp:Abs-Feuchte:Windchill:Wind:
Aussen-T/F 1776 08-04-2014 22:10:00 8.3 C 6.41 g/m*3 8.3 C 3.2 km/h
1777 08-04-2014 22:15:00 8.2 C 6.45 g/m*3 8.2 C 3.2 km/h
1778 08-04-2014 22:20:00 8.2 C 6.45 g/m*3 8.2 C 3.2 km/h
1779 08-04-2014 22:25:00 8.1 C 6.41 g/m*3 8.1 C 1.6 km/h
1780 08-04-2014 22:30:00 8.1 C 6.41 g/m*3 8.1 C 3.2 km/h
1781 08-04-2014 22:35:00 7.8 C 6.28 g/m*3 7.8 C 3.2 km/h
1782 08-04-2014 22:40:00 7.8 C 6.45 g/m*3 7.8 C 3.2 km/h
1783 08-04-2014 22:45:00 7.6 C 6.36 g/m*3 7.6 C 4.8 km/h
1784 08-04-2014 22:50:00 7.6 C 6.36 g/m*3 7.6 C 4.8 km/h
1785 08-04-2014 22:55:00 7.6 C 6.36 g/m*3 7.6 C 4.8 km/h
1786 08-04-2014 23:00:00 7.7 C 6.41 g/m*3 7.7 C 4.8 km/h
1787 08-04-2014 23:05:00 7.7 C 6.41 g/m*3 6.71 C 6.4 km/h
1788 08-04-2014 23:10:00 7.7 C 6.41 g/m*3 7.7 C 4.8 km/h
1789 08-04-2014 23:15:00 7.9 C 6.24 g/m*3 7.9 C 3.2 km/h
1790 08-04-2014 23:20:00 7.9 C 6.24 g/m*3 7.9 C 4.8 km/h
1791 08-04-2014 23:25:00 7.8 C 6.2 g/m*3 6.83 C 6.4 km/h
1792 08-04-2014 23:30:00 7.8 C 6.2 g/m*3 7.8 C 4.8 km/h
1793 08-04-2014 23:35:00 7.8 C 6.2 g/m*3 7.8 C 3.2 km/h
1794 08-04-2014 23:40:00 7.8 C 6.2 g/m*3 6.83 C 6.4 km/h
1795 08-04-2014 23:45:00 7.8 C 6.2 g/m*3 6.4 C 8.1 km/h
1796 08-04-2014 23:50:00 7.8 C 6.2 g/m*3 6.83 C 6.4 km/h
1797 09-04-2014 00:45:00 6.1 C 6.58 g/m*3 6.1 C 3.2 km/h
1798 09-04-2014 00:50:00 6.1 C 6.65 g/m*3 6.1 C 4.8 km/h
1799 09-04-2014 00:55:00 6 C 6.68 g/m*3 6 C 0 km/h
1800 09-04-2014 01:00:00 6 C 6.68 g/m*3 6 C 3.2 km/h
Sensor: Nr:Datum:Temp:Abs-Feuchte:Windchill:Wind:
Aussen-T/F 1801 09-04-2014 01:05:00 6 C 6.68 g/m*3 3.06 C 14.5 km/h
1802 09-04-2014 01:10:00 6 C 6.68 g/m*3 4.28 C 8.1 km/h
1803 09-04-2014 01:15:00 6.1 C 6.72 g/m*3 6.1 C 1.6 km/h
1804 09-04-2014 01:20:00 6 C 6.68 g/m*3 6 C 4.8 km/h
1805 09-04-2014 01:25:00 5.8 C 6.59 g/m*3 5.8 C 4.8 km/h
1806 09-04-2014 01:30:00 5.6 C 6.5 g/m*3 5.6 C 4.8 km/h
1807 09-04-2014 01:35:00 5.4 C 6.49 g/m*3 5.4 C 4.8 km/h
1808 09-04-2014 01:40:00 5.3 C 6.45 g/m*3 5.3 C 4.8 km/h
1809 09-04-2014 01:45:00 5.2 C 6.4 g/m*3 5.2 C 4.8 km/h
1810 09-04-2014 01:50:00 5.2 C 6.47 g/m*3 5.2 C 4.8 km/h
1811 09-04-2014 01:55:00 5.3 C 6.52 g/m*3 5.3 C 1.6 km/h
1812 09-04-2014 02:00:00 5.4 C 6.56 g/m*3 5.4 C 1.6 km/h
1813 09-04-2014 02:05:00 5.5 C 6.67 g/m*3 4.17 C 6.4 km/h
1814 09-04-2014 02:10:00 5.6 C 6.72 g/m*3 5.6 C 1.6 km/h
1815 09-04-2014 02:15:00 5.6 C 6.72 g/m*3 4.29 C 6.4 km/h
1816 09-04-2014 02:20:00 5.6 C 6.65 g/m*3 5.6 C 3.2 km/h
1817 09-04-2014 02:25:00 5.6 C 6.65 g/m*3 5.6 C 3.2 km/h
1818 09-04-2014 02:30:00 5.5 C 6.53 g/m*3 5.5 C 4.8 km/h
1819 09-04-2014 02:35:00 5.4 C 6.49 g/m*3 5.4 C 3.2 km/h
1820 09-04-2014 02:40:00 5.3 C 6.45 g/m*3 5.3 C 3.2 km/h
1821 09-04-2014 02:45:00 5.3 C 6.45 g/m*3 5.3 C 4.8 km/h
1822 09-04-2014 02:50:00 5.2 C 6.4 g/m*3 5.2 C 3.2 km/h
1823 09-04-2014 02:55:00 5.1 C 6.36 g/m*3 5.1 C 1.6 km/h
1824 09-04-2014 03:00:00 4.9 C 6.35 g/m*3 4.9 C 1.6 km/h
1825 09-04-2014 03:05:00 4.9 C 6.35 g/m*3 4.9 C 3.2 km/h
Sensor: Nr:Datum:Temp:Abs-Feuchte:Windchill:Wind:
Aussen-T/F 1826 09-04-2014 03:10:00 4.9 C 6.35 g/m*3 4.9 C 1.6 km/h
1827 09-04-2014 03:15:00 5 C 6.39 g/m*3 5 C 3.2 km/h
1828 09-04-2014 03:20:00 5 C 6.39 g/m*3 5 C 3.2 km/h
1829 09-04-2014 03:25:00 5 C 6.32 g/m*3 5 C 0 km/h
1830 09-04-2014 03:30:00 4.9 C 6.28 g/m*3 4.9 C 1.6 km/h
1831 09-04-2014 03:35:00 4.8 C 6.3 g/m*3 4.8 C 1.6 km/h
1832 09-04-2014 03:40:00 4.8 C 6.3 g/m*3 4.8 C 4.8 km/h
1833 09-04-2014 03:45:00 4.9 C 6.35 g/m*3 4.9 C 1.6 km/h
1834 09-04-2014 03:50:00 4.9 C 6.35 g/m*3 4.9 C 0 km/h
1835 09-04-2014 03:55:00 4.8 C 6.3 g/m*3 4.8 C 1.6 km/h
1836 09-04-2014 04:00:00 4.8 C 6.3 g/m*3 4.8 C 3.2 km/h
1837 09-04-2014 04:05:00 4.8 C 6.3 g/m*3 4.8 C 3.2 km/h
1838 09-04-2014 04:10:00 4.8 C 6.3 g/m*3 4.8 C 1.6 km/h
1839 09-04-2014 04:15:00 4.8 C 6.3 g/m*3 4.8 C 1.6 km/h
1840 09-04-2014 04:20:00 4.7 C 6.26 g/m*3 4.7 C 0 km/h
1841 09-04-2014 04:25:00 4.7 C 6.26 g/m*3 4.7 C 1.6 km/h
1842 09-04-2014 04:30:00 4.7 C 6.26 g/m*3 4.7 C 1.6 km/h
1843 09-04-2014 04:35:00 4.8 C 6.3 g/m*3 4.8 C 3.2 km/h
1844 09-04-2014 04:40:00 4.9 C 6.35 g/m*3 4.9 C 4.8 km/h
1845 09-04-2014 04:45:00 5.1 C 6.43 g/m*3 3.71 C 6.4 km/h
1846 09-04-2014 04:50:00 5.2 C 6.4 g/m*3 5.2 C 4.8 km/h
1847 09-04-2014 04:55:00 5.3 C 6.38 g/m*3 5.3 C 3.2 km/h
1848 09-04-2014 05:00:00 5.3 C 6.38 g/m*3 5.3 C 3.2 km/h
1849 09-04-2014 05:05:00 5.3 C 6.31 g/m*3 5.3 C 1.6 km/h
1850 09-04-2014 05:10:00 5.3 C 6.31 g/m*3 5.3 C 4.8 km/h
Sensor: Nr:Datum:Temp:Abs-Feuchte:Windchill:Wind:
Aussen-T/F 1851 09-04-2014 05:15:00 5.2 C 6.33 g/m*3 5.2 C 0 km/h
1852 09-04-2014 05:20:00 5.2 C 6.33 g/m*3 5.2 C 1.6 km/h
1853 09-04-2014 05:25:00 5.2 C 6.33 g/m*3 5.2 C 1.6 km/h
1854 09-04-2014 05:30:00 5.1 C 6.29 g/m*3 5.1 C 1.6 km/h
1855 09-04-2014 05:35:00 4.9 C 6.21 g/m*3 4.9 C 1.6 km/h
1856 09-04-2014 05:40:00 4.9 C 6.28 g/m*3 4.9 C 0 km/h
1857 09-04-2014 05:45:00 4.8 C 6.24 g/m*3 4.8 C 1.6 km/h
1858 09-04-2014 05:50:00 4.8 C 6.24 g/m*3 4.8 C 1.6 km/h
1859 09-04-2014 05:55:00 4.7 C 6.19 g/m*3 4.7 C 1.6 km/h
1860 09-04-2014 06:00:00 4.6 C 6.15 g/m*3 4.6 C 0 km/h
1861 09-04-2014 06:05:00 4.6 C 6.15 g/m*3 4.6 C 0 km/h
1862 09-04-2014 06:10:00 4.5 C 6.18 g/m*3 4.5 C 0 km/h
1863 09-04-2014 06:15:00 4.4 C 6.14 g/m*3 4.4 C 1.6 km/h
1864 09-04-2014 06:20:00 4.3 C 6.1 g/m*3 4.3 C 1.6 km/h
1865 09-04-2014 06:25:00 4.3 C 6.1 g/m*3 4.3 C 0 km/h
1866 09-04-2014 06:30:00 4.3 C 6.1 g/m*3 4.3 C 0 km/h
1867 09-04-2014 06:35:00 4.3 C 6.1 g/m*3 4.3 C 3.2 km/h
1868 09-04-2014 06:40:00 4.3 C 6.1 g/m*3 4.3 C 3.2 km/h
1869 09-04-2014 06:45:00 4.3 C 6.1 g/m*3 4.3 C 1.6 km/h
1870 09-04-2014 06:50:00 4.3 C 6.1 g/m*3 4.3 C 1.6 km/h
1871 09-04-2014 06:55:00 4.3 C 6.1 g/m*3 4.3 C 1.6 km/h
1872 09-04-2014 07:00:00 4.2 C 6.06 g/m*3 4.2 C 3.2 km/h
1873 09-04-2014 07:05:00 4.2 C 6.06 g/m*3 4.2 C 1.6 km/h
1874 09-04-2014 07:10:00 4.2 C 6.06 g/m*3 2.17 C 8.1 km/h
1875 09-04-2014 07:15:00 4.2 C 6.06 g/m*3 4.2 C 1.6 km/h
Sensor: Nr:Datum:Temp:Abs-Feuchte:Windchill:Wind:
Aussen-T/F 1876 09-04-2014 07:55:00 4.1 C 6.02 g/m*3 4.1 C 0 km/h
1877 09-04-2014 08:00:00 4.1 C 6.02 g/m*3 4.1 C 1.6 km/h
1878 09-04-2014 08:05:00 4.1 C 6.08 g/m*3 4.1 C 1.6 km/h
1879 09-04-2014 08:10:00 4.2 C 6.12 g/m*3 4.2 C 0 km/h
1880 09-04-2014 08:15:00 4.2 C 6.12 g/m*3 4.2 C 0 km/h
1881 09-04-2014 08:20:00 4.3 C 6.16 g/m*3 4.3 C 3.2 km/h
1882 09-04-2014 08:25:00 4.5 C 6.24 g/m*3 4.5 C 1.6 km/h
1883 09-04-2014 08:30:00 4.7 C 6.33 g/m*3 4.7 C 1.6 km/h
1884 09-04-2014 08:35:00 4.8 C 6.37 g/m*3 4.8 C 4.8 km/h
1885 09-04-2014 08:40:00 5 C 6.46 g/m*3 5 C 0 km/h
1886 09-04-2014 08:45:00 5.1 C 6.5 g/m*3 5.1 C 1.6 km/h
1887 09-04-2014 08:50:00 5.3 C 6.58 g/m*3 5.3 C 3.2 km/h
1888 09-04-2014 08:55:00 5.4 C 6.63 g/m*3 4.06 C 6.4 km/h
1889 09-04-2014 09:00:00 5.7 C 6.69 g/m*3 5.7 C 3.2 km/h
1890 09-04-2014 09:05:00 5.9 C 6.71 g/m*3 4.63 C 6.4 km/h
1891 09-04-2014 09:10:00 6.1 C 6.79 g/m*3 4.4 C 8.1 km/h
1892 09-04-2014 09:15:00 6.4 C 6.78 g/m*3 4.08 C 11.3 km/h
1893 09-04-2014 09:20:00 6.6 C 6.79 g/m*3 4.63 C 9.7 km/h
1894 09-04-2014 09:25:00 6.7 C 6.76 g/m*3 4.75 C 9.7 km/h
1895 09-04-2014 09:30:00 6.9 C 6.85 g/m*3 4.99 C 9.7 km/h
1896 09-04-2014 09:35:00 7.2 C 6.91 g/m*3 5.04 C 11.3 km/h
1897 09-04-2014 09:40:00 7.3 C 6.87 g/m*3 5.81 C 8.1 km/h
1898 09-04-2014 09:45:00 7.5 C 7.04 g/m*3 5.7 C 9.7 km/h
1899 09-04-2014 09:50:00 7.7 C 7.05 g/m*3 6.28 C 8.1 km/h
1900 09-04-2014 09:55:00 7.8 C 7.1 g/m*3 6.4 C 8.1 km/h
Sensor: Nr:Datum:Temp:Abs-Feuchte:Windchill:Wind:
Aussen-T/F 1901 09-04-2014 10:00:00 7.9 C 7.06 g/m*3 6.52 C 8.1 km/h
1902 09-04-2014 10:05:00 8.1 C 7.16 g/m*3 6.75 C 8.1 km/h
1903 09-04-2014 10:10:00 8.1 C 7.07 g/m*3 8.1 C 4.8 km/h
1904 09-04-2014 10:15:00 8.1 C 7.16 g/m*3 6.13 C 11.3 km/h
1905 09-04-2014 10:20:00 8.2 C 7.2 g/m*3 7.29 C 6.4 km/h
1906 09-04-2014 10:25:00 8.4 C 7.3 g/m*3 8.4 C 4.8 km/h
1907 09-04-2014 10:30:00 8.6 C 7.3 g/m*3 7.75 C 6.4 km/h
1908 09-04-2014 10:35:00 8.7 C 7.35 g/m*3 7.46 C 8.1 km/h
1909 09-04-2014 10:40:00 8.8 C 7.22 g/m*3 7.98 C 6.4 km/h
1910 09-04-2014 10:45:00 9.1 C 7.28 g/m*3 7.93 C 8.1 km/h
1911 09-04-2014 10:50:00 9.2 C 7.32 g/m*3 7.73 C 9.7 km/h
1912 09-04-2014 10:55:00 9.3 C 7.37 g/m*3 7.85 C 9.7 km/h
1913 09-04-2014 11:00:00 9.7 C 7.47 g/m*3 8.06 C 11.3 km/h
1914 09-04-2014 11:05:00 9.8 C 7.33 g/m*3 9.14 C 6.4 km/h
1915 09-04-2014 11:10:00 9.8 C 7.33 g/m*3 8.75 C 8.1 km/h
1916 09-04-2014 11:15:00 9.8 C 7.33 g/m*3 8.75 C 8.1 km/h
1917 09-04-2014 11:20:00 10 C 7.42 g/m*3 8.68 C 9.7 km/h
1918 09-04-2014 11:25:00 10.2 C 7.23 g/m*3 8.66 C 11.3 km/h
1919 09-04-2014 11:30:00 10.3 C 7.18 g/m*3 7.98 C 17.7 km/h
1920 09-04-2014 11:35:00 10.4 C 7.32 g/m*3 8.67 C 12.9 km/h
1921 09-04-2014 11:40:00 10.6 C 7.32 g/m*3 9.14 C 11.3 km/h
1922 09-04-2014 11:45:00 10.8 C 7.31 g/m*3 9.93 C 8.1 km/h
1923 09-04-2014 11:50:00 11 C 7.41 g/m*3 9.4 C 12.9 km/h
1924 09-04-2014 11:55:00 11.1 C 7.35 g/m*3 11.1 C 6.4 km/h
1925 09-04-2014 12:00:00 11 C 7.31 g/m*3 9.88 C 9.7 km/h
Sensor: Nr:Datum:Temp:Abs-Feuchte:Windchill:Wind:
Aussen-T/F 1926 09-04-2014 12:05:00 11.1 C 7.25 g/m*3 11.1 C 9.7 km/h
1927 09-04-2014 12:10:00 11.2 C 7.3 g/m*3 11.2 C 9.7 km/h
1928 09-04-2014 12:15:00 11.2 C 7.3 g/m*3 11.2 C 12.9 km/h
1929 09-04-2014 12:20:00 11.2 C 7.4 g/m*3 11.2 C 11.3 km/h
1930 09-04-2014 12:25:00 11.3 C 7.34 g/m*3 11.3 C 8.1 km/h
1931 09-04-2014 12:30:00 11.3 C 7.24 g/m*3 11.3 C 12.9 km/h
1932 09-04-2014 12:35:00 11.4 C 7.19 g/m*3 11.4 C 12.9 km/h
1933 09-04-2014 12:40:00 11.6 C 7.17 g/m*3 11.6 C 11.3 km/h
1934 09-04-2014 12:45:00 11.7 C 7.11 g/m*3 11.7 C 8.1 km/h
1935 09-04-2014 12:50:00 11.7 C 7.01 g/m*3 11.7 C 4.8 km/h
1936 09-04-2014 12:55:00 11.8 C 7.16 g/m*3 11.8 C 4.8 km/h
1937 09-04-2014 13:00:00 12 C 6.93 g/m*3 12 C 9.7 km/h
1938 09-04-2014 13:05:00 12 C 6.71 g/m*3 12 C 6.4 km/h
1939 09-04-2014 13:10:00 12 C 6.93 g/m*3 12 C 4.8 km/h
1940 09-04-2014 13:15:00 12.4 C 6.88 g/m*3 12.4 C 8.1 km/h
1941 09-04-2014 13:20:00 13 C 6.46 g/m*3 13 C 8.1 km/h
1942 09-04-2014 13:25:00 13.4 C 6.74 g/m*3 13.4 C 9.7 km/h
1943 09-04-2014 13:30:00 13.6 C 6.71 g/m*3 13.6 C 4.8 km/h
1944 09-04-2014 13:35:00 13.6 C 6.59 g/m*3 13.6 C 12.9 km/h
1945 09-04-2014 13:40:00 13.4 C 6.16 g/m*3 13.4 C 9.7 km/h
1946 09-04-2014 13:45:00 13.4 C 6.39 g/m*3 13.4 C 6.4 km/h
1947 09-04-2014 13:50:00 13.5 C 6.78 g/m*3 13.5 C 12.9 km/h
1948 09-04-2014 13:55:00 13.3 C 6.59 g/m*3 13.3 C 9.7 km/h
1949 09-04-2014 14:00:00 13.4 C 7.09 g/m*3 13.4 C 9.7 km/h
1950 09-04-2014 14:05:00 13.7 C 6.87 g/m*3 13.7 C 8.1 km/h
Sensor: Nr:Datum:Temp:Abs-Feuchte:Windchill:Wind:
Aussen-T/F 1951 09-04-2014 14:10:00 13.8 C 6.55 g/m*3 13.8 C 4.8 km/h
1952 09-04-2014 14:15:00 13.8 C 6.43 g/m*3 13.8 C 6.4 km/h
1953 09-04-2014 14:20:00 13.6 C 6.71 g/m*3 13.6 C 4.8 km/h
1954 09-04-2014 14:25:00 13.6 C 6.47 g/m*3 13.6 C 9.7 km/h
1955 09-04-2014 14:30:00 13.6 C 6.36 g/m*3 13.6 C 11.3 km/h
1956 09-04-2014 14:35:00 13.6 C 6.24 g/m*3 13.6 C 8.1 km/h
1957 09-04-2014 14:40:00 13.6 C 6.47 g/m*3 13.6 C 4.8 km/h
1958 09-04-2014 14:45:00 13.6 C 6.24 g/m*3 13.6 C 9.7 km/h
1959 09-04-2014 14:50:00 13.6 C 6.36 g/m*3 13.6 C 8.1 km/h
1960 09-04-2014 14:55:00 13.8 C 6.08 g/m*3 13.8 C 11.3 km/h
1961 09-04-2014 15:00:00 14.2 C 6.84 g/m*3 14.2 C 8.1 km/h
1962 09-04-2014 15:05:00 14.4 C 5.93 g/m*3 14.4 C 8.1 km/h
1963 09-04-2014 15:10:00 14.5 C 5.85 g/m*3 14.5 C 11.3 km/h
1964 09-04-2014 15:15:00 14.4 C 6.3 g/m*3 14.4 C 9.7 km/h
1965 09-04-2014 15:20:00 14.4 C 6.18 g/m*3 14.4 C 12.9 km/h
1966 09-04-2014 15:25:00 14.3 C 6.02 g/m*3 14.3 C 6.4 km/h
1967 09-04-2014 15:30:00 14.3 C 5.9 g/m*3 14.3 C 6.4 km/h
1968 09-04-2014 15:35:00 14.6 C 6.26 g/m*3 14.6 C 9.7 km/h
1969 09-04-2014 15:40:00 14.8 C 6.21 g/m*3 14.8 C 9.7 km/h
1970 09-04-2014 15:45:00 14.6 C 5.88 g/m*3 14.6 C 9.7 km/h
1971 09-04-2014 15:50:00 14.4 C 5.69 g/m*3 14.4 C 9.7 km/h
1972 09-04-2014 15:55:00 14.3 C 5.65 g/m*3 14.3 C 9.7 km/h
1973 09-04-2014 16:00:00 14.3 C 5.77 g/m*3 14.3 C 9.7 km/h
1974 09-04-2014 16:05:00 14.3 C 5.9 g/m*3 14.3 C 8.1 km/h
1975 09-04-2014 16:10:00 14.3 C 5.77 g/m*3 14.3 C 8.1 km/h
Sensor: Nr:Datum:Temp:Abs-Feuchte:Windchill:Wind:
Aussen-T/F 1976 09-04-2014 16:15:00 14.4 C 5.93 g/m*3 14.4 C 6.4 km/h
1977 09-04-2014 16:20:00 14.4 C 5.93 g/m*3 14.4 C 8.1 km/h
1978 09-04-2014 16:25:00 14.3 C 6.02 g/m*3 14.3 C 12.9 km/h
1979 09-04-2014 16:30:00 14.2 C 5.98 g/m*3 14.2 C 14.5 km/h
1980 09-04-2014 16:35:00 14.2 C 6.23 g/m*3 14.2 C 9.7 km/h
1981 09-04-2014 16:40:00 14.2 C 6.35 g/m*3 14.2 C 9.7 km/h
1982 09-04-2014 16:45:00 14.3 C 6.27 g/m*3 14.3 C 8.1 km/h
1983 09-04-2014 16:50:00 14.4 C 6.3 g/m*3 14.4 C 14.5 km/h
1984 09-04-2014 16:55:00 14.6 C 6.51 g/m*3 14.6 C 9.7 km/h
1985 09-04-2014 17:00:00 14.5 C 6.22 g/m*3 14.5 C 8.1 km/h
1986 09-04-2014 17:05:00 14.4 C 6.55 g/m*3 14.4 C 8.1 km/h
1987 09-04-2014 17:10:00 14.5 C 6.59 g/m*3 14.5 C 6.4 km/h
1988 09-04-2014 17:15:00 14.7 C 6.8 g/m*3 14.7 C 9.7 km/h
1989 09-04-2014 17:20:00 14.8 C 6.46 g/m*3 14.8 C 12.9 km/h
1990 09-04-2014 17:25:00 14.7 C 6.42 g/m*3 14.7 C 8.1 km/h
1991 09-04-2014 17:30:00 14.7 C 6.17 g/m*3 14.7 C 9.7 km/h
1992 09-04-2014 17:35:00 14.6 C 6.26 g/m*3 14.6 C 11.3 km/h
1993 09-04-2014 17:40:00 14.6 C 6.51 g/m*3 14.6 C 9.7 km/h
1994 09-04-2014 17:45:00 15.1 C 6.32 g/m*3 15.1 C 8.1 km/h
1995 09-04-2014 17:50:00 15.4 C 6.31 g/m*3 15.4 C 9.7 km/h
1996 09-04-2014 17:55:00 15.7 C 6.69 g/m*3 15.7 C 6.4 km/h
1997 09-04-2014 18:00:00 15.5 C 6.48 g/m*3 15.5 C 9.7 km/h
1998 09-04-2014 18:05:00 15.2 C 6.49 g/m*3 15.2 C 6.4 km/h
1999 09-04-2014 18:10:00 15.1 C 6.45 g/m*3 15.1 C 9.7 km/h
2000 09-04-2014 18:15:00 15 C 6.67 g/m*3 15 C 11.3 km/h
Sensor: Nr:Datum:Temp:Abs-Feuchte:Windchill:Wind:
Aussen-T/F 2001 09-04-2014 18:20:00 15 C 6.28 g/m*3 15 C 11.3 km/h
2002 09-04-2014 18:25:00 14.8 C 6.46 g/m*3 14.8 C 8.1 km/h
2003 09-04-2014 18:30:00 14.5 C 6.34 g/m*3 14.5 C 8.1 km/h
2004 09-04-2014 18:35:00 14.3 C 6.27 g/m*3 14.3 C 4.8 km/h
2005 09-04-2014 18:40:00 14.1 C 6.55 g/m*3 14.1 C 6.4 km/h
2006 09-04-2014 18:45:00 13.9 C 6.47 g/m*3 13.9 C 11.3 km/h
2007 09-04-2014 18:50:00 13.8 C 6.31 g/m*3 13.8 C 4.8 km/h
2008 09-04-2014 18:55:00 13.8 C 6.67 g/m*3 13.8 C 9.7 km/h
2009 09-04-2014 19:00:00 13.7 C 6.63 g/m*3 13.7 C 6.4 km/h
2010 09-04-2014 19:05:00 13.6 C 6.47 g/m*3 13.6 C 3.2 km/h
2011 09-04-2014 19:10:00 13.6 C 6.47 g/m*3 13.6 C 6.4 km/h
2012 09-04-2014 19:15:00 13.6 C 6.59 g/m*3 13.6 C 4.8 km/h
2013 09-04-2014 19:20:00 13.5 C 6.55 g/m*3 13.5 C 4.8 km/h
2014 09-04-2014 19:25:00 13.5 C 6.55 g/m*3 13.5 C 3.2 km/h
2015 09-04-2014 19:30:00 13.5 C 6.55 g/m*3 13.5 C 1.6 km/h
2016 09-04-2014 19:35:00 13.2 C 7.12 g/m*3 13.2 C 0 km/h
2017 09-04-2014 19:40:00 12.8 C 7.17 g/m*3 12.8 C 3.2 km/h
2018 09-04-2014 19:45:00 12.6 C 6.97 g/m*3 12.6 C 3.2 km/h
2019 09-04-2014 19:50:00 12.3 C 7.17 g/m*3 12.3 C 0 km/h
2020 09-04-2014 19:55:00 12 C 7.14 g/m*3 12 C 1.6 km/h
2021 09-04-2014 20:00:00 11.6 C 7.17 g/m*3 11.6 C 3.2 km/h
2022 09-04-2014 20:05:00 11.2 C 7.2 g/m*3 11.2 C 3.2 km/h
2023 09-04-2014 20:10:00 10.9 C 7.26 g/m*3 10.9 C 3.2 km/h
2024 09-04-2014 20:15:00 10.6 C 6.83 g/m*3 10.6 C 3.2 km/h
2025 09-04-2014 20:20:00 10.5 C 7.08 g/m*3 10.5 C 3.2 km/h
Sensor: Nr:Datum:Temp:Abs-Feuchte:Windchill:Wind:
Aussen-T/F 2026 09-04-2014 20:25:00 10.3 C 6.99 g/m*3 10.3 C 3.2 km/h
2027 09-04-2014 20:30:00 10.2 C 7.04 g/m*3 10.2 C 3.2 km/h
2028 09-04-2014 20:35:00 10 C 6.95 g/m*3 10 C 4.8 km/h
2029 09-04-2014 20:40:00 9.9 C 6.91 g/m*3 9.9 C 4.8 km/h
2030 09-04-2014 20:45:00 9.8 C 6.96 g/m*3 9.8 C 4.8 km/h
2031 09-04-2014 20:50:00 9.7 C 6.91 g/m*3 9.7 C 4.8 km/h
2032 09-04-2014 20:55:00 9.6 C 6.87 g/m*3 9.6 C 4.8 km/h
2033 09-04-2014 21:00:00 9.5 C 7.1 g/m*3 9.5 C 4.8 km/h
2034 09-04-2014 21:05:00 9.4 C 6.87 g/m*3 9.4 C 4.8 km/h
2035 09-04-2014 21:10:00 9.4 C 6.96 g/m*3 9.4 C 3.2 km/h
2036 09-04-2014 21:15:00 9.3 C 7.01 g/m*3 9.3 C 4.8 km/h
2037 09-04-2014 21:20:00 9.2 C 6.97 g/m*3 9.2 C 3.2 km/h
2038 09-04-2014 21:25:00 9 C 6.96 g/m*3 9 C 4.8 km/h
2039 09-04-2014 21:30:00 9 C 6.79 g/m*3 9 C 1.6 km/h
2040 09-04-2014 21:35:00 9.1 C 7.01 g/m*3 9.1 C 3.2 km/h
2041 09-04-2014 21:40:00 9.1 C 7.01 g/m*3 9.1 C 0 km/h
2042 09-04-2014 21:45:00 9 C 6.96 g/m*3 9 C 0 km/h
2043 09-04-2014 21:50:00 8.9 C 6.92 g/m*3 8.9 C 3.2 km/h
2044 09-04-2014 21:55:00 8.9 C 6.83 g/m*3 8.9 C 3.2 km/h
2045 09-04-2014 22:00:00 9 C 6.96 g/m*3 9 C 1.6 km/h
2046 09-04-2014 22:05:00 9 C 6.96 g/m*3 9 C 0 km/h
2047 09-04-2014 22:10:00 9 C 6.96 g/m*3 9 C 1.6 km/h
2048 09-04-2014 22:15:00 9 C 6.96 g/m*3 9 C 1.6 km/h
2049 09-04-2014 22:20:00 9 C 6.88 g/m*3 9 C 3.2 km/h
2050 09-04-2014 22:25:00 9 C 6.96 g/m*3 9 C 3.2 km/h
Sensor: Nr:Datum:Temp:Abs-Feuchte:Windchill:Wind:
Aussen-T/F 2051 09-04-2014 22:30:00 9.1 C 7.01 g/m*3 9.1 C 3.2 km/h
2052 09-04-2014 22:35:00 9.1 C 6.83 g/m*3 9.1 C 1.6 km/h
2053 09-04-2014 22:40:00 9.1 C 6.92 g/m*3 9.1 C 0 km/h
2054 09-04-2014 22:45:00 9 C 6.96 g/m*3 9 C 3.2 km/h
2055 09-04-2014 22:50:00 8.9 C 6.83 g/m*3 8.9 C 4.8 km/h
2056 09-04-2014 22:55:00 8.8 C 6.79 g/m*3 8.8 C 3.2 km/h
2057 09-04-2014 23:00:00 8.7 C 6.75 g/m*3 8.7 C 1.6 km/h
2058 09-04-2014 23:05:00 8.6 C 6.79 g/m*3 8.6 C 1.6 km/h
2059 09-04-2014 23:10:00 8.5 C 6.74 g/m*3 8.5 C 0 km/h
2060 09-04-2014 23:15:00 8.4 C 6.7 g/m*3 8.4 C 3.2 km/h
2061 09-04-2014 23:20:00 8.4 C 6.7 g/m*3 8.4 C 3.2 km/h
2062 09-04-2014 23:25:00 8.4 C 6.7 g/m*3 8.4 C 4.8 km/h
2063 09-04-2014 23:30:00 8.5 C 6.83 g/m*3 8.5 C 0 km/h
2064 09-04-2014 23:35:00 8.6 C 6.79 g/m*3 8.6 C 1.6 km/h
2065 09-04-2014 23:40:00 8.6 C 6.79 g/m*3 8.6 C 1.6 km/h
2066 09-04-2014 23:45:00 8.7 C 6.83 g/m*3 8.7 C 0 km/h
2067 09-04-2014 23:50:00 8.7 C 6.83 g/m*3 8.7 C 1.6 km/h
2068 09-04-2014 23:55:00 8.7 C 6.75 g/m*3 8.7 C 4.8 km/h
2069 10-04-2014 00:00:00 8.8 C 6.79 g/m*3 8.8 C 0 km/h
2070 10-04-2014 00:05:00 8.8 C 6.79 g/m*3 8.8 C 4.8 km/h
2071 10-04-2014 00:10:00 8.9 C 6.75 g/m*3 7.69 C 8.1 km/h
2072 10-04-2014 00:15:00 9 C 6.79 g/m*3 9 C 4.8 km/h
2073 10-04-2014 00:20:00 9.1 C 6.74 g/m*3 9.1 C 4.8 km/h
2074 10-04-2014 00:25:00 9.1 C 6.74 g/m*3 8.33 C 6.4 km/h
2075 10-04-2014 00:30:00 9.2 C 6.7 g/m*3 9.2 C 4.8 km/h
Sensor: Nr:Datum:Temp:Abs-Feuchte:Windchill:Wind:
Aussen-T/F 2076 10-04-2014 00:35:00 9.2 C 6.79 g/m*3 9.2 C 4.8 km/h
2077 10-04-2014 00:40:00 9.2 C 6.7 g/m*3 8.45 C 6.4 km/h
2078 10-04-2014 00:45:00 9.2 C 6.7 g/m*3 9.2 C 4.8 km/h
2079 10-04-2014 00:50:00 9.2 C 6.7 g/m*3 8.45 C 6.4 km/h
2080 10-04-2014 00:55:00 9 C 6.7 g/m*3 7.49 C 9.7 km/h
2081 10-04-2014 01:00:00 8.8 C 6.61 g/m*3 8.8 C 3.2 km/h
2082 10-04-2014 01:05:00 8.7 C 6.66 g/m*3 8.7 C 3.2 km/h
2083 10-04-2014 01:10:00 8.6 C 6.7 g/m*3 7.01 C 9.7 km/h
2084 10-04-2014 01:15:00 8.4 C 6.62 g/m*3 7.11 C 8.1 km/h
2085 10-04-2014 01:20:00 8.3 C 6.66 g/m*3 8.3 C 3.2 km/h
2086 10-04-2014 01:25:00 8.2 C 6.62 g/m*3 6.87 C 8.1 km/h
2087 10-04-2014 01:30:00 8.2 C 6.7 g/m*3 8.2 C 4.8 km/h
2088 10-04-2014 01:35:00 8.1 C 6.66 g/m*3 7.17 C 6.4 km/h
2089 10-04-2014 01:40:00 8.1 C 6.74 g/m*3 8.1 C 1.6 km/h
2090 10-04-2014 01:45:00 7.9 C 6.74 g/m*3 7.9 C 0 km/h
2091 10-04-2014 01:50:00 7.8 C 6.69 g/m*3 7.8 C 4.8 km/h
2092 10-04-2014 01:55:00 7.7 C 6.73 g/m*3 7.7 C 1.6 km/h
2093 10-04-2014 02:00:00 7.6 C 6.69 g/m*3 7.6 C 3.2 km/h
2094 10-04-2014 02:05:00 7.6 C 6.77 g/m*3 7.6 C 0 km/h
2095 10-04-2014 02:10:00 7.6 C 6.77 g/m*3 7.6 C 1.6 km/h
2096 10-04-2014 02:15:00 7.6 C 6.77 g/m*3 7.6 C 1.6 km/h
2097 10-04-2014 02:20:00 7.7 C 6.73 g/m*3 7.7 C 3.2 km/h
2098 10-04-2014 02:25:00 7.9 C 6.74 g/m*3 7.9 C 1.6 km/h
2099 10-04-2014 02:30:00 8 C 6.7 g/m*3 6.64 C 8.1 km/h
2100 10-04-2014 02:35:00 8.2 C 6.78 g/m*3 8.2 C 1.6 km/h
Sensor: Nr:Datum:Temp:Abs-Feuchte:Windchill:Wind:
Aussen-T/F 2101 10-04-2014 02:40:00 8.2 C 6.78 g/m*3 8.2 C 1.6 km/h
2102 10-04-2014 02:45:00 8.2 C 6.78 g/m*3 8.2 C 1.6 km/h
2103 10-04-2014 02:50:00 8.3 C 6.74 g/m*3 8.3 C 4.8 km/h
2104 10-04-2014 02:55:00 8.3 C 6.74 g/m*3 7.41 C 6.4 km/h
2105 10-04-2014 03:00:00 8.4 C 6.87 g/m*3 8.4 C 0 km/h
2106 10-04-2014 03:05:00 8.4 C 6.79 g/m*3 8.4 C 4.8 km/h
2107 10-04-2014 03:10:00 8.4 C 6.79 g/m*3 8.4 C 0 km/h
2108 10-04-2014 03:15:00 8.4 C 6.87 g/m*3 8.4 C 0 km/h
2109 10-04-2014 03:20:00 8.3 C 6.83 g/m*3 8.3 C 1.6 km/h
2110 10-04-2014 03:25:00 8.3 C 6.91 g/m*3 8.3 C 1.6 km/h
2111 10-04-2014 03:30:00 8.3 C 6.91 g/m*3 8.3 C 0 km/h
2112 10-04-2014 03:35:00 8.3 C 6.91 g/m*3 8.3 C 0 km/h
2113 10-04-2014 03:40:00 8.2 C 6.87 g/m*3 8.2 C 1.6 km/h
2114 10-04-2014 03:45:00 8.2 C 6.87 g/m*3 8.2 C 3.2 km/h
2115 10-04-2014 03:50:00 8.2 C 6.95 g/m*3 8.2 C 1.6 km/h
2116 10-04-2014 03:55:00 8.1 C 6.91 g/m*3 8.1 C 0 km/h
2117 10-04-2014 04:00:00 8.1 C 6.82 g/m*3 8.1 C 3.2 km/h
2118 10-04-2014 04:05:00 8.1 C 6.91 g/m*3 8.1 C 0 km/h
2119 10-04-2014 04:10:00 8 C 6.86 g/m*3 8 C 1.6 km/h
2120 10-04-2014 04:15:00 8 C 6.86 g/m*3 8 C 0 km/h
2121 10-04-2014 04:20:00 7.9 C 6.82 g/m*3 7.9 C 0 km/h
2122 10-04-2014 04:25:00 7.9 C 6.82 g/m*3 7.9 C 0 km/h
2123 10-04-2014 04:30:00 7.9 C 6.82 g/m*3 7.9 C 0 km/h
2124 10-04-2014 04:35:00 7.9 C 6.82 g/m*3 7.9 C 0 km/h
2125 10-04-2014 04:40:00 7.9 C 6.9 g/m*3 7.9 C 0 km/h
Sensor: Nr:Datum:Temp:Abs-Feuchte:Windchill:Wind:
Aussen-T/F 2126 10-04-2014 04:45:00 7.8 C 6.77 g/m*3 7.8 C 0 km/h
2127 10-04-2014 04:50:00 7.8 C 6.86 g/m*3 7.8 C 0 km/h
2128 10-04-2014 04:55:00 7.8 C 6.86 g/m*3 7.8 C 1.6 km/h
2129 10-04-2014 05:00:00 7.7 C 6.89 g/m*3 7.7 C 1.6 km/h
2130 10-04-2014 05:05:00 7.6 C 6.77 g/m*3 7.6 C 3.2 km/h
2131 10-04-2014 05:10:00 7.6 C 6.85 g/m*3 7.6 C 1.6 km/h
2132 10-04-2014 05:15:00 7.4 C 6.76 g/m*3 7.4 C 0 km/h
2133 10-04-2014 05:20:00 7.3 C 6.79 g/m*3 7.3 C 1.6 km/h
2134 10-04-2014 05:25:00 7.1 C 6.71 g/m*3 7.1 C 0 km/h
2135 10-04-2014 05:30:00 6.9 C 6.7 g/m*3 6.9 C 0 km/h
2136 10-04-2014 05:35:00 6.9 C 6.7 g/m*3 6.9 C 0 km/h
2137 10-04-2014 05:40:00 6.8 C 6.65 g/m*3 6.8 C 0 km/h
2138 10-04-2014 05:45:00 6.8 C 6.65 g/m*3 6.8 C 3.2 km/h
2139 10-04-2014 05:50:00 6.8 C 6.65 g/m*3 6.8 C 3.2 km/h
2140 10-04-2014 05:55:00 6.7 C 6.61 g/m*3 6.7 C 0 km/h
2141 10-04-2014 06:00:00 6.7 C 6.61 g/m*3 6.7 C 1.6 km/h
2142 10-04-2014 06:05:00 6.7 C 6.61 g/m*3 6.7 C 1.6 km/h
2143 10-04-2014 06:10:00 6.7 C 6.61 g/m*3 6.7 C 0 km/h
2144 10-04-2014 06:15:00 6.6 C 6.64 g/m*3 6.6 C 0 km/h
2145 10-04-2014 06:20:00 6.5 C 6.6 g/m*3 6.5 C 0 km/h
2146 10-04-2014 06:25:00 6.4 C 6.56 g/m*3 6.4 C 0 km/h
2147 10-04-2014 06:30:00 6.3 C 6.51 g/m*3 6.3 C 0 km/h
2148 10-04-2014 06:35:00 6.3 C 6.59 g/m*3 6.3 C 0 km/h
2149 10-04-2014 06:40:00 6.4 C 6.71 g/m*3 6.4 C 0 km/h
2150 10-04-2014 06:45:00 6.4 C 6.71 g/m*3 6.4 C 0 km/h
Sensor: Nr:Datum:Temp:Abs-Feuchte:Windchill:Wind:
Aussen-T/F 2151 10-04-2014 06:50:00 6.4 C 6.63 g/m*3 6.4 C 0 km/h
2152 10-04-2014 06:55:00 6.4 C 6.71 g/m*3 6.4 C 0 km/h
2153 10-04-2014 07:00:00 6.4 C 6.63 g/m*3 6.4 C 0 km/h
2154 10-04-2014 07:05:00 6.3 C 6.59 g/m*3 6.3 C 1.6 km/h
2155 10-04-2014 07:10:00 6.3 C 6.66 g/m*3 6.3 C 0 km/h
2156 10-04-2014 07:15:00 6.3 C 6.66 g/m*3 6.3 C 0 km/h
2157 10-04-2014 07:20:00 6.3 C 6.66 g/m*3 6.3 C 0 km/h
2158 10-04-2014 07:25:00 6.4 C 6.71 g/m*3 6.4 C 0 km/h
2159 10-04-2014 07:30:00 6.4 C 6.71 g/m*3 6.4 C 1.6 km/h
2160 10-04-2014 07:35:00 6.5 C 6.75 g/m*3 6.5 C 1.6 km/h
2161 10-04-2014 07:40:00 6.6 C 6.79 g/m*3 6.6 C 1.6 km/h
2162 10-04-2014 07:45:00 6.7 C 6.84 g/m*3 6.7 C 0 km/h
2163 10-04-2014 07:50:00 6.9 C 6.93 g/m*3 6.9 C 0 km/h
2164 10-04-2014 07:55:00 7 C 6.82 g/m*3 7 C 4.8 km/h
2165 10-04-2014 08:00:00 7.1 C 6.86 g/m*3 7.1 C 3.2 km/h
2166 10-04-2014 08:05:00 7.1 C 6.86 g/m*3 7.1 C 3.2 km/h
2167 10-04-2014 08:10:00 7.2 C 6.91 g/m*3 6.13 C 6.4 km/h
2168 10-04-2014 08:15:00 7.3 C 6.95 g/m*3 5.81 C 8.1 km/h
2169 10-04-2014 08:20:00 7.4 C 7 g/m*3 5.93 C 8.1 km/h
2170 10-04-2014 08:25:00 7.4 C 6.92 g/m*3 5.58 C 9.7 km/h
2171 10-04-2014 08:30:00 7.5 C 6.96 g/m*3 5.7 C 9.7 km/h
2172 10-04-2014 08:35:00 7.6 C 6.93 g/m*3 6.16 C 8.1 km/h
2173 10-04-2014 08:40:00 7.6 C 6.93 g/m*3 6.6 C 6.4 km/h
2174 10-04-2014 09:00:00 8.3 C 8.43 g/m*3 6.66 C 9.7 km/h
2175 10-04-2014 09:05:00 8.4 C 7.13 g/m*3 8.4 C 4.8 km/h
Sensor: Nr:Datum:Temp:Abs-Feuchte:Windchill:Wind:
Aussen-T/F 2176 10-04-2014 09:10:00 8.5 C 7.17 g/m*3 7.22 C 8.1 km/h
2177 10-04-2014 09:15:00 8.5 C 7.17 g/m*3 7.64 C 6.4 km/h
2178 10-04-2014 09:50:00 9 C 8.82 g/m*3 8.21 C 6.4 km/h
2179 10-04-2014 09:55:00 9.2 C 7.32 g/m*3 8.05 C 8.1 km/h
2180 10-04-2014 10:00:00 9.3 C 7.28 g/m*3 8.16 C 8.1 km/h
2181 10-04-2014 10:05:00 9.5 C 7.28 g/m*3 8.4 C 8.1 km/h
2182 10-04-2014 10:10:00 9.7 C 7.38 g/m*3 9.02 C 6.4 km/h
2183 10-04-2014 10:15:00 9.7 C 7.38 g/m*3 9.7 C 4.8 km/h
2184 10-04-2014 10:20:00 9.7 C 7.38 g/m*3 9.7 C 0 km/h
2185 10-04-2014 10:25:00 10 C 7.33 g/m*3 10 C 1.6 km/h
2186 10-04-2014 10:30:00 10.2 C 7.42 g/m*3 10.2 C 1.6 km/h
2187 10-04-2014 10:35:00 10.3 C 7.47 g/m*3 10.3 C 3.2 km/h
2188 10-04-2014 10:40:00 10.3 C 7.47 g/m*3 10.3 C 3.2 km/h
2189 10-04-2014 13:15:00 16.2 C 8.14 g/m*3 16.2 C 8.1 km/h
2190 10-04-2014 13:20:00 16.2 C 8.14 g/m*3 16.2 C 3.2 km/h
2191 10-04-2014 13:25:00 16.3 C 8.74 g/m*3 16.3 C 6.4 km/h
2192 10-04-2014 13:30:00 16.3 C 8.46 g/m*3 16.3 C 6.4 km/h
2193 10-04-2014 13:35:00 16.4 C 8.51 g/m*3 16.4 C 9.7 km/h
2194 10-04-2014 13:40:00 16.4 C 8.51 g/m*3 16.4 C 4.8 km/h
2195 10-04-2014 14:55:00 17.6 C 8.7 g/m*3 17.6 C 9.7 km/h
2196 10-04-2014 15:00:00 17.6 C 8.7 g/m*3 17.6 C 6.4 km/h
2197 10-04-2014 15:05:00 17.6 C 8.4 g/m*3 17.6 C 8.1 km/h
2198 10-04-2014 15:10:00 17.7 C 8.9 g/m*3 17.7 C 8.1 km/h
2199 10-04-2014 15:15:00 17.7 C 8.3 g/m*3 17.7 C 9.7 km/h
2200 10-04-2014 15:20:00 17.7 C 8.3 g/m*3 17.7 C 4.8 km/h
Sensor: Nr:Datum:Temp:Abs-Feuchte:Windchill:Wind:
Aussen-T/F 2201 10-04-2014 16:35:00 18.2 C 15.54 g/m*3 18.2 C 8.1 km/h
2202 10-04-2014 16:40:00 18.7 C 8.81 g/m*3 18.7 C 11.3 km/h
2203 10-04-2014 16:45:00 18.7 C 8.49 g/m*3 18.7 C 9.7 km/h
2204 10-04-2014 16:50:00 18.6 C 8.59 g/m*3 18.6 C 9.7 km/h
2205 10-04-2014 16:55:00 18.4 C 8.18 g/m*3 18.4 C 6.4 km/h
2206 10-04-2014 17:00:00 18.3 C 8.6 g/m*3 18.3 C 8.1 km/h
2207 10-04-2014 17:05:00 18.5 C 8.54 g/m*3 18.5 C 9.7 km/h
2208 10-04-2014 17:10:00 18.5 C 8.54 g/m*3 18.5 C 9.7 km/h
2209 10-04-2014 17:15:00 18.4 C 8.49 g/m*3 18.4 C 6.4 km/h
2210 10-04-2014 17:20:00 18.4 C 8.65 g/m*3 18.4 C 8.1 km/h
2211 10-04-2014 17:25:00 18 C 8.29 g/m*3 18 C 8.1 km/h
2212 10-04-2014 17:30:00 18 C 8.29 g/m*3 18 C 6.4 km/h
2213 10-04-2014 17:35:00 17.6 C 8.55 g/m*3 17.6 C 8.1 km/h
2214 10-04-2014 17:40:00 17.5 C 8.5 g/m*3 17.5 C 8.1 km/h
2215 10-04-2014 17:45:00 17.5 C 8.5 g/m*3 17.5 C 8.1 km/h
2216 10-04-2014 17:50:00 17.2 C 8.49 g/m*3 17.2 C 8.1 km/h
2217 10-04-2014 17:55:00 17.1 C 8.3 g/m*3 17.1 C 8.1 km/h
2218 10-04-2014 18:00:00 17.1 C 8.44 g/m*3 17.1 C 9.7 km/h
2219 10-04-2014 18:05:00 16.8 C 8.29 g/m*3 16.8 C 6.4 km/h
2220 10-04-2014 18:10:00 16.8 C 8.29 g/m*3 16.8 C 12.9 km/h
2221 10-04-2014 18:15:00 16.6 C 8.19 g/m*3 16.6 C 6.4 km/h
2222 10-04-2014 18:20:00 16.6 C 8.33 g/m*3 16.6 C 8.1 km/h
2223 10-04-2014 18:25:00 16.4 C 8.23 g/m*3 16.4 C 6.4 km/h
2224 10-04-2014 18:30:00 16.4 C 8.23 g/m*3 16.4 C 4.8 km/h
2225 10-04-2014 18:35:00 16.3 C 8.19 g/m*3 16.3 C 9.7 km/h
Sensor: Nr:Datum:Temp:Abs-Feuchte:Windchill:Wind:
Aussen-T/F 2226 10-04-2014 18:40:00 16.3 C 8.32 g/m*3 16.3 C 11.3 km/h
2227 10-04-2014 18:45:00 16.3 C 8.46 g/m*3 16.3 C 3.2 km/h
2228 10-04-2014 18:50:00 16.2 C 8.41 g/m*3 16.2 C 12.9 km/h
2229 10-04-2014 18:55:00 16.2 C 8.27 g/m*3 16.2 C 6.4 km/h
2230 10-04-2014 19:00:00 16.2 C 8.27 g/m*3 16.2 C 4.8 km/h
2231 11-04-2014 08:05:00 6.6 C 7.17 g/m*3 6.6 C 0 km/h
2232 11-04-2014 08:10:00 6.6 C 7.17 g/m*3 6.6 C 0 km/h
2233 11-04-2014 08:15:00 6.6 C 7.17 g/m*3 6.6 C 0 km/h
2234 11-04-2014 08:50:00 7.2 C 7.46 g/m*3 7.2 C 3.2 km/h
2235 11-04-2014 08:55:00 7.3 C 7.51 g/m*3 7.3 C 3.2 km/h
2236 11-04-2014 09:00:00 7.4 C 7.55 g/m*3 7.4 C 0 km/h
2237 11-04-2014 09:05:00 7.5 C 7.6 g/m*3 7.5 C 0 km/h
2238 11-04-2014 09:10:00 7.7 C 7.7 g/m*3 7.7 C 0 km/h
2239 11-04-2014 09:15:00 7.7 C 7.7 g/m*3 7.7 C 0 km/h
2240 11-04-2014 09:20:00 7.9 C 7.8 g/m*3 7.9 C 0 km/h
2241 11-04-2014 09:25:00 8.1 C 7.9 g/m*3 8.1 C 0 km/h
2242 11-04-2014 09:30:00 8.3 C 8.01 g/m*3 8.3 C 0 km/h
2243 11-04-2014 09:35:00 8.6 C 8.16 g/m*3 8.6 C 0 km/h
2244 11-04-2014 09:40:00 8.8 C 8.27 g/m*3 8.8 C 1.6 km/h
2245 11-04-2014 09:45:00 8.8 C 8.27 g/m*3 8.8 C 0 km/h
2246 11-04-2014 09:50:00 8.8 C 8.27 g/m*3 8.8 C 0 km/h
2247 11-04-2014 09:55:00 9.9 C 8.87 g/m*3 9.9 C 0 km/h
2248 11-04-2014 10:00:00 10 C 8.93 g/m*3 10 C 0 km/h
2249 11-04-2014 10:05:00 10.6 C 8.59 g/m*3 10.6 C 0 km/h
2250 11-04-2014 10:10:00 10.9 C 8.65 g/m*3 10.9 C 0 km/h
Sensor: Nr:Datum:Temp:Abs-Feuchte:Windchill:Wind:
Aussen-T/F 2251 11-04-2014 10:15:00 11.1 C 8.66 g/m*3 11.1 C 0 km/h
2252 11-04-2014 10:20:00 11.6 C 8.94 g/m*3 11.6 C 0 km/h
2253 11-04-2014 10:25:00 11.9 C 8.79 g/m*3 11.9 C 0 km/h
2254 11-04-2014 10:30:00 12.2 C 8.96 g/m*3 12.2 C 0 km/h
2255 11-04-2014 10:35:00 12.3 C 8.9 g/m*3 12.3 C 0 km/h
2256 11-04-2014 10:40:00 12.3 C 8.9 g/m*3 12.3 C 0 km/h
2257 11-04-2014 11:50:00 15.6 C 9.04 g/m*3 15.6 C 9.7 km/h
2258 11-04-2014 11:55:00 15.9 C 9.07 g/m*3 15.9 C 9.7 km/h
2259 11-04-2014 12:00:00 16.1 C 9.18 g/m*3 16.1 C 6.4 km/h
2260 11-04-2014 12:05:00 16.2 C 9.1 g/m*3 16.2 C 3.2 km/h
2261 11-04-2014 12:10:00 16.2 C 9.1 g/m*3 16.2 C 6.4 km/h
2262 11-04-2014 12:15:00 16.7 C 9.1 g/m*3 16.7 C 6.4 km/h
2263 11-04-2014 12:20:00 16.8 C 9.29 g/m*3 16.8 C 3.2 km/h
2264 11-04-2014 12:25:00 17 C 9.41 g/m*3 17 C 4.8 km/h
2265 11-04-2014 12:30:00 17.2 C 9.37 g/m*3 17.2 C 6.4 km/h
2266 11-04-2014 12:35:00 17.3 C 8.99 g/m*3 17.3 C 3.2 km/h
2267 11-04-2014 12:40:00 17.3 C 8.84 g/m*3 17.3 C 3.2 km/h
2268 11-04-2014 12:45:00 17.3 C 8.84 g/m*3 17.3 C 3.2 km/h
2269 11-04-2014 12:50:00 17.3 C 8.84 g/m*3 17.3 C 0 km/h
2270 11-04-2014 12:55:00 17.5 C 8.95 g/m*3 17.5 C 1.6 km/h
2271 11-04-2014 13:00:00 17.9 C 9.31 g/m*3 17.9 C 4.8 km/h
2272 11-04-2014 13:05:00 18.1 C 9.58 g/m*3 18.1 C 3.2 km/h
2273 11-04-2014 13:10:00 18.1 C 9.58 g/m*3 18.1 C 4.8 km/h
2274 11-04-2014 13:30:00 19.4 C 9.51 g/m*3 19.4 C 6.4 km/h
2275 11-04-2014 13:35:00 19.4 C 9.51 g/m*3 19.4 C 4.8 km/h
Sensor: Nr:Datum:Temp:Abs-Feuchte:Windchill:Wind:
Aussen-T/F 2276 11-04-2014 13:40:00 19.6 C 8.78 g/m*3 19.6 C 6.4 km/h
2277 11-04-2014 13:45:00 19.4 C 8.84 g/m*3 19.4 C 4.8 km/h
2278 11-04-2014 13:50:00 19.1 C 8.85 g/m*3 19.1 C 6.4 km/h
2279 11-04-2014 13:55:00 18.7 C 8.81 g/m*3 18.7 C 9.7 km/h
2280 11-04-2014 14:00:00 18.7 C 8.97 g/m*3 18.7 C 4.8 km/h
2281 11-04-2014 14:05:00 18.7 C 8.97 g/m*3 18.7 C 11.3 km/h
2282 11-04-2014 14:10:00 18.7 C 8.97 g/m*3 18.7 C 6.4 km/h
2283 11-04-2014 14:15:00 18.3 C 9.07 g/m*3 18.3 C 4.8 km/h
2284 11-04-2014 14:20:00 18.4 C 9.12 g/m*3 18.4 C 8.1 km/h
2285 11-04-2014 14:25:00 18.4 C 9.12 g/m*3 18.4 C 9.7 km/h
2286 11-04-2014 16:10:00 19.9 C 8.59 g/m*3 19.9 C 9.7 km/h
2287 11-04-2014 16:15:00 19.9 C 8.59 g/m*3 19.9 C 6.4 km/h
2288 11-04-2014 16:20:00 19.8 C 8.71 g/m*3 19.8 C 8.1 km/h
2289 11-04-2014 16:25:00 19.5 C 8.56 g/m*3 19.5 C 11.3 km/h
2290 11-04-2014 16:30:00 19.4 C 8.51 g/m*3 19.4 C 4.8 km/h
2291 11-04-2014 16:35:00 19.4 C 8.51 g/m*3 19.4 C 6.4 km/h
2292 11-04-2014 16:55:00 18.9 C 16.2 g/m*3 18.9 C 4.8 km/h
2293 11-04-2014 17:00:00 18.8 C 16.11 g/m*3 18.8 C 9.7 km/h
2294 11-04-2014 17:05:00 18.7 C 8.65 g/m*3 18.7 C 6.4 km/h
2295 11-04-2014 17:10:00 18.5 C 9.18 g/m*3 18.5 C 8.1 km/h
2296 11-04-2014 17:15:00 18.4 C 9.12 g/m*3 18.4 C 9.7 km/h
2297 11-04-2014 17:20:00 18.2 C 9.17 g/m*3 18.2 C 11.3 km/h
2298 11-04-2014 17:25:00 18.1 C 9.12 g/m*3 18.1 C 11.3 km/h
2299 11-04-2014 17:30:00 17.8 C 8.95 g/m*3 17.8 C 9.7 km/h
2300 11-04-2014 17:35:00 17.7 C 9.2 g/m*3 17.7 C 11.3 km/h
Sensor: Nr:Datum:Temp:Abs-Feuchte:Windchill:Wind:
Aussen-T/F 2301 11-04-2014 17:40:00 17.7 C 9.2 g/m*3 17.7 C 9.7 km/h
2302 11-04-2014 17:45:00 17.6 C 9.15 g/m*3 17.6 C 9.7 km/h
2303 11-04-2014 17:50:00 17.4 C 9.04 g/m*3 17.4 C 9.7 km/h
2304 11-04-2014 17:55:00 17.3 C 8.99 g/m*3 17.3 C 11.3 km/h
2305 11-04-2014 18:00:00 17.2 C 9.08 g/m*3 17.2 C 12.9 km/h
2306 11-04-2014 18:05:00 17.1 C 9.03 g/m*3 17.1 C 12.9 km/h
2307 11-04-2014 18:10:00 17.1 C 9.17 g/m*3 17.1 C 11.3 km/h
2308 11-04-2014 18:15:00 17.1 C 9.17 g/m*3 17.1 C 12.9 km/h
2309 11-04-2014 18:20:00 17.2 C 9.23 g/m*3 17.2 C 9.7 km/h
2310 11-04-2014 18:25:00 17.1 C 9.03 g/m*3 17.1 C 11.3 km/h
2311 11-04-2014 18:30:00 16.9 C 9.06 g/m*3 16.9 C 9.7 km/h
2312 11-04-2014 18:35:00 16.7 C 9.1 g/m*3 16.7 C 12.9 km/h
2313 11-04-2014 18:40:00 16.5 C 9.13 g/m*3 16.5 C 8.1 km/h
2314 11-04-2014 18:45:00 16.3 C 9.16 g/m*3 16.3 C 11.3 km/h
2315 11-04-2014 18:50:00 16.2 C 9.24 g/m*3 16.2 C 17.7 km/h
2316 11-04-2014 18:55:00 15.9 C 9.21 g/m*3 15.9 C 9.7 km/h
2317 11-04-2014 19:00:00 15.7 C 9.1 g/m*3 15.7 C 11.3 km/h
2318 11-04-2014 19:05:00 15.6 C 9.18 g/m*3 15.6 C 9.7 km/h
2319 11-04-2014 19:10:00 15.6 C 9.18 g/m*3 15.6 C 8.1 km/h
2320 11-04-2014 19:15:00 15.6 C 9.18 g/m*3 15.6 C 11.3 km/h
2321 11-04-2014 19:20:00 15.5 C 9.12 g/m*3 15.5 C 8.1 km/h
2322 11-04-2014 19:25:00 15.4 C 9.33 g/m*3 15.4 C 8.1 km/h
2323 11-04-2014 19:30:00 15.4 C 9.33 g/m*3 15.4 C 4.8 km/h
2324 11-04-2014 19:35:00 15.2 C 9.22 g/m*3 15.2 C 9.7 km/h
2325 11-04-2014 19:40:00 15.1 C 9.16 g/m*3 15.1 C 8.1 km/h
Sensor: Nr:Datum:Temp:Abs-Feuchte:Windchill:Wind:
Aussen-T/F 2326 11-04-2014 19:45:00 14.9 C 9.05 g/m*3 14.9 C 8.1 km/h
2327 11-04-2014 19:50:00 14.8 C 8.99 g/m*3 14.8 C 6.4 km/h
2328 11-04-2014 19:55:00 14.7 C 9.07 g/m*3 14.7 C 8.1 km/h
2329 11-04-2014 20:00:00 14.6 C 9.01 g/m*3 14.6 C 6.4 km/h
2330 11-04-2014 20:05:00 14.6 C 9.01 g/m*3 14.6 C 9.7 km/h
2331 11-04-2014 20:10:00 14.5 C 8.95 g/m*3 14.5 C 8.1 km/h
2332 11-04-2014 20:15:00 14.4 C 8.9 g/m*3 14.4 C 4.8 km/h
2333 11-04-2014 20:20:00 14.4 C 8.9 g/m*3 14.4 C 6.4 km/h
2334 11-04-2014 20:25:00 14.3 C 8.85 g/m*3 14.3 C 6.4 km/h
2335 11-04-2014 20:30:00 14.3 C 8.97 g/m*3 14.3 C 6.4 km/h
2336 11-04-2014 20:35:00 14.2 C 8.91 g/m*3 14.2 C 1.6 km/h
2337 11-04-2014 20:40:00 14.2 C 8.91 g/m*3 14.2 C 3.2 km/h
2338 11-04-2014 20:45:00 14.2 C 8.91 g/m*3 14.2 C 8.1 km/h
2339 11-04-2014 20:50:00 14.1 C 8.98 g/m*3 14.1 C 6.4 km/h
2340 11-04-2014 20:55:00 14 C 8.93 g/m*3 14 C 6.4 km/h
2341 11-04-2014 21:00:00 13.9 C 8.99 g/m*3 13.9 C 3.2 km/h
2342 11-04-2014 21:05:00 13.9 C 8.99 g/m*3 13.9 C 8.1 km/h
2343 11-04-2014 21:10:00 13.8 C 8.94 g/m*3 13.8 C 6.4 km/h
2344 11-04-2014 21:15:00 13.8 C 9.06 g/m*3 13.8 C 6.4 km/h
2345 11-04-2014 21:20:00 13.7 C 9 g/m*3 13.7 C 6.4 km/h
2346 11-04-2014 21:25:00 13.7 C 9 g/m*3 13.7 C 6.4 km/h
2347 11-04-2014 21:30:00 13.6 C 9.06 g/m*3 13.6 C 6.4 km/h
2348 11-04-2014 21:35:00 13.6 C 9.06 g/m*3 13.6 C 4.8 km/h
2349 11-04-2014 21:40:00 13.4 C 8.95 g/m*3 13.4 C 3.2 km/h
2350 11-04-2014 21:45:00 13.3 C 9.01 g/m*3 13.3 C 9.7 km/h
Sensor: Nr:Datum:Temp:Abs-Feuchte:Windchill:Wind:
Aussen-T/F 2351 11-04-2014 21:50:00 13.3 C 9.01 g/m*3 13.3 C 8.1 km/h
2352 11-04-2014 21:55:00 13.2 C 8.96 g/m*3 13.2 C 8.1 km/h
2353 11-04-2014 22:00:00 13.1 C 8.9 g/m*3 13.1 C 4.8 km/h
2354 11-04-2014 22:05:00 13.1 C 8.9 g/m*3 13.1 C 8.1 km/h
2355 11-04-2014 22:10:00 13 C 8.85 g/m*3 13 C 8.1 km/h
2356 11-04-2014 22:15:00 12.9 C 8.79 g/m*3 12.9 C 4.8 km/h
2357 11-04-2014 22:20:00 12.9 C 8.9 g/m*3 12.9 C 3.2 km/h
2358 11-04-2014 22:25:00 12.8 C 8.85 g/m*3 12.8 C 1.6 km/h
2359 11-04-2014 22:30:00 12.8 C 8.85 g/m*3 12.8 C 9.7 km/h
2360 11-04-2014 22:35:00 12.8 C 8.74 g/m*3 12.8 C 9.7 km/h
2361 11-04-2014 22:40:00 12.8 C 8.74 g/m*3 12.8 C 9.7 km/h
2362 11-04-2014 22:45:00 12.7 C 8.68 g/m*3 12.7 C 6.4 km/h
2363 11-04-2014 22:50:00 12.7 C 8.68 g/m*3 12.7 C 6.4 km/h
2364 11-04-2014 22:55:00 12.7 C 8.79 g/m*3 12.7 C 6.4 km/h
2365 11-04-2014 23:00:00 12.6 C 8.74 g/m*3 12.6 C 3.2 km/h
2366 11-04-2014 23:05:00 12.6 C 8.74 g/m*3 12.6 C 3.2 km/h
2367 11-04-2014 23:10:00 12.5 C 8.69 g/m*3 12.5 C 8.1 km/h
2368 11-04-2014 23:15:00 12.4 C 8.63 g/m*3 12.4 C 6.4 km/h
2369 11-04-2014 23:20:00 12.4 C 8.63 g/m*3 12.4 C 4.8 km/h
2370 11-04-2014 23:25:00 12.4 C 8.63 g/m*3 12.4 C 4.8 km/h
2371 11-04-2014 23:30:00 12.3 C 8.69 g/m*3 12.3 C 1.6 km/h
2372 11-04-2014 23:35:00 12.3 C 8.58 g/m*3 12.3 C 8.1 km/h
2373 11-04-2014 23:40:00 12.2 C 8.63 g/m*3 12.2 C 3.2 km/h
2374 11-04-2014 23:45:00 12.1 C 8.58 g/m*3 12.1 C 0 km/h
2375 11-04-2014 23:50:00 12.1 C 8.58 g/m*3 12.1 C 8.1 km/h
Sensor: Nr:Datum:Temp:Abs-Feuchte:Windchill:Wind:
Aussen-T/F 2376 11-04-2014 23:55:00 12 C 8.63 g/m*3 12 C 6.4 km/h
2377 12-04-2014 00:00:00 11.9 C 8.58 g/m*3 11.9 C 3.2 km/h
2378 12-04-2014 00:05:00 11.9 C 8.58 g/m*3 11.9 C 3.2 km/h
2379 12-04-2014 00:10:00 11.9 C 8.58 g/m*3 11.9 C 6.4 km/h
2380 12-04-2014 00:15:00 11.8 C 8.53 g/m*3 11.8 C 4.8 km/h
2381 12-04-2014 00:20:00 11.8 C 8.53 g/m*3 11.8 C 4.8 km/h
2382 12-04-2014 00:25:00 11.7 C 8.47 g/m*3 11.7 C 6.4 km/h
2383 12-04-2014 00:30:00 11.6 C 8.42 g/m*3 11.6 C 0 km/h
2384 12-04-2014 00:35:00 11.4 C 8.42 g/m*3 11.4 C 0 km/h
2385 12-04-2014 00:40:00 11.1 C 8.36 g/m*3 11.1 C 1.6 km/h
2386 12-04-2014 00:45:00 10.9 C 8.36 g/m*3 10.9 C 3.2 km/h
2387 12-04-2014 00:50:00 10.8 C 8.3 g/m*3 10.8 C 3.2 km/h
2388 12-04-2014 00:55:00 10.8 C 8.3 g/m*3 10.8 C 1.6 km/h
2389 12-04-2014 01:00:00 10.6 C 8.3 g/m*3 10.6 C 0 km/h
2390 12-04-2014 01:05:00 10.4 C 8.19 g/m*3 10.4 C 1.6 km/h
2391 12-04-2014 01:10:00 10.3 C 8.24 g/m*3 10.3 C 1.6 km/h
2392 12-04-2014 01:15:00 10.2 C 8.28 g/m*3 10.2 C 3.2 km/h
2393 12-04-2014 01:20:00 10.1 C 8.23 g/m*3 10.1 C 0 km/h
2394 12-04-2014 01:25:00 10.1 C 8.32 g/m*3 10.1 C 3.2 km/h
2395 12-04-2014 01:30:00 10.1 C 8.32 g/m*3 10.1 C 1.6 km/h
2396 12-04-2014 01:35:00 10.2 C 8.37 g/m*3 10.2 C 3.2 km/h
2397 12-04-2014 01:40:00 10.1 C 8.23 g/m*3 10.1 C 1.6 km/h
2398 12-04-2014 01:45:00 10.1 C 8.23 g/m*3 10.1 C 0 km/h
2399 12-04-2014 01:50:00 10 C 8.17 g/m*3 10 C 0 km/h
2400 12-04-2014 01:55:00 9.9 C 8.22 g/m*3 9.25 C 6.4 km/h
Sensor: Nr:Datum:Temp:Abs-Feuchte:Windchill:Wind:
Aussen-T/F 2401 12-04-2014 02:00:00 9.8 C 8.16 g/m*3 9.8 C 3.2 km/h
2402 12-04-2014 02:05:00 9.8 C 8.16 g/m*3 9.8 C 0 km/h
2403 12-04-2014 02:10:00 9.8 C 8.16 g/m*3 9.8 C 1.6 km/h
2404 12-04-2014 02:15:00 9.8 C 8.16 g/m*3 9.8 C 0 km/h
2405 12-04-2014 02:20:00 9.8 C 8.16 g/m*3 9.8 C 0 km/h
2406 12-04-2014 02:25:00 9.8 C 8.16 g/m*3 9.8 C 0 km/h
2407 12-04-2014 02:30:00 9.9 C 8.12 g/m*3 9.9 C 0 km/h
2408 12-04-2014 02:35:00 9.9 C 8.22 g/m*3 9.9 C 0 km/h
2409 12-04-2014 02:40:00 9.9 C 8.12 g/m*3 9.9 C 1.6 km/h
2410 12-04-2014 02:45:00 9.9 C 8.12 g/m*3 9.9 C 0 km/h
2411 12-04-2014 02:50:00 10 C 8.08 g/m*3 10 C 1.6 km/h
2412 12-04-2014 02:55:00 10 C 8.08 g/m*3 10 C 0 km/h
2413 12-04-2014 03:00:00 9.9 C 8.03 g/m*3 9.9 C 0 km/h
2414 12-04-2014 03:05:00 9.9 C 8.03 g/m*3 9.9 C 0 km/h
2415 12-04-2014 03:10:00 9.9 C 8.03 g/m*3 9.9 C 0 km/h
2416 12-04-2014 03:15:00 9.8 C 7.89 g/m*3 9.8 C 0 km/h
2417 12-04-2014 03:20:00 9.8 C 7.89 g/m*3 8.75 C 8.1 km/h
2418 12-04-2014 03:25:00 9.8 C 7.89 g/m*3 9.8 C 3.2 km/h
2419 12-04-2014 03:30:00 9.8 C 7.89 g/m*3 9.8 C 1.6 km/h
2420 12-04-2014 03:35:00 9.8 C 7.89 g/m*3 9.8 C 1.6 km/h
2421 12-04-2014 03:40:00 9.8 C 7.89 g/m*3 9.8 C 0 km/h
2422 12-04-2014 03:45:00 9.8 C 7.89 g/m*3 9.8 C 0 km/h
2423 12-04-2014 03:50:00 9.8 C 7.89 g/m*3 9.8 C 0 km/h
2424 12-04-2014 03:55:00 9.8 C 7.89 g/m*3 9.8 C 0 km/h
2425 12-04-2014 04:00:00 9.8 C 7.89 g/m*3 9.8 C 0 km/h
Sensor: Nr:Datum:Temp:Abs-Feuchte:Windchill:Wind:
Aussen-T/F 2426 12-04-2014 04:05:00 9.8 C 7.89 g/m*3 9.8 C 0 km/h
2427 12-04-2014 04:10:00 9.8 C 7.89 g/m*3 9.8 C 0 km/h
2428 12-04-2014 04:15:00 9.8 C 7.7 g/m*3 9.8 C 1.6 km/h
2429 12-04-2014 04:20:00 9.9 C 7.75 g/m*3 9.9 C 1.6 km/h
2430 12-04-2014 04:25:00 9.9 C 7.75 g/m*3 9.9 C 0 km/h
2431 12-04-2014 04:30:00 9.9 C 7.66 g/m*3 9.9 C 3.2 km/h
2432 12-04-2014 04:35:00 10 C 7.71 g/m*3 10 C 1.6 km/h
2433 12-04-2014 04:40:00 10 C 7.8 g/m*3 10 C 3.2 km/h
2434 12-04-2014 04:45:00 9.9 C 7.75 g/m*3 9.9 C 3.2 km/h
2435 12-04-2014 04:50:00 9.8 C 7.79 g/m*3 9.8 C 0 km/h
2436 12-04-2014 04:55:00 9.6 C 7.69 g/m*3 9.6 C 1.6 km/h
2437 12-04-2014 05:00:00 9.4 C 7.69 g/m*3 9.4 C 3.2 km/h
2438 12-04-2014 05:05:00 9.3 C 7.64 g/m*3 9.3 C 1.6 km/h
2439 12-04-2014 05:10:00 9.2 C 7.68 g/m*3 9.2 C 0 km/h
2440 12-04-2014 05:15:00 9.2 C 7.68 g/m*3 9.2 C 0 km/h
2441 12-04-2014 05:20:00 9.2 C 7.77 g/m*3 9.2 C 0 km/h
2442 12-04-2014 05:25:00 9.2 C 7.77 g/m*3 9.2 C 0 km/h
2443 12-04-2014 05:30:00 9.2 C 7.77 g/m*3 9.2 C 0 km/h
2444 12-04-2014 05:35:00 9.3 C 7.82 g/m*3 9.3 C 0 km/h
2445 12-04-2014 05:40:00 9.3 C 7.82 g/m*3 9.3 C 0 km/h
2446 12-04-2014 05:45:00 9.3 C 7.82 g/m*3 9.3 C 0 km/h
2447 12-04-2014 05:50:00 9.3 C 7.82 g/m*3 9.3 C 0 km/h
2448 12-04-2014 05:55:00 9.3 C 7.73 g/m*3 9.3 C 0 km/h
2449 12-04-2014 06:00:00 9.3 C 7.73 g/m*3 9.3 C 0 km/h
2450 12-04-2014 06:05:00 9.3 C 7.73 g/m*3 9.3 C 0 km/h
Sensor: Nr:Datum:Temp:Abs-Feuchte:Windchill:Wind:
Aussen-T/F 2451 12-04-2014 06:10:00 9.4 C 7.78 g/m*3 9.4 C 0 km/h
2452 12-04-2014 06:15:00 9.4 C 7.78 g/m*3 9.4 C 0 km/h
2453 12-04-2014 06:20:00 9.3 C 7.73 g/m*3 9.3 C 0 km/h
2454 12-04-2014 06:25:00 9.3 C 7.73 g/m*3 9.3 C 0 km/h
2455 12-04-2014 06:30:00 9.3 C 7.73 g/m*3 9.3 C 0 km/h
2456 12-04-2014 06:35:00 9.2 C 7.77 g/m*3 9.2 C 0 km/h
2457 12-04-2014 06:40:00 9.1 C 7.72 g/m*3 9.1 C 0 km/h
2458 12-04-2014 06:45:00 9.1 C 7.72 g/m*3 9.1 C 0 km/h
2459 12-04-2014 06:50:00 9 C 7.67 g/m*3 9 C 1.6 km/h
2460 12-04-2014 06:55:00 8.9 C 7.62 g/m*3 8.9 C 0 km/h
2461 12-04-2014 07:00:00 9 C 7.67 g/m*3 9 C 0 km/h
2462 12-04-2014 07:05:00 9 C 7.76 g/m*3 9 C 0 km/h
2463 12-04-2014 07:10:00 9.1 C 7.72 g/m*3 9.1 C 0 km/h
2464 12-04-2014 07:15:00 9.1 C 7.72 g/m*3 9.1 C 0 km/h
2465 12-04-2014 07:20:00 9.1 C 7.81 g/m*3 9.1 C 0 km/h
2466 12-04-2014 07:25:00 9.1 C 7.72 g/m*3 9.1 C 0 km/h
2467 12-04-2014 07:30:00 9.1 C 7.72 g/m*3 9.1 C 0 km/h
2468 12-04-2014 07:35:00 9.1 C 7.72 g/m*3 9.1 C 0 km/h
2469 12-04-2014 07:40:00 9.1 C 7.72 g/m*3 9.1 C 1.6 km/h
2470 12-04-2014 07:45:00 9.1 C 7.63 g/m*3 9.1 C 3.2 km/h
2471 12-04-2014 07:50:00 9.1 C 7.63 g/m*3 9.1 C 1.6 km/h
2472 12-04-2014 07:55:00 9.2 C 7.68 g/m*3 9.2 C 1.6 km/h
2473 12-04-2014 08:00:00 9.2 C 7.68 g/m*3 9.2 C 1.6 km/h
2474 12-04-2014 08:05:00 9.2 C 7.59 g/m*3 9.2 C 1.6 km/h
2475 12-04-2014 08:10:00 9.2 C 7.59 g/m*3 9.2 C 0 km/h
Sensor: Nr:Datum:Temp:Abs-Feuchte:Windchill:Wind:
Aussen-T/F 2476 12-04-2014 08:15:00 9.2 C 7.59 g/m*3 9.2 C 4.8 km/h
2477 12-04-2014 08:20:00 9.3 C 7.55 g/m*3 9.3 C 1.6 km/h
2478 12-04-2014 08:25:00 9.3 C 7.55 g/m*3 9.3 C 0 km/h
2479 12-04-2014 08:30:00 9.3 C 7.55 g/m*3 9.3 C 0 km/h
2480 12-04-2014 08:35:00 9.4 C 7.69 g/m*3 9.4 C 1.6 km/h
2481 12-04-2014 08:40:00 9.5 C 7.65 g/m*3 9.5 C 4.8 km/h
2482 12-04-2014 08:45:00 9.6 C 7.69 g/m*3 9.6 C 3.2 km/h
2483 12-04-2014 08:50:00 9.6 C 7.69 g/m*3 9.6 C 3.2 km/h
2484 12-04-2014 08:55:00 9.7 C 7.74 g/m*3 9.7 C 3.2 km/h
2485 12-04-2014 09:00:00 9.7 C 7.74 g/m*3 9.7 C 3.2 km/h
2486 12-04-2014 09:05:00 9.8 C 7.7 g/m*3 9.8 C 3.2 km/h
2487 12-04-2014 09:10:00 9.8 C 7.7 g/m*3 9.8 C 4.8 km/h
2488 12-04-2014 09:15:00 9.9 C 7.75 g/m*3 9.9 C 1.6 km/h
2489 12-04-2014 09:20:00 10 C 7.71 g/m*3 10 C 4.8 km/h
2490 12-04-2014 09:25:00 10.1 C 7.75 g/m*3 10.1 C 4.8 km/h
2491 12-04-2014 09:30:00 10.1 C 7.85 g/m*3 10.1 C 1.6 km/h
2492 12-04-2014 09:35:00 10.1 C 7.75 g/m*3 10.1 C 1.6 km/h
2493 12-04-2014 09:40:00 10.2 C 7.8 g/m*3 10.2 C 4.8 km/h
2494 12-04-2014 09:45:00 10.3 C 7.76 g/m*3 10.3 C 1.6 km/h
2495 12-04-2014 09:50:00 10.3 C 7.66 g/m*3 10.3 C 1.6 km/h
2496 12-04-2014 09:55:00 10.4 C 7.81 g/m*3 10.4 C 3.2 km/h
2497 12-04-2014 10:00:00 10.6 C 7.91 g/m*3 10.6 C 4.8 km/h
2498 12-04-2014 10:05:00 10.8 C 8.01 g/m*3 10.29 C 6.4 km/h
2499 12-04-2014 10:10:00 10.9 C 7.96 g/m*3 10.9 C 3.2 km/h
2500 12-04-2014 10:15:00 11.2 C 8.01 g/m*3 11.2 C 3.2 km/h
Sensor: Nr:Datum:Temp:Abs-Feuchte:Windchill:Wind:
Aussen-T/F 2501 12-04-2014 10:20:00 11.3 C 8.06 g/m*3 11.3 C 3.2 km/h
2502 12-04-2014 10:25:00 11.5 C 8.26 g/m*3 11.5 C 6.4 km/h
2503 12-04-2014 10:30:00 11.6 C 8.21 g/m*3 11.6 C 9.7 km/h
2504 12-04-2014 10:35:00 11.6 C 8.21 g/m*3 11.6 C 6.4 km/h
2505 12-04-2014 10:40:00 11.8 C 8.31 g/m*3 11.8 C 3.2 km/h
2506 12-04-2014 10:45:00 12 C 8.31 g/m*3 12 C 4.8 km/h
2507 12-04-2014 10:50:00 12.1 C 8.36 g/m*3 12.1 C 6.4 km/h
2508 12-04-2014 10:55:00 12.1 C 8.26 g/m*3 12.1 C 4.8 km/h
2509 12-04-2014 11:00:00 12.2 C 8.31 g/m*3 12.2 C 6.4 km/h
2510 12-04-2014 11:05:00 12.2 C 8.2 g/m*3 12.2 C 6.4 km/h
2511 12-04-2014 11:10:00 12.2 C 8.2 g/m*3 12.2 C 6.4 km/h
2512 12-04-2014 11:15:00 12.3 C 8.36 g/m*3 12.3 C 6.4 km/h
2513 12-04-2014 11:20:00 12.4 C 8.3 g/m*3 12.4 C 6.4 km/h
2514 12-04-2014 11:25:00 12.7 C 8.35 g/m*3 12.7 C 6.4 km/h
2515 12-04-2014 11:30:00 12.7 C 8.35 g/m*3 12.7 C 4.8 km/h
2516 12-04-2014 11:35:00 12.8 C 8.29 g/m*3 12.8 C 4.8 km/h
2517 12-04-2014 11:40:00 13 C 8.28 g/m*3 13 C 11.3 km/h
2518 12-04-2014 11:45:00 13 C 8.39 g/m*3 13 C 11.3 km/h
2519 12-04-2014 11:50:00 13.2 C 8.61 g/m*3 13.2 C 8.1 km/h
2520 12-04-2014 11:55:00 13.3 C 8.66 g/m*3 13.3 C 3.2 km/h
2521 12-04-2014 12:00:00 13.3 C 8.32 g/m*3 13.3 C 4.8 km/h
2522 12-04-2014 12:05:00 13.4 C 8.6 g/m*3 13.4 C 6.4 km/h
2523 12-04-2014 12:10:00 13.4 C 8.6 g/m*3 13.4 C 8.1 km/h
2524 12-04-2014 12:15:00 13.7 C 8.64 g/m*3 13.7 C 3.2 km/h
2525 12-04-2014 12:20:00 13.8 C 8.46 g/m*3 13.8 C 6.4 km/h
Sensor: Nr:Datum:Temp:Abs-Feuchte:Windchill:Wind:
Aussen-T/F 2526 12-04-2014 12:25:00 13.9 C 8.63 g/m*3 13.9 C 6.4 km/h
2527 12-04-2014 12:30:00 13.9 C 8.51 g/m*3 13.9 C 9.7 km/h
2528 12-04-2014 12:35:00 13.9 C 8.51 g/m*3 13.9 C 6.4 km/h
2529 12-04-2014 12:40:00 14.1 C 8.5 g/m*3 14.1 C 4.8 km/h
2530 12-04-2014 12:45:00 14.4 C 8.65 g/m*3 14.4 C 3.2 km/h
2531 12-04-2014 12:50:00 14.7 C 8.94 g/m*3 14.7 C 4.8 km/h
2532 12-04-2014 12:55:00 15.1 C 9.16 g/m*3 15.1 C 6.4 km/h
2533 12-04-2014 13:00:00 15.4 C 9.07 g/m*3 15.4 C 8.1 km/h
2534 12-04-2014 13:05:00 15.6 C 8.78 g/m*3 15.6 C 3.2 km/h
2535 12-04-2014 13:10:00 15.6 C 8.78 g/m*3 15.6 C 6.4 km/h
2536 12-04-2014 13:15:00 15.8 C 8.75 g/m*3 15.8 C 8.1 km/h
2537 12-04-2014 13:20:00 15.9 C 8.53 g/m*3 15.9 C 8.1 km/h
2538 12-04-2014 13:25:00 15.8 C 8.62 g/m*3 15.8 C 6.4 km/h
2539 12-04-2014 13:30:00 16 C 8.72 g/m*3 16 C 3.2 km/h
2540 12-04-2014 13:35:00 16.4 C 8.65 g/m*3 16.4 C 11.3 km/h
2541 12-04-2014 13:40:00 16.5 C 8.57 g/m*3 16.5 C 6.4 km/h
2542 12-04-2014 13:45:00 16.4 C 8.51 g/m*3 16.4 C 8.1 km/h
2543 12-04-2014 13:50:00 16.4 C 8.65 g/m*3 16.4 C 9.7 km/h
2544 12-04-2014 13:55:00 16.6 C 8.33 g/m*3 16.6 C 4.8 km/h
2545 12-04-2014 14:00:00 16.8 C 8.44 g/m*3 16.8 C 9.7 km/h
2546 12-04-2014 14:05:00 16.8 C 8.58 g/m*3 16.8 C 6.4 km/h
2547 12-04-2014 14:10:00 16.9 C 8.05 g/m*3 16.9 C 6.4 km/h
2548 12-04-2014 14:15:00 17.1 C 7.86 g/m*3 17.1 C 9.7 km/h
2549 12-04-2014 14:20:00 17.3 C 7.81 g/m*3 17.3 C 12.9 km/h
2550 12-04-2014 14:25:00 17.3 C 7.66 g/m*3 17.3 C 6.4 km/h
Sensor: Nr:Datum:Temp:Abs-Feuchte:Windchill:Wind:
Aussen-T/F 2551 12-04-2014 14:30:00 17.1 C 7.57 g/m*3 17.1 C 6.4 km/h
2552 12-04-2014 14:35:00 17 C 7.96 g/m*3 17 C 11.3 km/h
2553 12-04-2014 14:40:00 16.9 C 7.62 g/m*3 16.9 C 12.9 km/h
2554 12-04-2014 14:45:00 16.8 C 8.01 g/m*3 16.8 C 8.1 km/h
2555 12-04-2014 14:50:00 16.7 C 7.96 g/m*3 16.7 C 11.3 km/h
2556 12-04-2014 14:55:00 16.8 C 7.58 g/m*3 16.8 C 9.7 km/h
2557 12-04-2014 15:00:00 16.8 C 7.29 g/m*3 16.8 C 8.1 km/h
2558 12-04-2014 15:05:00 16.7 C 7.67 g/m*3 16.7 C 11.3 km/h
2559 12-04-2014 15:10:00 16.8 C 7.72 g/m*3 16.8 C 9.7 km/h
2560 12-04-2014 15:15:00 17.2 C 7.91 g/m*3 17.2 C 8.1 km/h
2561 12-04-2014 15:20:00 17.3 C 7.51 g/m*3 17.3 C 6.4 km/h
2562 12-04-2014 15:25:00 17.3 C 7.81 g/m*3 17.3 C 4.8 km/h
2563 12-04-2014 15:30:00 17.6 C 7.8 g/m*3 17.6 C 8.1 km/h
2564 12-04-2014 15:35:00 17.9 C 7.94 g/m*3 17.9 C 12.9 km/h
2565 12-04-2014 15:40:00 18 C 7.99 g/m*3 18 C 8.1 km/h
2566 12-04-2014 15:45:00 18.2 C 7.93 g/m*3 18.2 C 12.9 km/h
2567 12-04-2014 15:50:00 18.3 C 7.97 g/m*3 18.3 C 11.3 km/h
2568 12-04-2014 15:55:00 18.5 C 8.07 g/m*3 18.5 C 8.1 km/h
2569 12-04-2014 16:00:00 18.3 C 7.35 g/m*3 18.3 C 6.4 km/h
2570 12-04-2014 16:05:00 18.2 C 7.77 g/m*3 18.2 C 12.9 km/h
2571 12-04-2014 16:10:00 18.1 C 6.95 g/m*3 18.1 C 9.7 km/h
2572 12-04-2014 16:15:00 18.1 C 6.95 g/m*3 18.1 C 12.9 km/h
2573 12-04-2014 16:20:00 18.2 C 6.99 g/m*3 18.2 C 4.8 km/h
2574 12-04-2014 16:25:00 18.2 C 7.46 g/m*3 18.2 C 4.8 km/h
2575 12-04-2014 16:30:00 18.2 C 7.31 g/m*3 18.2 C 11.3 km/h
Sensor: Nr:Datum:Temp:Abs-Feuchte:Windchill:Wind:
Aussen-T/F 2576 12-04-2014 16:35:00 18.3 C 6.88 g/m*3 18.3 C 6.4 km/h
2577 12-04-2014 16:40:00 18.3 C 6.72 g/m*3 18.3 C 6.4 km/h
2578 12-04-2014 16:45:00 18.3 C 6.25 g/m*3 18.3 C 8.1 km/h
2579 12-04-2014 16:50:00 18.2 C 6.53 g/m*3 18.2 C 4.8 km/h
2580 12-04-2014 16:55:00 18.1 C 6.49 g/m*3 18.1 C 8.1 km/h
2581 12-04-2014 17:00:00 18.1 C 6.33 g/m*3 18.1 C 9.7 km/h
2582 12-04-2014 17:05:00 18.2 C 6.99 g/m*3 18.2 C 9.7 km/h
2583 12-04-2014 17:10:00 17.9 C 6.72 g/m*3 17.9 C 9.7 km/h
2584 12-04-2014 17:15:00 17.8 C 6.68 g/m*3 17.8 C 9.7 km/h
2585 12-04-2014 17:20:00 17.5 C 7.01 g/m*3 17.5 C 11.3 km/h
2586 12-04-2014 17:25:00 17.2 C 7.03 g/m*3 17.2 C 6.4 km/h
2587 12-04-2014 17:30:00 17 C 6.8 g/m*3 17 C 11.3 km/h
2588 12-04-2014 17:35:00 16.9 C 7.34 g/m*3 16.9 C 9.7 km/h
2589 12-04-2014 17:40:00 16.8 C 7.01 g/m*3 16.8 C 11.3 km/h
2590 12-04-2014 17:45:00 16.6 C 7.2 g/m*3 16.6 C 8.1 km/h
2591 12-04-2014 17:50:00 16.4 C 7.12 g/m*3 16.4 C 9.7 km/h
2592 12-04-2014 17:55:00 16.3 C 7.08 g/m*3 16.3 C 14.5 km/h
2593 12-04-2014 18:00:00 16.2 C 7.03 g/m*3 16.2 C 9.7 km/h
2594 12-04-2014 18:05:00 16.1 C 6.85 g/m*3 16.1 C 11.3 km/h
2595 12-04-2014 18:10:00 16 C 7.08 g/m*3 16 C 6.4 km/h
2596 12-04-2014 18:15:00 15.9 C 6.77 g/m*3 15.9 C 8.1 km/h
2597 12-04-2014 18:20:00 15.9 C 6.91 g/m*3 15.9 C 4.8 km/h
2598 12-04-2014 18:25:00 15.8 C 6.87 g/m*3 15.8 C 9.7 km/h
2599 12-04-2014 18:30:00 15.7 C 7.09 g/m*3 15.7 C 8.1 km/h
2600 12-04-2014 18:35:00 15.7 C 7.23 g/m*3 15.7 C 6.4 km/h
Sensor: Nr:Datum:Temp:Abs-Feuchte:Windchill:Wind:
Aussen-T/F 2601 12-04-2014 18:40:00 15.6 C 7.18 g/m*3 15.6 C 8.1 km/h
2602 12-04-2014 18:45:00 15.6 C 7.18 g/m*3 15.6 C 8.1 km/h
2603 12-04-2014 18:50:00 15.5 C 7.01 g/m*3 15.5 C 9.7 km/h
2604 12-04-2014 18:55:00 15.4 C 6.96 g/m*3 15.4 C 6.4 km/h
2605 12-04-2014 19:00:00 15.4 C 6.96 g/m*3 15.4 C 8.1 km/h
2606 12-04-2014 19:05:00 15.4 C 6.96 g/m*3 15.4 C 12.9 km/h
2607 12-04-2014 19:10:00 15.3 C 6.92 g/m*3 15.3 C 6.4 km/h
2608 12-04-2014 19:15:00 15.3 C 6.92 g/m*3 15.3 C 6.4 km/h
2609 12-04-2014 19:20:00 15.2 C 7.01 g/m*3 15.2 C 9.7 km/h
2610 12-04-2014 19:25:00 15.1 C 6.84 g/m*3 15.1 C 8.1 km/h
2611 12-04-2014 19:30:00 15.1 C 6.84 g/m*3 15.1 C 3.2 km/h
2612 12-04-2014 19:35:00 15.1 C 6.84 g/m*3 15.1 C 8.1 km/h
2613 12-04-2014 19:55:00 14.6 C 6.88 g/m*3 14.6 C 8.1 km/h
2614 12-04-2014 20:00:00 14.5 C 6.84 g/m*3 14.5 C 6.4 km/h
2615 12-04-2014 20:05:00 14.4 C 6.8 g/m*3 14.4 C 4.8 km/h
2616 12-04-2014 20:10:00 14.3 C 6.76 g/m*3 14.3 C 6.4 km/h
2617 12-04-2014 20:15:00 14.2 C 6.59 g/m*3 14.2 C 9.7 km/h
2618 12-04-2014 20:20:00 14.2 C 6.59 g/m*3 14.2 C 6.4 km/h
2619 12-04-2014 20:25:00 14.1 C 6.67 g/m*3 14.1 C 6.4 km/h
2620 12-04-2014 20:30:00 14.1 C 6.67 g/m*3 14.1 C 1.6 km/h
2621 12-04-2014 20:35:00 13.9 C 6.71 g/m*3 13.9 C 9.7 km/h
2622 12-04-2014 20:40:00 13.9 C 6.71 g/m*3 13.9 C 6.4 km/h
2623 12-04-2014 20:45:00 13.9 C 6.71 g/m*3 13.9 C 3.2 km/h
2624 12-04-2014 20:50:00 13.8 C 6.79 g/m*3 13.8 C 0 km/h
2625 12-04-2014 20:55:00 13.7 C 7.1 g/m*3 13.7 C 3.2 km/h
Sensor: Nr:Datum:Temp:Abs-Feuchte:Windchill:Wind:
Aussen-T/F 2626 12-04-2014 21:00:00 13.6 C 6.83 g/m*3 13.6 C 3.2 km/h
2627 12-04-2014 21:05:00 13.6 C 6.83 g/m*3 13.6 C 4.8 km/h
2628 12-04-2014 21:10:00 13.6 C 6.83 g/m*3 13.6 C 3.2 km/h
2629 12-04-2014 21:15:00 13.6 C 6.83 g/m*3 13.6 C 4.8 km/h
2630 12-04-2014 21:20:00 13.6 C 7.06 g/m*3 13.6 C 1.6 km/h
2631 12-04-2014 21:25:00 13.4 C 7.21 g/m*3 13.4 C 0 km/h
2632 12-04-2014 21:30:00 13.3 C 7.16 g/m*3 13.3 C 3.2 km/h
2633 12-04-2014 21:35:00 13.2 C 7.35 g/m*3 13.2 C 4.8 km/h
2634 12-04-2014 21:40:00 13.1 C 7.3 g/m*3 13.1 C 6.4 km/h
2635 12-04-2014 21:45:00 13 C 7.37 g/m*3 13 C 0 km/h
2636 12-04-2014 21:50:00 12.8 C 7.28 g/m*3 12.8 C 1.6 km/h
2637 12-04-2014 21:55:00 12.6 C 7.19 g/m*3 12.6 C 1.6 km/h
2638 12-04-2014 22:00:00 12.4 C 7.32 g/m*3 12.4 C 0 km/h
2639 12-04-2014 22:05:00 12.2 C 7.23 g/m*3 12.2 C 0 km/h
2640 12-04-2014 22:10:00 12.2 C 7.23 g/m*3 12.2 C 0 km/h
2641 12-04-2014 22:15:00 12.1 C 7.29 g/m*3 12.1 C 1.6 km/h
2642 12-04-2014 22:20:00 11.9 C 7.1 g/m*3 11.9 C 0 km/h
2643 12-04-2014 22:25:00 11.8 C 7.05 g/m*3 11.8 C 0 km/h
2644 12-04-2014 22:30:00 11.8 C 7.16 g/m*3 11.8 C 3.2 km/h
2645 12-04-2014 22:35:00 11.8 C 7.26 g/m*3 11.8 C 0 km/h
2646 12-04-2014 22:40:00 11.8 C 7.26 g/m*3 11.8 C 0 km/h
2647 12-04-2014 22:45:00 11.8 C 7.16 g/m*3 11.8 C 0 km/h
2648 12-04-2014 22:50:00 11.8 C 6.95 g/m*3 11.8 C 0 km/h
2649 12-04-2014 22:55:00 11.8 C 6.84 g/m*3 11.8 C 3.2 km/h
2650 12-04-2014 23:00:00 11.9 C 6.78 g/m*3 11.9 C 0 km/h
Sensor: Nr:Datum:Temp:Abs-Feuchte:Windchill:Wind:
Aussen-T/F 2651 12-04-2014 23:05:00 12 C 7.03 g/m*3 12 C 1.6 km/h
2652 12-04-2014 23:10:00 11.9 C 6.67 g/m*3 11.9 C 1.6 km/h
2653 12-04-2014 23:15:00 11.9 C 6.88 g/m*3 11.9 C 3.2 km/h
2654 12-04-2014 23:20:00 11.9 C 6.88 g/m*3 11.9 C 1.6 km/h
2655 12-04-2014 23:25:00 11.9 C 6.99 g/m*3 11.9 C 1.6 km/h
2656 12-04-2014 23:30:00 11.8 C 7.16 g/m*3 11.8 C 0 km/h
2657 12-04-2014 23:35:00 11.7 C 7.01 g/m*3 11.7 C 0 km/h
2658 12-04-2014 23:40:00 11.7 C 7.11 g/m*3 11.7 C 1.6 km/h
2659 12-04-2014 23:45:00 11.6 C 7.28 g/m*3 11.6 C 1.6 km/h
2660 12-04-2014 23:50:00 11.6 C 7.17 g/m*3 11.6 C 3.2 km/h
2661 12-04-2014 23:55:00 11.6 C 7.17 g/m*3 11.6 C 0 km/h
2662 13-04-2014 00:00:00 11.6 C 7.07 g/m*3 11.6 C 0 km/h
2663 13-04-2014 00:05:00 11.6 C 7.17 g/m*3 11.6 C 1.6 km/h
2664 13-04-2014 00:10:00 11.6 C 7.28 g/m*3 11.6 C 0 km/h
2665 13-04-2014 00:15:00 11.6 C 7.28 g/m*3 11.6 C 0 km/h
2666 13-04-2014 00:20:00 11.5 C 7.23 g/m*3 11.5 C 0 km/h
2667 13-04-2014 00:25:00 11.4 C 7.19 g/m*3 11.4 C 0 km/h
2668 13-04-2014 00:30:00 11.4 C 7.29 g/m*3 11.4 C 0 km/h
2669 13-04-2014 00:35:00 11.4 C 7.29 g/m*3 11.4 C 0 km/h
2670 13-04-2014 00:40:00 11.4 C 7.29 g/m*3 11.4 C 1.6 km/h
2671 13-04-2014 00:45:00 11.3 C 7.24 g/m*3 11.3 C 0 km/h
2672 13-04-2014 00:50:00 11.3 C 7.34 g/m*3 11.3 C 1.6 km/h
2673 13-04-2014 00:55:00 11.2 C 7.3 g/m*3 11.2 C 0 km/h
2674 13-04-2014 01:00:00 11.1 C 7.35 g/m*3 11.1 C 0 km/h
2675 13-04-2014 01:05:00 11.1 C 7.15 g/m*3 11.1 C 0 km/h
Sensor: Nr:Datum:Temp:Abs-Feuchte:Windchill:Wind:
Aussen-T/F 2676 13-04-2014 01:10:00 11.1 C 7.35 g/m*3 11.1 C 3.2 km/h
2677 13-04-2014 01:15:00 11.1 C 7.45 g/m*3 11.1 C 3.2 km/h
2678 13-04-2014 01:20:00 11.1 C 7.45 g/m*3 11.1 C 3.2 km/h
2679 13-04-2014 01:25:00 11.1 C 7.45 g/m*3 11.1 C 3.2 km/h
2680 13-04-2014 01:30:00 11.1 C 7.35 g/m*3 11.1 C 1.6 km/h
2681 13-04-2014 01:35:00 11.1 C 7.45 g/m*3 11.1 C 3.2 km/h
2682 13-04-2014 01:40:00 11.1 C 7.35 g/m*3 11.1 C 0 km/h
2683 13-04-2014 01:45:00 11 C 7.41 g/m*3 11 C 0 km/h
2684 13-04-2014 01:50:00 10.9 C 7.16 g/m*3 10.9 C 3.2 km/h
2685 13-04-2014 01:55:00 11.1 C 7.35 g/m*3 11.1 C 1.6 km/h
2686 13-04-2014 02:00:00 11.1 C 7.45 g/m*3 11.1 C 1.6 km/h
2687 13-04-2014 02:05:00 11.1 C 7.25 g/m*3 11.1 C 1.6 km/h
2688 13-04-2014 02:10:00 11.1 C 7.35 g/m*3 11.1 C 0 km/h
2689 13-04-2014 02:15:00 11.1 C 7.35 g/m*3 11.1 C 3.2 km/h
2690 13-04-2014 02:20:00 11.1 C 7.25 g/m*3 11.1 C 1.6 km/h
2691 13-04-2014 02:25:00 11.1 C 7.35 g/m*3 11.1 C 1.6 km/h
2692 13-04-2014 02:30:00 11 C 7.41 g/m*3 11 C 1.6 km/h
2693 13-04-2014 02:35:00 10.8 C 7.41 g/m*3 10.8 C 0 km/h
2694 13-04-2014 02:40:00 10.6 C 7.32 g/m*3 10.6 C 1.6 km/h
2695 13-04-2014 02:45:00 10.3 C 7.18 g/m*3 10.3 C 1.6 km/h
2696 13-04-2014 02:50:00 10.3 C 7.28 g/m*3 10.3 C 1.6 km/h
2697 13-04-2014 02:55:00 10.2 C 7.33 g/m*3 10.2 C 0 km/h
2698 13-04-2014 03:00:00 10.1 C 7.28 g/m*3 10.1 C 3.2 km/h
2699 13-04-2014 03:05:00 10.1 C 7.28 g/m*3 10.1 C 1.6 km/h
2700 13-04-2014 03:10:00 9.9 C 7.28 g/m*3 9.9 C 0 km/h
Sensor: Nr:Datum:Temp:Abs-Feuchte:Windchill:Wind:
Aussen-T/F 2701 13-04-2014 03:15:00 9.8 C 7.14 g/m*3 9.8 C 0 km/h
2702 13-04-2014 03:20:00 9.7 C 7.28 g/m*3 9.7 C 0 km/h
2703 13-04-2014 03:25:00 9.7 C 7.19 g/m*3 9.7 C 0 km/h
2704 13-04-2014 03:30:00 9.7 C 7.19 g/m*3 9.7 C 0 km/h
2705 13-04-2014 03:35:00 9.8 C 7.33 g/m*3 9.8 C 0 km/h
2706 13-04-2014 03:40:00 10 C 7.14 g/m*3 10 C 3.2 km/h
2707 13-04-2014 03:45:00 10.2 C 7.33 g/m*3 10.2 C 0 km/h
2708 13-04-2014 03:50:00 10.3 C 7.47 g/m*3 10.3 C 0 km/h
2709 13-04-2014 03:55:00 10.3 C 7.37 g/m*3 10.3 C 3.2 km/h
2710 13-04-2014 04:00:00 10.3 C 7.37 g/m*3 10.3 C 0 km/h
2711 13-04-2014 04:05:00 10.2 C 7.33 g/m*3 10.2 C 0 km/h
2712 13-04-2014 04:10:00 10.2 C 7.33 g/m*3 10.2 C 0 km/h
2713 13-04-2014 04:15:00 10 C 7.33 g/m*3 10 C 1.6 km/h
2714 13-04-2014 04:20:00 9.8 C 7.24 g/m*3 9.8 C 0 km/h
2715 13-04-2014 04:25:00 9.5 C 7.19 g/m*3 9.5 C 0 km/h
2716 13-04-2014 04:30:00 9.4 C 7.24 g/m*3 9.4 C 1.6 km/h
2717 13-04-2014 04:35:00 9.3 C 7.19 g/m*3 9.3 C 0 km/h
2718 13-04-2014 04:40:00 9.3 C 7.19 g/m*3 9.3 C 3.2 km/h
2719 13-04-2014 04:45:00 9.4 C 7.24 g/m*3 9.4 C 0 km/h
2720 13-04-2014 04:50:00 9.4 C 7.15 g/m*3 9.4 C 1.6 km/h
2721 13-04-2014 04:55:00 9.5 C 7.19 g/m*3 9.5 C 1.6 km/h
2722 13-04-2014 05:00:00 9.4 C 7.15 g/m*3 9.4 C 1.6 km/h
2723 13-04-2014 05:05:00 9.3 C 7.1 g/m*3 9.3 C 0 km/h
2724 13-04-2014 05:10:00 9.2 C 7.14 g/m*3 9.2 C 0 km/h
2725 13-04-2014 05:15:00 9 C 7.14 g/m*3 9 C 0 km/h
Sensor: Nr:Datum:Temp:Abs-Feuchte:Windchill:Wind:
Aussen-T/F 2726 13-04-2014 05:20:00 8.8 C 7.05 g/m*3 8.8 C 3.2 km/h
2727 13-04-2014 05:25:00 8.7 C 7.09 g/m*3 8.7 C 0 km/h
2728 13-04-2014 05:30:00 8.5 C 7 g/m*3 8.5 C 0 km/h
2729 13-04-2014 05:35:00 8.4 C 6.96 g/m*3 8.4 C 0 km/h
2730 13-04-2014 05:40:00 8.3 C 7 g/m*3 8.3 C 1.6 km/h
2731 13-04-2014 05:45:00 8.1 C 6.91 g/m*3 8.1 C 0 km/h
2732 13-04-2014 05:50:00 8 C 6.94 g/m*3 8 C 1.6 km/h
2733 13-04-2014 05:55:00 7.9 C 6.82 g/m*3 7.9 C 1.6 km/h
2734 13-04-2014 06:00:00 7.8 C 6.94 g/m*3 7.8 C 1.6 km/h
2735 13-04-2014 06:05:00 7.8 C 6.94 g/m*3 7.8 C 3.2 km/h
2736 13-04-2014 06:10:00 7.7 C 6.89 g/m*3 7.7 C 0 km/h
2737 13-04-2014 06:15:00 7.6 C 6.85 g/m*3 7.6 C 0 km/h
2738 13-04-2014 06:20:00 7.5 C 6.88 g/m*3 7.5 C 0 km/h
2739 13-04-2014 06:25:00 7.4 C 6.76 g/m*3 7.4 C 0 km/h
2740 13-04-2014 06:30:00 7.4 C 6.84 g/m*3 7.4 C 0 km/h
2741 13-04-2014 06:35:00 7.3 C 6.79 g/m*3 7.3 C 3.2 km/h
2742 13-04-2014 06:40:00 7.3 C 6.79 g/m*3 7.3 C 1.6 km/h
2743 13-04-2014 06:45:00 7.2 C 6.75 g/m*3 7.2 C 0 km/h
2744 13-04-2014 06:50:00 7.1 C 6.71 g/m*3 7.1 C 0 km/h
2745 13-04-2014 06:55:00 6.9 C 6.7 g/m*3 6.9 C 0 km/h
2746 13-04-2014 07:00:00 6.9 C 6.7 g/m*3 6.9 C 4.8 km/h
2747 13-04-2014 07:05:00 6.8 C 6.73 g/m*3 6.8 C 0 km/h
2748 13-04-2014 07:10:00 6.8 C 6.73 g/m*3 6.8 C 0 km/h
2749 13-04-2014 07:15:00 6.7 C 6.69 g/m*3 6.7 C 0 km/h
2750 13-04-2014 07:20:00 6.8 C 6.73 g/m*3 6.8 C 1.6 km/h
Sensor: Nr:Datum:Temp:Abs-Feuchte:Windchill:Wind:
Aussen-T/F 2751 13-04-2014 07:25:00 6.7 C 6.69 g/m*3 6.7 C 0 km/h
2752 13-04-2014 07:30:00 6.7 C 6.69 g/m*3 6.7 C 0 km/h
2753 13-04-2014 07:35:00 6.7 C 6.69 g/m*3 6.7 C 0 km/h
2754 13-04-2014 07:40:00 6.7 C 6.69 g/m*3 6.7 C 0 km/h
2755 13-04-2014 07:45:00 6.7 C 6.69 g/m*3 6.7 C 0 km/h
2756 13-04-2014 07:50:00 6.8 C 6.73 g/m*3 6.8 C 0 km/h
2757 13-04-2014 07:55:00 6.8 C 6.73 g/m*3 6.8 C 0 km/h
2758 13-04-2014 08:00:00 6.8 C 6.81 g/m*3 6.8 C 1.6 km/h
2759 13-04-2014 08:05:00 6.8 C 6.81 g/m*3 6.8 C 0 km/h
2760 13-04-2014 08:10:00 6.8 C 6.81 g/m*3 6.8 C 0 km/h
2761 13-04-2014 08:15:00 6.9 C 6.85 g/m*3 6.9 C 0 km/h
2762 13-04-2014 08:20:00 7 C 6.9 g/m*3 7 C 1.6 km/h
2763 13-04-2014 08:25:00 7.1 C 6.94 g/m*3 7.1 C 1.6 km/h
2764 13-04-2014 08:30:00 7.2 C 6.99 g/m*3 7.2 C 0 km/h
2765 13-04-2014 08:35:00 7.3 C 7.03 g/m*3 7.3 C 0 km/h
2766 13-04-2014 08:40:00 7.5 C 7.04 g/m*3 7.5 C 0 km/h
2767 13-04-2014 08:45:00 7.7 C 7.14 g/m*3 7.7 C 0 km/h
2768 13-04-2014 08:50:00 8.1 C 7.16 g/m*3 7.17 C 6.4 km/h
2769 13-04-2014 08:55:00 8.4 C 7.13 g/m*3 8.4 C 1.6 km/h
2770 13-04-2014 09:00:00 8.8 C 7.31 g/m*3 8.8 C 0 km/h
2771 13-04-2014 09:05:00 8.9 C 7.27 g/m*3 8.9 C 3.2 km/h
2772 13-04-2014 09:10:00 9.1 C 7.19 g/m*3 9.1 C 4.8 km/h
2773 13-04-2014 09:15:00 9.3 C 7.37 g/m*3 9.3 C 1.6 km/h
2774 13-04-2014 09:20:00 9.3 C 7.28 g/m*3 9.3 C 4.8 km/h
2775 13-04-2014 09:25:00 9.4 C 7.33 g/m*3 9.4 C 3.2 km/h
Sensor: Nr:Datum:Temp:Abs-Feuchte:Windchill:Wind:
Aussen-T/F 2776 13-04-2014 09:30:00 9.6 C 7.33 g/m*3 9.6 C 4.8 km/h
2777 13-04-2014 09:35:00 9.7 C 7.38 g/m*3 9.7 C 0 km/h
2778 13-04-2014 09:40:00 9.7 C 7.47 g/m*3 9.7 C 0 km/h
2779 13-04-2014 09:45:00 9.8 C 7.52 g/m*3 9.8 C 4.8 km/h
2780 13-04-2014 09:50:00 10 C 7.33 g/m*3 10 C 4.8 km/h
2781 13-04-2014 09:55:00 10.1 C 7.38 g/m*3 10.1 C 1.6 km/h
2782 13-04-2014 10:00:00 10.3 C 7.37 g/m*3 10.3 C 1.6 km/h
2783 13-04-2014 10:05:00 10.4 C 7.42 g/m*3 9.83 C 6.4 km/h
2784 13-04-2014 10:10:00 10.6 C 7.42 g/m*3 10.6 C 3.2 km/h
2785 13-04-2014 10:15:00 10.7 C 7.37 g/m*3 10.7 C 1.6 km/h
2786 13-04-2014 10:20:00 10.8 C 7.51 g/m*3 10.8 C 3.2 km/h
2787 13-04-2014 10:25:00 10.9 C 7.46 g/m*3 10.9 C 4.8 km/h
2788 13-04-2014 10:30:00 11.1 C 7.35 g/m*3 11.1 C 4.8 km/h
2789 13-04-2014 10:35:00 11.2 C 7.4 g/m*3 11.2 C 3.2 km/h
2790 13-04-2014 10:40:00 11.3 C 7.45 g/m*3 11.3 C 0 km/h
2791 13-04-2014 10:45:00 11.4 C 7.39 g/m*3 11.4 C 3.2 km/h
2792 13-04-2014 10:50:00 11.6 C 7.48 g/m*3 11.6 C 1.6 km/h
2793 13-04-2014 10:55:00 11.7 C 7.32 g/m*3 11.7 C 1.6 km/h
2794 13-04-2014 11:00:00 11.9 C 7.63 g/m*3 11.9 C 3.2 km/h
2795 13-04-2014 11:05:00 12.2 C 7.66 g/m*3 12.2 C 4.8 km/h
2796 13-04-2014 11:10:00 12.4 C 7.76 g/m*3 12.4 C 8.1 km/h
2797 13-04-2014 11:15:00 12.6 C 7.85 g/m*3 12.6 C 4.8 km/h
2798 13-04-2014 11:20:00 12.7 C 7.46 g/m*3 12.7 C 3.2 km/h
2799 13-04-2014 11:25:00 12.8 C 7.5 g/m*3 12.8 C 1.6 km/h
2800 13-04-2014 11:30:00 12.8 C 7.5 g/m*3 12.8 C 4.8 km/h
Sensor: Nr:Datum:Temp:Abs-Feuchte:Windchill:Wind:
Aussen-T/F 2801 13-04-2014 11:35:00 12.9 C 7.55 g/m*3 12.9 C 9.7 km/h
2802 13-04-2014 11:40:00 13 C 7.14 g/m*3 13 C 9.7 km/h
2803 13-04-2014 11:45:00 13.1 C 7.19 g/m*3 13.1 C 6.4 km/h
2804 13-04-2014 11:50:00 13.3 C 7.39 g/m*3 13.3 C 8.1 km/h
2805 13-04-2014 11:55:00 13.4 C 7.32 g/m*3 13.4 C 4.8 km/h
2806 13-04-2014 12:00:00 13.4 C 7.32 g/m*3 13.4 C 6.4 km/h
2807 13-04-2014 12:05:00 13.7 C 7.46 g/m*3 13.7 C 8.1 km/h
2808 13-04-2014 12:10:00 13.7 C 7.46 g/m*3 13.7 C 4.8 km/h
2809 13-04-2014 12:15:00 14 C 7.6 g/m*3 14 C 6.4 km/h
2810 13-04-2014 12:20:00 14.3 C 7.86 g/m*3 14.3 C 9.7 km/h
2811 13-04-2014 12:25:00 14.4 C 7.54 g/m*3 14.4 C 8.1 km/h
2812 13-04-2014 12:30:00 14.4 C 7.54 g/m*3 14.4 C 6.4 km/h
2813 13-04-2014 12:35:00 14.7 C 7.68 g/m*3 14.7 C 4.8 km/h
2814 13-04-2014 12:40:00 14.7 C 7.68 g/m*3 14.7 C 3.2 km/h
2815 13-04-2014 13:05:00 14.9 C 7.77 g/m*3 14.9 C 4.8 km/h
2816 13-04-2014 13:10:00 14.8 C 7.85 g/m*3 14.8 C 6.4 km/h
2817 13-04-2014 13:15:00 14.7 C 7.68 g/m*3 14.7 C 4.8 km/h
2818 13-04-2014 13:20:00 14.6 C 7.76 g/m*3 14.6 C 6.4 km/h
2819 13-04-2014 13:25:00 14.6 C 7.63 g/m*3 14.6 C 8.1 km/h
2820 13-04-2014 13:30:00 14.6 C 7.63 g/m*3 14.6 C 9.7 km/h
2821 13-04-2014 13:35:00 14.6 C 7.76 g/m*3 14.6 C 12.9 km/h
2822 13-04-2014 13:40:00 14.6 C 8.01 g/m*3 14.6 C 12.9 km/h
2823 13-04-2014 13:45:00 14.6 C 7.76 g/m*3 14.6 C 6.4 km/h
2824 13-04-2014 13:50:00 14.6 C 8.01 g/m*3 14.6 C 8.1 km/h
2825 13-04-2014 13:55:00 14.6 C 8.01 g/m*3 14.6 C 9.7 km/h
Sensor: Nr:Datum:Temp:Abs-Feuchte:Windchill:Wind:
Aussen-T/F 2826 13-04-2014 14:00:00 14.5 C 8.08 g/m*3 14.5 C 11.3 km/h
2827 13-04-2014 14:05:00 14.4 C 8.03 g/m*3 14.4 C 8.1 km/h
2828 13-04-2014 14:10:00 14.4 C 8.03 g/m*3 14.4 C 8.1 km/h
2829 13-04-2014 14:15:00 14.4 C 7.91 g/m*3 14.4 C 6.4 km/h
2830 13-04-2014 14:20:00 14.6 C 8.01 g/m*3 14.6 C 11.3 km/h
2831 13-04-2014 14:25:00 14.6 C 8.01 g/m*3 14.6 C 4.8 km/h
2832 13-04-2014 14:30:00 14.8 C 8.23 g/m*3 14.8 C 6.4 km/h
2833 13-04-2014 14:35:00 14.9 C 7.9 g/m*3 14.9 C 4.8 km/h
2834 13-04-2014 14:40:00 14.9 C 8.03 g/m*3 14.9 C 3.2 km/h
2835 13-04-2014 14:45:00 15 C 7.95 g/m*3 15 C 4.8 km/h
2836 13-04-2014 14:50:00 14.9 C 7.77 g/m*3 14.9 C 3.2 km/h
2837 13-04-2014 14:55:00 14.7 C 7.81 g/m*3 14.7 C 1.6 km/h
2838 13-04-2014 15:00:00 14.5 C 7.96 g/m*3 14.5 C 6.4 km/h
2839 13-04-2014 15:05:00 14.5 C 7.84 g/m*3 14.5 C 11.3 km/h
2840 13-04-2014 15:10:00 14.5 C 7.84 g/m*3 14.5 C 6.4 km/h
2841 13-04-2014 15:15:00 14.5 C 7.84 g/m*3 14.5 C 4.8 km/h
2842 13-04-2014 15:20:00 14.9 C 8.16 g/m*3 14.9 C 11.3 km/h
2843 13-04-2014 15:25:00 15.1 C 8.26 g/m*3 15.1 C 11.3 km/h
2844 13-04-2014 15:30:00 15.1 C 8.13 g/m*3 15.1 C 9.7 km/h
2845 13-04-2014 15:35:00 15.2 C 8.05 g/m*3 15.2 C 8.1 km/h
2846 13-04-2014 15:40:00 15.2 C 8.05 g/m*3 15.2 C 11.3 km/h
2847 13-04-2014 15:45:00 15.2 C 7.92 g/m*3 15.2 C 16.1 km/h
2848 13-04-2014 15:50:00 15.2 C 7.92 g/m*3 15.2 C 17.7 km/h
2849 13-04-2014 15:55:00 14.9 C 7.65 g/m*3 14.9 C 17.7 km/h
2850 13-04-2014 16:00:00 14.8 C 7.85 g/m*3 14.8 C 6.4 km/h
Sensor: Nr:Datum:Temp:Abs-Feuchte:Windchill:Wind:
Aussen-T/F 2851 13-04-2014 16:05:00 14.7 C 7.81 g/m*3 14.7 C 6.4 km/h
2852 13-04-2014 16:10:00 14.6 C 7.76 g/m*3 14.6 C 9.7 km/h
2853 13-04-2014 16:15:00 14.6 C 7.76 g/m*3 14.6 C 9.7 km/h
2854 13-04-2014 16:20:00 14.6 C 7.88 g/m*3 14.6 C 11.3 km/h
2855 13-04-2014 16:25:00 15 C 8.33 g/m*3 15 C 6.4 km/h
2856 13-04-2014 16:30:00 15.2 C 8.05 g/m*3 15.2 C 12.9 km/h
2857 13-04-2014 16:35:00 15.3 C 8.23 g/m*3 15.3 C 8.1 km/h
2858 13-04-2014 16:40:00 15.3 C 7.97 g/m*3 15.3 C 11.3 km/h
2859 13-04-2014 16:45:00 15.2 C 7.92 g/m*3 15.2 C 8.1 km/h
2860 13-04-2014 16:50:00 15 C 7.69 g/m*3 15 C 11.3 km/h
2861 13-04-2014 16:55:00 14.9 C 7.65 g/m*3 14.9 C 8.1 km/h
2862 13-04-2014 17:00:00 14.9 C 7.65 g/m*3 14.9 C 8.1 km/h
2863 13-04-2014 17:05:00 14.9 C 7.52 g/m*3 14.9 C 11.3 km/h
2864 13-04-2014 17:10:00 14.9 C 7.52 g/m*3 14.9 C 9.7 km/h
2865 13-04-2014 17:15:00 14.9 C 7.39 g/m*3 14.9 C 11.3 km/h
2866 13-04-2014 17:20:00 14.9 C 7.39 g/m*3 14.9 C 8.1 km/h
2867 13-04-2014 17:25:00 14.9 C 7.39 g/m*3 14.9 C 9.7 km/h
2868 13-04-2014 17:30:00 14.9 C 7.39 g/m*3 14.9 C 11.3 km/h
2869 13-04-2014 17:35:00 14.9 C 7.39 g/m*3 14.9 C 6.4 km/h
2870 13-04-2014 17:40:00 15.1 C 7.35 g/m*3 15.1 C 9.7 km/h
2871 13-04-2014 17:45:00 15.3 C 7.18 g/m*3 15.3 C 9.7 km/h
2872 13-04-2014 17:50:00 15.3 C 7.05 g/m*3 15.3 C 12.9 km/h
2873 13-04-2014 17:55:00 15.3 C 6.92 g/m*3 15.3 C 12.9 km/h
2874 13-04-2014 18:00:00 15.1 C 7.1 g/m*3 15.1 C 12.9 km/h
2875 13-04-2014 18:05:00 15.1 C 7.22 g/m*3 15.1 C 9.7 km/h
Sensor: Nr:Datum:Temp:Abs-Feuchte:Windchill:Wind:
Aussen-T/F 2876 13-04-2014 18:10:00 15.1 C 7.22 g/m*3 15.1 C 8.1 km/h
2877 13-04-2014 18:15:00 15.2 C 7.01 g/m*3 15.2 C 17.7 km/h
2878 13-04-2014 18:20:00 15.5 C 7.14 g/m*3 15.5 C 6.4 km/h
2879 13-04-2014 18:25:00 15.8 C 6.87 g/m*3 15.8 C 8.1 km/h
2880 13-04-2014 18:30:00 15.8 C 7 g/m*3 15.8 C 8.1 km/h
2881 13-04-2014 18:35:00 15.3 C 6.79 g/m*3 15.3 C 12.9 km/h
2882 13-04-2014 18:40:00 15 C 7.05 g/m*3 15 C 6.4 km/h
2883 13-04-2014 18:45:00 14.6 C 6.88 g/m*3 14.6 C 9.7 km/h
2884 13-04-2014 18:50:00 14.4 C 7.05 g/m*3 14.4 C 9.7 km/h
2885 13-04-2014 18:55:00 14.3 C 7 g/m*3 14.3 C 6.4 km/h
2886 13-04-2014 19:00:00 14.2 C 6.84 g/m*3 14.2 C 9.7 km/h
2887 13-04-2014 19:05:00 14.1 C 6.8 g/m*3 14.1 C 11.3 km/h
2888 13-04-2014 19:10:00 14.1 C 6.8 g/m*3 14.1 C 8.1 km/h
2889 13-04-2014 19:15:00 14.1 C 6.8 g/m*3 14.1 C 9.7 km/h
2890 13-04-2014 19:20:00 13.9 C 6.71 g/m*3 13.9 C 6.4 km/h
2891 13-04-2014 19:25:00 13.9 C 7.07 g/m*3 13.9 C 14.5 km/h
2892 13-04-2014 19:30:00 13.8 C 7.15 g/m*3 13.8 C 9.7 km/h
2893 13-04-2014 19:35:00 13.8 C 7.15 g/m*3 13.8 C 9.7 km/h
2894 13-04-2014 19:40:00 13.7 C 7.1 g/m*3 13.7 C 4.8 km/h
2895 13-04-2014 19:45:00 13.7 C 7.1 g/m*3 13.7 C 4.8 km/h
2896 13-04-2014 19:50:00 13.5 C 7.02 g/m*3 13.5 C 3.2 km/h
2897 13-04-2014 19:55:00 13.3 C 7.16 g/m*3 13.3 C 11.3 km/h
2898 13-04-2014 20:00:00 13.3 C 7.05 g/m*3 13.3 C 4.8 km/h
2899 13-04-2014 20:05:00 13.3 C 7.16 g/m*3 13.3 C 8.1 km/h
2900 13-04-2014 20:10:00 13.2 C 7.12 g/m*3 13.2 C 3.2 km/h
Sensor: Nr:Datum:Temp:Abs-Feuchte:Windchill:Wind:
Aussen-T/F 2901 13-04-2014 20:15:00 13.2 C 7.35 g/m*3 13.2 C 3.2 km/h
2902 13-04-2014 20:20:00 13.1 C 7.42 g/m*3 13.1 C 3.2 km/h
2903 13-04-2014 20:25:00 13.1 C 7.42 g/m*3 13.1 C 3.2 km/h
2904 13-04-2014 20:30:00 13.1 C 7.42 g/m*3 13.1 C 1.6 km/h
2905 13-04-2014 20:35:00 12.8 C 7.28 g/m*3 12.8 C 4.8 km/h
2906 13-04-2014 20:40:00 12.8 C 7.28 g/m*3 12.8 C 3.2 km/h
2907 13-04-2014 20:45:00 12.8 C 7.28 g/m*3 12.8 C 3.2 km/h
2908 13-04-2014 20:50:00 12.7 C 7.35 g/m*3 12.7 C 3.2 km/h
2909 13-04-2014 20:55:00 12.6 C 7.3 g/m*3 12.6 C 1.6 km/h
2910 13-04-2014 21:00:00 12.5 C 7.48 g/m*3 12.5 C 1.6 km/h
2911 13-04-2014 21:05:00 12.3 C 7.28 g/m*3 12.3 C 1.6 km/h
2912 13-04-2014 21:10:00 12.3 C 7.38 g/m*3 12.3 C 3.2 km/h
2913 13-04-2014 21:15:00 12.2 C 7.23 g/m*3 12.2 C 1.6 km/h
2914 13-04-2014 21:20:00 12.2 C 7.34 g/m*3 12.2 C 1.6 km/h
2915 13-04-2014 21:25:00 12.1 C 7.4 g/m*3 12.1 C 1.6 km/h
2916 13-04-2014 21:30:00 11.9 C 7.52 g/m*3 11.9 C 3.2 km/h
2917 13-04-2014 21:35:00 11.8 C 7.37 g/m*3 11.8 C 1.6 km/h
2918 13-04-2014 21:40:00 11.7 C 7.32 g/m*3 11.7 C 1.6 km/h
2919 13-04-2014 21:45:00 11.7 C 7.32 g/m*3 11.7 C 1.6 km/h
2920 13-04-2014 21:50:00 11.6 C 7.28 g/m*3 11.6 C 3.2 km/h
2921 13-04-2014 21:55:00 11.5 C 7.33 g/m*3 11.5 C 1.6 km/h
2922 13-04-2014 22:00:00 11.4 C 7.39 g/m*3 11.4 C 4.8 km/h
2923 13-04-2014 22:05:00 11.3 C 7.24 g/m*3 11.3 C 3.2 km/h
2924 13-04-2014 22:10:00 11.3 C 7.34 g/m*3 11.3 C 4.8 km/h
2925 13-04-2014 22:15:00 11.3 C 7.24 g/m*3 11.3 C 3.2 km/h
Sensor: Nr:Datum:Temp:Abs-Feuchte:Windchill:Wind:
Aussen-T/F 2926 13-04-2014 22:20:00 11.3 C 7.14 g/m*3 11.3 C 1.6 km/h
2927 13-04-2014 22:25:00 11.3 C 7.14 g/m*3 11.3 C 3.2 km/h
2928 13-04-2014 22:30:00 11.3 C 7.14 g/m*3 11.3 C 4.8 km/h
2929 13-04-2014 22:35:00 11.2 C 7.1 g/m*3 11.2 C 1.6 km/h
2930 13-04-2014 22:40:00 11.1 C 7.25 g/m*3 11.1 C 3.2 km/h
2931 13-04-2014 22:45:00 10.8 C 7.22 g/m*3 10.8 C 3.2 km/h
2932 13-04-2014 22:50:00 10.6 C 7.12 g/m*3 10.6 C 4.8 km/h
2933 13-04-2014 22:55:00 10.4 C 7.04 g/m*3 10.4 C 4.8 km/h
2934 13-04-2014 23:00:00 10.2 C 7.04 g/m*3 10.2 C 1.6 km/h
2935 13-04-2014 23:05:00 10.1 C 7.19 g/m*3 10.1 C 3.2 km/h
2936 13-04-2014 23:10:00 9.9 C 7.1 g/m*3 9.9 C 3.2 km/h
2937 13-04-2014 23:15:00 9.8 C 7.05 g/m*3 9.8 C 4.8 km/h
2938 13-04-2014 23:20:00 9.8 C 7.05 g/m*3 9.8 C 3.2 km/h
2939 13-04-2014 23:25:00 9.7 C 7.01 g/m*3 9.7 C 3.2 km/h
2940 13-04-2014 23:30:00 9.8 C 6.96 g/m*3 9.8 C 4.8 km/h
2941 13-04-2014 23:35:00 9.8 C 6.96 g/m*3 9.8 C 4.8 km/h
2942 13-04-2014 23:40:00 9.7 C 7.01 g/m*3 9.7 C 0 km/h
2943 13-04-2014 23:45:00 9.6 C 6.96 g/m*3 9.6 C 1.6 km/h
2944 13-04-2014 23:50:00 9.4 C 6.96 g/m*3 9.4 C 4.8 km/h
2945 13-04-2014 23:55:00 9.3 C 7.01 g/m*3 9.3 C 1.6 km/h
2946 14-04-2014 00:00:00 9.1 C 7.01 g/m*3 9.1 C 1.6 km/h
2947 14-04-2014 00:05:00 9 C 6.88 g/m*3 9 C 1.6 km/h
2948 14-04-2014 00:10:00 8.9 C 6.83 g/m*3 8.9 C 3.2 km/h
2949 14-04-2014 00:15:00 8.9 C 6.92 g/m*3 8.9 C 3.2 km/h
2950 14-04-2014 00:20:00 8.8 C 6.88 g/m*3 8.8 C 4.8 km/h
Sensor: Nr:Datum:Temp:Abs-Feuchte:Windchill:Wind:
Aussen-T/F 2951 14-04-2014 00:25:00 8.7 C 6.92 g/m*3 8.7 C 0 km/h
2952 14-04-2014 00:30:00 8.6 C 6.87 g/m*3 7.75 C 6.4 km/h
2953 14-04-2014 00:35:00 8.6 C 6.87 g/m*3 7.75 C 6.4 km/h
2954 14-04-2014 00:40:00 8.7 C 6.92 g/m*3 8.7 C 1.6 km/h
2955 14-04-2014 00:45:00 8.9 C 6.92 g/m*3 8.1 C 6.4 km/h
2956 14-04-2014 00:50:00 9 C 6.96 g/m*3 9 C 3.2 km/h
2957 14-04-2014 00:55:00 9.1 C 7.01 g/m*3 9.1 C 0 km/h
2958 14-04-2014 01:00:00 9.1 C 6.92 g/m*3 9.1 C 4.8 km/h
2959 14-04-2014 01:05:00 9.2 C 6.97 g/m*3 8.05 C 8.1 km/h
2960 14-04-2014 01:10:00 9.2 C 6.97 g/m*3 9.2 C 3.2 km/h
2961 14-04-2014 01:15:00 9.1 C 6.92 g/m*3 9.1 C 4.8 km/h
2962 14-04-2014 01:20:00 9.1 C 7.01 g/m*3 9.1 C 0 km/h
2963 14-04-2014 01:25:00 9.1 C 7.01 g/m*3 9.1 C 3.2 km/h
2964 14-04-2014 01:30:00 9.2 C 6.97 g/m*3 8.45 C 6.4 km/h
2965 14-04-2014 01:35:00 9.4 C 6.96 g/m*3 8.68 C 6.4 km/h
2966 14-04-2014 01:40:00 9.5 C 6.92 g/m*3 9.5 C 4.8 km/h
2967 14-04-2014 01:45:00 9.6 C 6.96 g/m*3 8.91 C 6.4 km/h
2968 14-04-2014 01:50:00 9.6 C 6.96 g/m*3 8.91 C 6.4 km/h
2969 14-04-2014 01:55:00 9.6 C 6.96 g/m*3 8.52 C 8.1 km/h
2970 14-04-2014 02:00:00 9.5 C 7.01 g/m*3 9.5 C 4.8 km/h
2971 14-04-2014 02:05:00 9.5 C 7.01 g/m*3 9.5 C 4.8 km/h
2972 14-04-2014 02:10:00 9.4 C 6.96 g/m*3 9.4 C 4.8 km/h
2973 14-04-2014 02:15:00 9.4 C 6.96 g/m*3 9.4 C 3.2 km/h
2974 14-04-2014 02:20:00 9.3 C 7.01 g/m*3 9.3 C 1.6 km/h
2975 14-04-2014 02:25:00 9 C 6.96 g/m*3 9 C 1.6 km/h
Sensor: Nr:Datum:Temp:Abs-Feuchte:Windchill:Wind:
Aussen-T/F 2976 14-04-2014 02:30:00 8.7 C 6.92 g/m*3 8.7 C 0 km/h
2977 14-04-2014 02:35:00 8.4 C 6.79 g/m*3 8.4 C 0 km/h
2978 14-04-2014 02:40:00 8.2 C 6.78 g/m*3 8.2 C 3.2 km/h
2979 14-04-2014 02:45:00 8.2 C 6.87 g/m*3 8.2 C 4.8 km/h
2980 14-04-2014 02:50:00 8.2 C 6.87 g/m*3 8.2 C 3.2 km/h
2981 14-04-2014 02:55:00 8.1 C 6.82 g/m*3 8.1 C 0 km/h
2982 14-04-2014 03:00:00 7.9 C 6.82 g/m*3 7.9 C 0 km/h
2983 14-04-2014 03:05:00 7.7 C 6.73 g/m*3 7.7 C 1.6 km/h
2984 14-04-2014 03:10:00 7.5 C 6.72 g/m*3 7.5 C 1.6 km/h
2985 14-04-2014 03:15:00 7.4 C 6.68 g/m*3 7.4 C 1.6 km/h
2986 14-04-2014 03:20:00 7.2 C 6.67 g/m*3 7.2 C 0 km/h
2987 14-04-2014 03:25:00 7.2 C 6.67 g/m*3 7.2 C 0 km/h
2988 14-04-2014 03:30:00 7.1 C 6.63 g/m*3 7.1 C 4.8 km/h
2989 14-04-2014 03:35:00 7.1 C 6.71 g/m*3 6.02 C 6.4 km/h
2990 14-04-2014 03:40:00 7.2 C 6.75 g/m*3 5.35 C 9.7 km/h
2991 14-04-2014 03:45:00 7.3 C 6.79 g/m*3 5.47 C 9.7 km/h
2992 14-04-2014 03:50:00 7.4 C 6.76 g/m*3 5.93 C 8.1 km/h
2993 14-04-2014 03:55:00 7.5 C 6.72 g/m*3 5.14 C 12.9 km/h
2994 14-04-2014 04:00:00 7.5 C 6.72 g/m*3 6.05 C 8.1 km/h
2995 14-04-2014 04:05:00 7.5 C 6.72 g/m*3 5.7 C 9.7 km/h
2996 14-04-2014 04:10:00 7.6 C 6.77 g/m*3 5.82 C 9.7 km/h
2997 14-04-2014 04:15:00 7.7 C 6.81 g/m*3 6.28 C 8.1 km/h
2998 14-04-2014 04:20:00 7.7 C 6.73 g/m*3 5.65 C 11.3 km/h
2999 14-04-2014 04:25:00 7.7 C 6.73 g/m*3 5.65 C 11.3 km/h
3000 14-04-2014 04:30:00 7.6 C 6.69 g/m*3 6.6 C 6.4 km/h
Sensor: Nr:Datum:Temp:Abs-Feuchte:Windchill:Wind:
Aussen-T/F 3001 14-04-2014 04:35:00 7.5 C 6.72 g/m*3 5.41 C 11.3 km/h
3002 14-04-2014 04:40:00 7.4 C 6.68 g/m*3 5.58 C 9.7 km/h
3003 14-04-2014 04:45:00 7.4 C 6.68 g/m*3 6.37 C 6.4 km/h
3004 14-04-2014 04:50:00 7.6 C 6.77 g/m*3 5.53 C 11.3 km/h
3005 14-04-2014 04:55:00 7.7 C 6.81 g/m*3 5.65 C 11.3 km/h
3006 14-04-2014 05:00:00 7.8 C 6.77 g/m*3 6.4 C 8.1 km/h
3007 14-04-2014 05:05:00 7.8 C 6.77 g/m*3 6.06 C 9.7 km/h
3008 14-04-2014 05:10:00 7.8 C 6.77 g/m*3 5.77 C 11.3 km/h
3009 14-04-2014 05:15:00 7.8 C 6.77 g/m*3 6.4 C 8.1 km/h
3010 14-04-2014 05:20:00 7.8 C 6.77 g/m*3 6.06 C 9.7 km/h
3011 14-04-2014 05:25:00 7.8 C 6.77 g/m*3 6.4 C 8.1 km/h
3012 14-04-2014 05:30:00 7.8 C 6.77 g/m*3 6.4 C 8.1 km/h
3013 14-04-2014 05:35:00 7.8 C 6.77 g/m*3 6.4 C 8.1 km/h
3014 14-04-2014 05:40:00 7.9 C 6.82 g/m*3 6.18 C 9.7 km/h
3015 14-04-2014 05:45:00 8 C 6.78 g/m*3 6.3 C 9.7 km/h
3016 14-04-2014 05:50:00 8.1 C 6.82 g/m*3 5.64 C 14.5 km/h
3017 14-04-2014 05:55:00 8.1 C 6.82 g/m*3 6.75 C 8.1 km/h
3018 14-04-2014 06:00:00 8.2 C 6.87 g/m*3 6.54 C 9.7 km/h
3019 14-04-2014 06:05:00 8.3 C 6.83 g/m*3 6.66 C 9.7 km/h
3020 14-04-2014 06:10:00 8.3 C 6.83 g/m*3 6.66 C 9.7 km/h
3021 14-04-2014 06:15:00 8.3 C 6.83 g/m*3 6.12 C 12.9 km/h
3022 14-04-2014 06:20:00 8.4 C 6.87 g/m*3 7.52 C 6.4 km/h
3023 14-04-2014 06:25:00 8.4 C 6.87 g/m*3 6.78 C 9.7 km/h
3024 14-04-2014 06:30:00 8.5 C 6.92 g/m*3 7.64 C 6.4 km/h
3025 14-04-2014 06:35:00 8.5 C 6.92 g/m*3 7.64 C 6.4 km/h
Sensor: Nr:Datum:Temp:Abs-Feuchte:Windchill:Wind:
Aussen-T/F 3026 14-04-2014 06:40:00 8.5 C 6.92 g/m*3 7.22 C 8.1 km/h
3027 14-04-2014 06:45:00 8.6 C 6.96 g/m*3 7.34 C 8.1 km/h
3028 14-04-2014 06:50:00 8.6 C 6.96 g/m*3 7.75 C 6.4 km/h
3029 14-04-2014 06:55:00 8.6 C 6.96 g/m*3 8.6 C 4.8 km/h
3030 14-04-2014 07:00:00 8.6 C 6.96 g/m*3 8.6 C 4.8 km/h
3031 14-04-2014 07:05:00 8.5 C 6.92 g/m*3 6.9 C 9.7 km/h
3032 14-04-2014 07:10:00 8.5 C 6.92 g/m*3 8.5 C 4.8 km/h
3033 14-04-2014 07:15:00 8.6 C 6.96 g/m*3 7.34 C 8.1 km/h
3034 14-04-2014 07:20:00 8.6 C 6.96 g/m*3 8.6 C 3.2 km/h
3035 14-04-2014 07:25:00 8.6 C 6.96 g/m*3 7.34 C 8.1 km/h
3036 14-04-2014 07:30:00 8.6 C 6.96 g/m*3 7.75 C 6.4 km/h
3037 14-04-2014 07:35:00 8.6 C 6.96 g/m*3 8.6 C 4.8 km/h
3038 14-04-2014 07:40:00 8.6 C 6.96 g/m*3 7.34 C 8.1 km/h
3039 14-04-2014 07:45:00 8.7 C 7.01 g/m*3 8.7 C 3.2 km/h
3040 14-04-2014 07:50:00 8.7 C 7.01 g/m*3 7.46 C 8.1 km/h
3041 14-04-2014 07:55:00 8.7 C 7.09 g/m*3 7.46 C 8.1 km/h
3042 14-04-2014 08:00:00 8.7 C 7.09 g/m*3 7.13 C 9.7 km/h
3043 14-04-2014 08:05:00 8.7 C 7.09 g/m*3 6.85 C 11.3 km/h
3044 14-04-2014 08:10:00 8.7 C 7.09 g/m*3 7.46 C 8.1 km/h
3045 14-04-2014 08:15:00 8.7 C 7.09 g/m*3 7.87 C 6.4 km/h
3046 14-04-2014 08:20:00 8.8 C 7.14 g/m*3 7.58 C 8.1 km/h
3047 14-04-2014 08:25:00 8.8 C 7.14 g/m*3 7.58 C 8.1 km/h
3048 14-04-2014 08:30:00 8.9 C 7.1 g/m*3 7.37 C 9.7 km/h
3049 14-04-2014 08:35:00 8.9 C 7.18 g/m*3 7.09 C 11.3 km/h
3050 14-04-2014 08:40:00 8.9 C 7.18 g/m*3 8.1 C 6.4 km/h
Sensor: Nr:Datum:Temp:Abs-Feuchte:Windchill:Wind:
Aussen-T/F 3051 14-04-2014 08:45:00 8.9 C 7.18 g/m*3 7.69 C 8.1 km/h
3052 14-04-2014 08:50:00 9 C 7.05 g/m*3 7.49 C 9.7 km/h
3053 14-04-2014 08:55:00 9.2 C 6.97 g/m*3 7.73 C 9.7 km/h
3054 14-04-2014 09:00:00 9.4 C 6.96 g/m*3 8.28 C 8.1 km/h
3055 14-04-2014 09:05:00 9.5 C 7.1 g/m*3 8.4 C 8.1 km/h
3056 14-04-2014 09:10:00 9.4 C 7.42 g/m*3 9.4 C 3.2 km/h
3057 14-04-2014 09:15:00 9.4 C 7.42 g/m*3 9.4 C 3.2 km/h
3058 14-04-2014 09:20:00 9.5 C 7.46 g/m*3 9.5 C 3.2 km/h
3059 14-04-2014 09:25:00 9.6 C 7.42 g/m*3 9.6 C 3.2 km/h
3060 14-04-2014 09:30:00 9.7 C 6.82 g/m*3 7.41 C 16.1 km/h
3061 14-04-2014 09:35:00 9.9 C 6.82 g/m*3 8.3 C 11.3 km/h
3062 14-04-2014 09:40:00 10.2 C 6.85 g/m*3 8.43 C 12.9 km/h
3063 14-04-2014 09:45:00 10.3 C 6.9 g/m*3 9.04 C 9.7 km/h
3064 14-04-2014 09:50:00 10.4 C 6.55 g/m*3 8.67 C 12.9 km/h
3065 14-04-2014 09:55:00 10.6 C 6.73 g/m*3 9.14 C 11.3 km/h
3066 14-04-2014 10:00:00 10.7 C 6.78 g/m*3 8.84 C 14.5 km/h
3067 14-04-2014 10:05:00 10.8 C 6.42 g/m*3 7.79 C 27.4 km/h
3068 14-04-2014 10:10:00 10.9 C 6.56 g/m*3 8.9 C 16.1 km/h
3069 14-04-2014 10:15:00 11 C 6.21 g/m*3 9.4 C 12.9 km/h
3070 14-04-2014 10:20:00 11.1 C 6.45 g/m*3 11.1 C 19.3 km/h
3071 14-04-2014 10:25:00 11 C 6.51 g/m*3 9.21 C 14.5 km/h
3072 14-04-2014 10:30:00 10.7 C 6.78 g/m*3 8.65 C 16.1 km/h
3073 14-04-2014 10:35:00 10.4 C 6.84 g/m*3 7.8 C 20.9 km/h
3074 14-04-2014 10:40:00 10.1 C 6.81 g/m*3 7.57 C 19.3 km/h
3075 14-04-2014 10:45:00 9.8 C 6.87 g/m*3 8.75 C 8.1 km/h
Sensor: Nr:Datum:Temp:Abs-Feuchte:Windchill:Wind:
Aussen-T/F 3076 14-04-2014 10:50:00 9.8 C 6.77 g/m*3 7.36 C 17.7 km/h
3077 14-04-2014 10:55:00 9.6 C 6.78 g/m*3 7.7 C 12.9 km/h
3078 14-04-2014 11:00:00 9.4 C 6.87 g/m*3 8.28 C 8.1 km/h
3079 14-04-2014 11:05:00 9.3 C 6.92 g/m*3 7.85 C 9.7 km/h
3080 14-04-2014 11:10:00 9.2 C 6.79 g/m*3 8.45 C 6.4 km/h
3081 14-04-2014 11:15:00 9.3 C 7.01 g/m*3 9.3 C 1.6 km/h
3082 14-04-2014 11:20:00 9.4 C 7.05 g/m*3 8.68 C 6.4 km/h
3083 14-04-2014 11:25:00 9.9 C 6.91 g/m*3 8.56 C 9.7 km/h
3084 14-04-2014 11:30:00 10.4 C 6.84 g/m*3 8.9 C 11.3 km/h
3085 14-04-2014 11:35:00 10.7 C 7.17 g/m*3 8.84 C 14.5 km/h
3086 14-04-2014 11:40:00 10.7 C 6.97 g/m*3 9.04 C 12.9 km/h
3087 14-04-2014 11:45:00 10.6 C 6.64 g/m*3 7.78 C 24.1 km/h
3088 14-04-2014 11:50:00 10.3 C 6.8 g/m*3 8.78 C 11.3 km/h
3089 14-04-2014 11:55:00 10.1 C 6.81 g/m*3 8.54 C 11.3 km/h
3090 14-04-2014 12:00:00 10.1 C 6.81 g/m*3 8.54 C 11.3 km/h
3091 14-04-2014 12:05:00 10.2 C 6.85 g/m*3 8.43 C 12.9 km/h
3092 14-04-2014 12:10:00 10.7 C 6.38 g/m*3 8.65 C 16.1 km/h
3093 14-04-2014 12:15:00 11.2 C 6.49 g/m*3 11.2 C 14.5 km/h
3094 14-04-2014 12:20:00 11.6 C 6.24 g/m*3 11.6 C 16.1 km/h
3095 14-04-2014 12:25:00 11.7 C 6.07 g/m*3 11.7 C 19.3 km/h
3096 14-04-2014 12:30:00 11.7 C 6.28 g/m*3 11.7 C 17.7 km/h
3097 14-04-2014 12:35:00 11.8 C 6.31 g/m*3 11.8 C 17.7 km/h
3098 14-04-2014 12:40:00 11.9 C 6.25 g/m*3 11.9 C 11.3 km/h
3099 14-04-2014 12:45:00 12 C 6.18 g/m*3 12 C 25.7 km/h
3100 14-04-2014 12:50:00 12 C 6.07 g/m*3 12 C 22.5 km/h
Sensor: Nr:Datum:Temp:Abs-Feuchte:Windchill:Wind:
Aussen-T/F 3101 14-04-2014 12:55:00 11.9 C 5.93 g/m*3 11.9 C 11.3 km/h
3102 14-04-2014 13:00:00 11.9 C 6.14 g/m*3 11.9 C 11.3 km/h
3103 14-04-2014 13:05:00 12.1 C 6.01 g/m*3 12.1 C 19.3 km/h
3104 14-04-2014 13:10:00 12.4 C 6.01 g/m*3 12.4 C 16.1 km/h
3105 14-04-2014 13:15:00 12.5 C 6.05 g/m*3 12.5 C 22.5 km/h
3106 14-04-2014 13:20:00 12.6 C 5.97 g/m*3 12.6 C 12.9 km/h
3107 14-04-2014 13:25:00 12.7 C 6.23 g/m*3 12.7 C 17.7 km/h
3108 14-04-2014 13:30:00 13 C 6.24 g/m*3 13 C 11.3 km/h
3109 14-04-2014 13:35:00 13.4 C 6.28 g/m*3 13.4 C 12.9 km/h
3110 14-04-2014 13:40:00 13.6 C 6.12 g/m*3 13.6 C 14.5 km/h
3111 14-04-2014 13:45:00 13.2 C 6.09 g/m*3 13.2 C 24.1 km/h
3112 14-04-2014 13:50:00 13.2 C 5.86 g/m*3 13.2 C 20.9 km/h
3113 14-04-2014 13:55:00 13.4 C 5.81 g/m*3 13.4 C 20.9 km/h
3114 14-04-2014 14:00:00 13.5 C 5.73 g/m*3 13.5 C 22.5 km/h
3115 14-04-2014 14:05:00 13.7 C 5.8 g/m*3 13.7 C 20.9 km/h
3116 14-04-2014 14:10:00 13.8 C 5.84 g/m*3 13.8 C 22.5 km/h
3117 14-04-2014 14:15:00 13.9 C 6.11 g/m*3 13.9 C 19.3 km/h
3118 14-04-2014 14:20:00 14.2 C 5.62 g/m*3 14.2 C 24.1 km/h
3119 14-04-2014 14:25:00 13.8 C 5.72 g/m*3 13.8 C 19.3 km/h
3120 14-04-2014 14:30:00 13.4 C 5.7 g/m*3 13.4 C 29 km/h
3121 14-04-2014 14:35:00 12.7 C 6.23 g/m*3 12.7 C 45 km/h
3122 14-04-2014 14:40:00 12.3 C 6.08 g/m*3 12.3 C 16.1 km/h
3123 14-04-2014 14:45:00 12.7 C 6.46 g/m*3 12.7 C 8.1 km/h
3124 14-04-2014 14:50:00 13.3 C 6.35 g/m*3 13.3 C 16.1 km/h
3125 14-04-2014 14:55:00 13.4 C 6.16 g/m*3 13.4 C 16.1 km/h
Sensor: Nr:Datum:Temp:Abs-Feuchte:Windchill:Wind:
Aussen-T/F 3126 14-04-2014 15:00:00 14.3 C 6.63 g/m*3 14.3 C 16.1 km/h
3127 14-04-2014 15:05:00 14.3 C 6.14 g/m*3 14.3 C 17.7 km/h
3128 14-04-2014 15:10:00 13.8 C 5.84 g/m*3 13.8 C 22.5 km/h
3129 14-04-2014 15:15:00 13.8 C 5.72 g/m*3 13.8 C 27.4 km/h
3130 14-04-2014 15:20:00 14.1 C 5.58 g/m*3 14.1 C 16.1 km/h
3131 14-04-2014 15:25:00 14 C 5.79 g/m*3 14 C 33.8 km/h
3132 14-04-2014 15:30:00 13.6 C 5.88 g/m*3 13.6 C 24.1 km/h
3133 14-04-2014 15:35:00 12.7 C 6.01 g/m*3 12.7 C 29 km/h
3134 14-04-2014 15:40:00 11.9 C 5.61 g/m*3 11.9 C 27.4 km/h
3135 14-04-2014 15:45:00 11.7 C 5.96 g/m*3 11.7 C 19.3 km/h
3136 14-04-2014 15:50:00 11.8 C 6 g/m*3 11.8 C 25.7 km/h
3137 14-04-2014 15:55:00 12.5 C 6.27 g/m*3 12.5 C 14.5 km/h
3138 14-04-2014 16:00:00 12.8 C 6.38 g/m*3 12.8 C 19.3 km/h
3139 14-04-2014 16:05:00 13.2 C 6.54 g/m*3 13.2 C 16.1 km/h
3140 14-04-2014 16:10:00 13.2 C 6.32 g/m*3 13.2 C 27.4 km/h
3141 14-04-2014 16:15:00 12.8 C 6.16 g/m*3 12.8 C 19.3 km/h
3142 14-04-2014 16:20:00 13 C 6.69 g/m*3 13 C 16.1 km/h
3143 14-04-2014 16:25:00 13.5 C 6.43 g/m*3 13.5 C 17.7 km/h
3144 14-04-2014 16:30:00 13.9 C 6.59 g/m*3 13.9 C 14.5 km/h
3145 14-04-2014 16:35:00 13.6 C 6.36 g/m*3 13.6 C 22.5 km/h
3146 14-04-2014 16:40:00 12.6 C 6.31 g/m*3 12.6 C 27.4 km/h
3147 14-04-2014 16:45:00 11.8 C 6.31 g/m*3 11.8 C 17.7 km/h
3148 14-04-2014 16:50:00 11.9 C 6.25 g/m*3 11.9 C 19.3 km/h
3149 14-04-2014 16:55:00 12.4 C 6.45 g/m*3 12.4 C 11.3 km/h
3150 14-04-2014 17:00:00 12.8 C 6.27 g/m*3 12.8 C 16.1 km/h
Sensor: Nr:Datum:Temp:Abs-Feuchte:Windchill:Wind:
Aussen-T/F 3151 14-04-2014 17:05:00 13.1 C 6.62 g/m*3 13.1 C 17.7 km/h
3152 14-04-2014 17:10:00 13.2 C 5.97 g/m*3 13.2 C 20.9 km/h
3153 14-04-2014 17:15:00 13.1 C 6.05 g/m*3 13.1 C 22.5 km/h
3154 14-04-2014 17:20:00 13.3 C 6.24 g/m*3 13.3 C 12.9 km/h
3155 14-04-2014 17:25:00 13.6 C 6.12 g/m*3 13.6 C 19.3 km/h
3156 14-04-2014 17:30:00 13.7 C 6.28 g/m*3 13.7 C 17.7 km/h
3157 14-04-2014 17:35:00 13.9 C 6.11 g/m*3 13.9 C 20.9 km/h
3158 14-04-2014 17:40:00 13.9 C 5.87 g/m*3 13.9 C 17.7 km/h
3159 14-04-2014 17:45:00 13.4 C 5.7 g/m*3 13.4 C 19.3 km/h
3160 14-04-2014 17:50:00 12.9 C 5.75 g/m*3 12.9 C 16.1 km/h
3161 14-04-2014 17:55:00 12.9 C 5.64 g/m*3 12.9 C 22.5 km/h
3162 14-04-2014 18:00:00 12.6 C 5.75 g/m*3 12.6 C 24.1 km/h
3163 14-04-2014 18:05:00 12.7 C 5.79 g/m*3 12.7 C 16.1 km/h
3164 14-04-2014 18:10:00 13.1 C 5.93 g/m*3 13.1 C 22.5 km/h
3165 14-04-2014 18:15:00 13.3 C 6.01 g/m*3 13.3 C 20.9 km/h
3166 14-04-2014 18:20:00 13.3 C 5.66 g/m*3 13.3 C 25.7 km/h
3167 14-04-2014 18:25:00 13.2 C 5.86 g/m*3 13.2 C 14.5 km/h
3168 14-04-2014 18:30:00 12.9 C 5.75 g/m*3 12.9 C 16.1 km/h
3169 14-04-2014 18:35:00 12.8 C 5.49 g/m*3 12.8 C 20.9 km/h
3170 14-04-2014 18:40:00 12.6 C 5.75 g/m*3 12.6 C 22.5 km/h
3171 14-04-2014 18:45:00 12.2 C 5.61 g/m*3 12.2 C 19.3 km/h
3172 14-04-2014 18:50:00 12.2 C 5.61 g/m*3 12.2 C 9.7 km/h
3173 14-04-2014 18:55:00 12.3 C 5.86 g/m*3 12.3 C 12.9 km/h
3174 14-04-2014 19:00:00 12.6 C 5.53 g/m*3 12.6 C 19.3 km/h
3175 14-04-2014 19:05:00 12.5 C 5.39 g/m*3 12.5 C 22.5 km/h
Sensor: Nr:Datum:Temp:Abs-Feuchte:Windchill:Wind:
Aussen-T/F 3176 14-04-2014 19:10:00 12.4 C 5.35 g/m*3 12.4 C 14.5 km/h
3177 14-04-2014 19:15:00 12.4 C 5.03 g/m*3 12.4 C 35.4 km/h
3178 14-04-2014 19:20:00 12.1 C 4.83 g/m*3 12.1 C 16.1 km/h
3179 14-04-2014 19:25:00 11.9 C 4.98 g/m*3 11.9 C 19.3 km/h
3180 14-04-2014 19:30:00 11.7 C 5.02 g/m*3 11.7 C 24.1 km/h
3181 14-04-2014 19:35:00 11.3 C 5.3 g/m*3 11.3 C 20.9 km/h
3182 14-04-2014 19:40:00 11.2 C 5.47 g/m*3 11.2 C 17.7 km/h
3183 14-04-2014 19:45:00 10.7 C 6.09 g/m*3 8.18 C 20.9 km/h
3184 14-04-2014 19:50:00 10.3 C 6.03 g/m*3 8.34 C 14.5 km/h
3185 14-04-2014 19:55:00 10.1 C 6.05 g/m*3 8.54 C 11.3 km/h
3186 14-04-2014 20:00:00 9.8 C 6.03 g/m*3 8.75 C 8.1 km/h
3187 14-04-2014 20:05:00 9.5 C 6.01 g/m*3 7.82 C 11.3 km/h
3188 14-04-2014 20:10:00 9.3 C 6.02 g/m*3 7.58 C 11.3 km/h
3189 14-04-2014 20:15:00 9.3 C 6.29 g/m*3 5.98 C 25.7 km/h
3190 14-04-2014 20:20:00 8.3 C 6.49 g/m*3 4.2 C 32.2 km/h
3191 14-04-2014 20:25:00 7.7 C 6.41 g/m*3 4.93 C 16.1 km/h
3192 14-04-2014 20:30:00 7.3 C 6.4 g/m*3 5.16 C 11.3 km/h
3193 14-04-2014 20:35:00 7.3 C 6.4 g/m*3 6.25 C 6.4 km/h
3194 14-04-2014 20:40:00 6.8 C 6.35 g/m*3 6.8 C 4.8 km/h
3195 14-04-2014 20:45:00 6.8 C 6.35 g/m*3 6.8 C 3.2 km/h
3196 14-04-2014 20:50:00 6.8 C 6.42 g/m*3 6.8 C 4.8 km/h
3197 14-04-2014 20:55:00 6.7 C 6.31 g/m*3 6.7 C 1.6 km/h
3198 14-04-2014 21:00:00 6.7 C 6.31 g/m*3 6.7 C 4.8 km/h
3199 14-04-2014 21:05:00 6.6 C 6.34 g/m*3 4.63 C 9.7 km/h
3200 14-04-2014 21:10:00 6.6 C 6.34 g/m*3 5.44 C 6.4 km/h
Sensor: Nr:Datum:Temp:Abs-Feuchte:Windchill:Wind:
Aussen-T/F 3201 14-04-2014 21:15:00 6.6 C 6.42 g/m*3 6.6 C 4.8 km/h
3202 14-04-2014 21:20:00 6.6 C 6.34 g/m*3 6.6 C 3.2 km/h
3203 14-04-2014 21:25:00 6.6 C 6.34 g/m*3 6.6 C 3.2 km/h
3204 14-04-2014 21:30:00 6.6 C 6.34 g/m*3 6.6 C 1.6 km/h
3205 14-04-2014 21:35:00 6.6 C 6.34 g/m*3 3.36 C 17.7 km/h
3206 14-04-2014 21:55:00 6.4 C 6.26 g/m*3 4.39 C 9.7 km/h
3207 14-04-2014 22:00:00 6.3 C 6.22 g/m*3 5.1 C 6.4 km/h
3208 14-04-2014 22:05:00 6.2 C 6.18 g/m*3 6.2 C 3.2 km/h
3209 14-04-2014 22:10:00 6.1 C 6.21 g/m*3 6.1 C 4.8 km/h
3210 14-04-2014 22:15:00 5.9 C 6.13 g/m*3 5.9 C 3.2 km/h
3211 14-04-2014 22:20:00 5.7 C 6.12 g/m*3 4.4 C 6.4 km/h
3212 14-04-2014 22:25:00 5.7 C 6.12 g/m*3 5.7 C 4.8 km/h
3213 14-04-2014 22:30:00 5.7 C 6.05 g/m*3 4.4 C 6.4 km/h
3214 14-04-2014 22:35:00 5.7 C 6.05 g/m*3 3.56 C 9.7 km/h
3215 14-04-2014 22:40:00 5.8 C 5.95 g/m*3 3.68 C 9.7 km/h
3216 14-04-2014 22:45:00 5.9 C 5.91 g/m*3 4.63 C 6.4 km/h
3217 14-04-2014 22:50:00 5.9 C 5.91 g/m*3 4.63 C 6.4 km/h
3218 14-04-2014 22:55:00 5.9 C 6.06 g/m*3 <